Time,TemperatureF,DewpointF,PressureIn,WindDirection,WindDirectionDegrees,WindSpeedMPH,WindSpeedGustMPH,Humidity,HourlyPrecipIn,Conditions,Clouds,dailyrainin,SolarRadiationWatts/m^2,SoftwareType,DateUTC
2013-03-15 00:00:00,76.6,31.3,29.32,SSW,210,12.3,15.5,19,-99.99,,,0.00,0,rob ver 1B,2013-03-15 07:00:00,
2013-03-15 00:01:00,76.5,31.6,29.32,SSW,211,11.3,14.0,19,-99.99,,,0.00,0,rob ver 1B,2013-03-15 07:01:00,
2013-03-15 00:02:00,76.3,31.8,29.32,SSW,211,11.6,13.5,19,-99.99,,,0.00,0,rob ver 1B,2013-03-15 07:02:00,
2013-03-15 00:03:00,76.2,31.9,29.32,SSW,209,11.7,13.4,19,-99.99,,,0.00,0,rob ver 1B,2013-03-15 07:03:00,
2013-03-15 00:04:00,75.6,33.2,29.44,NNW,327,2.6,3.1,21,-99.99,,,0.00,0,rob ver 1A,2013-03-15 07:04:00,
2013-03-15 00:05:00,75.9,31.8,29.32,SSW,201,11.0,13.6,19,-99.99,,,0.00,0,rob ver 1B,2013-03-15 07:05:00,
2013-03-15 00:06:00,75.8,31.8,29.32,SSW,197,11.5,13.9,19,-99.99,,,0.00,0,rob ver 1B,2013-03-15 07:06:00,
2013-03-15 00:07:00,75.7,31.8,29.32,SSW,197,10.5,13.7,20,-99.99,,,0.00,0,rob ver 1B,2013-03-15 07:07:00,
2013-03-15 00:08:00,75.6,31.7,29.32,SSW,198,11.4,14.9,19,-99.99,,,0.00,0,rob ver 1B,2013-03-15 07:08:00,
2013-03-15 00:09:00,75.1,32.5,29.44,SW,233,1.7,2.2,21,-99.99,,,0.00,0,rob ver 1A,2013-03-15 07:09:00,
2013-03-15 00:10:00,75.9,31.4,29.32,SSW,200,12.9,16.2,19,-99.99,,,0.00,0,rob ver 1B,2013-03-15 07:10:00,
2013-03-15 00:11:00,76.0,31.5,29.32,SSW,202,13.1,15.2,19,-99.99,,,0.00,0,rob ver 1B,2013-03-15 07:11:00,
2013-03-15 00:12:00,76.0,31.7,29.32,SSW,197,11.7,13.9,19,-99.99,,,0.00,0,rob ver 1B,2013-03-15 07:12:00,
2013-03-15 00:13:00,75.7,31.8,29.32,SSW,196,11.3,14.4,19,-99.99,,,0.00,0,rob ver 1B,2013-03-15 07:13:00,
2013-03-15 00:14:00,73.8,32.9,29.44,NE,42,1.3,2.6,22,-99.99,,,0.00,0,rob ver 1A,2013-03-15 07:14:00,
2013-03-15 00:15:00,75.3,31.8,29.32,SSW,195,12.1,14.1,20,-99.99,,,0.00,0,rob ver 1B,2013-03-15 07:15:00,
2013-03-15 00:16:00,75.3,31.9,29.32,SSW,197,12.6,15.7,20,-99.99,,,0.00,0,rob ver 1B,2013-03-15 07:16:00,
2013-03-15 00:17:00,75.4,32.0,29.32,SSW,198,13.0,14.9,20,-99.99,,,0.00,0,rob ver 1B,2013-03-15 07:17:00,
2013-03-15 00:18:00,75.3,32.0,29.32,SSW,196,12.2,14.4,20,-99.99,,,0.00,0,rob ver 1B,2013-03-15 07:18:00,
2013-03-15 00:19:00,73.3,32.8,29.44,NE,36,1.5,1.9,22,-99.99,,,0.00,0,rob ver 1A,2013-03-15 07:19:00,
2013-03-15 00:20:00,75.1,32.0,29.32,SSW,195,10.7,13.0,20,-99.99,,,0.00,0,rob ver 1B,2013-03-15 07:20:00,
2013-03-15 00:21:00,75.1,31.9,29.32,South,191,10.8,13.8,20,-99.99,,,0.00,0,rob ver 1B,2013-03-15 07:21:00,
2013-03-15 00:22:00,75.2,31.9,29.32,SSW,192,11.0,13.6,20,-99.99,,,0.00,0,rob ver 1B,2013-03-15 07:22:00,
2013-03-15 00:23:00,75.3,31.9,29.32,SSW,193,10.8,12.8,20,-99.99,,,0.00,0,rob ver 1B,2013-03-15 07:23:00,
2013-03-15 00:24:00,72.7,32.5,29.44,NNE,13,0.9,1.2,22,-99.99,,,0.00,0,rob ver 1A,2013-03-15 07:24:00,
2013-03-15 00:25:00,75.3,31.9,29.32,SSW,192,10.8,13.3,20,-99.99,,,0.00,0,rob ver 1B,2013-03-15 07:25:00,
2013-03-15 00:26:00,75.3,31.9,29.32,South,190,10.6,13.1,20,-99.99,,,0.00,0,rob ver 1B,2013-03-15 07:26:00,
2013-03-15 00:27:00,75.2,31.9,29.32,South,191,10.4,12.6,20,-99.99,,,0.00,0,rob ver 1B,2013-03-15 07:27:00,
2013-03-15 00:28:00,75.2,32.0,29.32,SSW,192,10.7,13.6,20,-99.99,,,0.00,0,rob ver 1B,2013-03-15 07:28:00,
2013-03-15 00:29:00,75.1,32.0,29.32,South,191,9.9,12.4,20,-99.99,,,0.00,0,rob ver 1B,2013-03-15 07:29:00,
2013-03-15 00:30:00,72.4,32.2,29.44,NE,38,1.1,1.3,22,-99.99,,,0.00,0,rob ver 1A,2013-03-15 07:30:00,
2013-03-15 00:31:00,74.8,32.1,29.32,South,191,9.3,11.0,20,-99.99,,,0.00,0,rob ver 1B,2013-03-15 07:31:00,
2013-03-15 00:32:00,74.7,32.2,29.32,SSW,192,9.4,11.9,20,-99.99,,,0.00,0,rob ver 1B,2013-03-15 07:32:00,
2013-03-15 00:33:00,74.6,32.3,29.32,South,189,9.7,11.7,21,-99.99,,,0.00,0,rob ver 1B,2013-03-15 07:33:00,
2013-03-15 00:34:00,74.6,32.5,29.32,South,190,9.2,11.5,21,-99.99,,,0.00,0,rob ver 1B,2013-03-15 07:34:00,
2013-03-15 00:35:00,71.7,32.2,29.44,NE,40,0.3,0.5,23,-99.99,,,0.00,0,rob ver 1A,2013-03-15 07:35:00,
2013-03-15 00:36:00,74.3,32.8,29.32,South,191,8.5,10.7,21,-99.99,,,0.00,0,rob ver 1B,2013-03-15 07:36:00,
2013-03-15 00:37:00,74.2,33.0,29.32,SSW,193,9.2,11.3,22,-99.99,,,0.00,0,rob ver 1B,2013-03-15 07:37:00,
2013-03-15 00:38:00,74.1,33.2,29.32,SSW,192,8.4,9.7,22,-99.99,,,0.00,0,rob ver 1B,2013-03-15 07:38:00,
2013-03-15 00:39:00,74.0,33.3,29.32,SSW,193,7.8,9.4,22,-99.99,,,0.00,0,rob ver 1B,2013-03-15 07:39:00,
2013-03-15 00:40:00,70.4,31.9,29.44,ENE,72,2.0,2.3,23,-99.99,,,0.00,0,rob ver 1A,2013-03-15 07:40:00,
2013-03-15 00:41:00,73.6,33.6,29.32,SSW,196,8.4,11.5,23,-99.99,,,0.00,0,rob ver 1B,2013-03-15 07:41:00,
2013-03-15 00:42:00,73.6,33.8,29.32,SSW,197,8.3,10.8,23,-99.99,,,0.00,0,rob ver 1B,2013-03-15 07:42:00,
2013-03-15 00:43:00,73.5,34.0,29.32,SSW,197,8.6,10.5,23,-99.99,,,0.00,0,rob ver 1B,2013-03-15 07:43:00,
2013-03-15 00:44:00,73.3,34.1,29.32,SSW,198,8.9,11.1,23,-99.99,,,0.00,0,rob ver 1B,2013-03-15 07:44:00,
2013-03-15 00:45:00,70.2,31.5,29.44,NE,53,1.0,1.4,23,-99.99,,,0.00,0,rob ver 1A,2013-03-15 07:45:00,
2013-03-15 00:46:00,73.1,34.2,29.32,SSW,199,8.8,10.7,24,-99.99,,,0.00,0,rob ver 1B,2013-03-15 07:46:00,
2013-03-15 00:47:00,73.0,34.2,29.32,SSW,194,8.0,10.2,24,-99.99,,,0.00,0,rob ver 1B,2013-03-15 07:47:00,
2013-03-15 00:48:00,72.9,34.2,29.32,South,187,7.3,9.4,24,-99.99,,,0.00,0,rob ver 1B,2013-03-15 07:48:00,
2013-03-15 00:49:00,72.9,34.1,29.32,South,185,7.3,8.6,24,-99.99,,,0.00,0,rob ver 1B,2013-03-15 07:49:00,
2013-03-15 00:50:00,70.1,31.3,29.44,East,80,0.5,0.6,23,-99.99,,,0.00,0,rob ver 1A,2013-03-15 07:50:00,
2013-03-15 00:51:00,73.0,34.0,29.32,South,186,6.2,8.1,23,-99.99,,,0.00,0,rob ver 1B,2013-03-15 07:51:00,
2013-03-15 00:52:00,72.9,34.0,29.32,South,182,5.8,7.2,24,-99.99,,,0.00,0,rob ver 1B,2013-03-15 07:52:00,
2013-03-15 00:53:00,72.7,33.9,29.32,South,188,5.1,6.8,24,-99.99,,,0.00,0,rob ver 1B,2013-03-15 07:53:00,
2013-03-15 00:54:00,72.6,34.0,29.32,South,190,5.3,6.6,24,-99.99,,,0.00,0,rob ver 1B,2013-03-15 07:54:00,
2013-03-15 00:55:00,70.1,30.7,29.44,East,98,1.3,1.9,23,-99.99,,,0.00,0,rob ver 1A,2013-03-15 07:55:00,
2013-03-15 00:56:00,72.4,34.0,29.32,South,186,3.6,5.3,24,-99.99,,,0.00,0,rob ver 1B,2013-03-15 07:56:00,
2013-03-15 00:57:00,72.3,34.0,29.32,South,177,3.7,5.5,24,-99.99,,,0.00,0,rob ver 1B,2013-03-15 07:57:00,
2013-03-15 00:58:00,72.1,34.0,29.32,SSE,152,2.8,4.2,24,-99.99,,,0.00,0,rob ver 1B,2013-03-15 07:58:00,
2013-03-15 00:59:00,72.0,34.0,29.32,SE,130,2.4,3.4,24,-99.99,,,0.00,0,rob ver 1B,2013-03-15 07:59:00,
2013-03-15 01:00:00,70.1,30.5,29.44,East,86,1.4,1.6,22,-99.99,,,0.00,0,rob ver 1A,2013-03-15 08:00:00,
2013-03-15 01:01:00,71.6,34.0,29.32,NE,37,1.7,2.3,25,-99.99,,,0.00,0,rob ver 1B,2013-03-15 08:01:00,
2013-03-15 01:02:00,71.5,34.0,29.32,NNW,339,2.6,3.6,25,-99.99,,,0.00,0,rob ver 1B,2013-03-15 08:02:00,
2013-03-15 01:03:00,71.4,34.0,29.32,NNW,332,3.4,4.1,25,-99.99,,,0.00,0,rob ver 1B,2013-03-15 08:03:00,
2013-03-15 01:04:00,71.4,33.8,29.32,NNW,341,3.7,4.4,25,-99.99,,,0.00,0,rob ver 1B,2013-03-15 08:04:00,
2013-03-15 01:05:00,68.5,30.5,29.44,SE,134,2.6,3.0,24,-99.99,,,0.00,0,rob ver 1A,2013-03-15 08:05:00,
2013-03-15 01:06:00,71.6,33.5,29.32,North,353,3.5,4.2,24,-99.99,,,0.00,0,rob ver 1B,2013-03-15 08:06:00,
2013-03-15 01:07:00,71.5,33.2,29.32,North,355,4.2,4.6,24,-99.99,,,0.00,0,rob ver 1B,2013-03-15 08:07:00,
2013-03-15 01:08:00,71.3,33.2,29.32,North,356,3.1,4.1,24,-99.99,,,0.00,0,rob ver 1B,2013-03-15 08:08:00,
2013-03-15 01:09:00,71.0,33.2,29.32,NNW,344,2.4,3.6,24,-99.99,,,0.00,0,rob ver 1B,2013-03-15 08:09:00,
2013-03-15 01:10:00,68.5,30.5,29.44,ESE,112,2.8,3.0,24,-99.99,,,0.00,0,rob ver 1A,2013-03-15 08:10:00,
2013-03-15 01:11:00,70.9,33.1,29.32,North,356,2.9,4.0,24,-99.99,,,0.00,0,rob ver 1B,2013-03-15 08:11:00,
2013-03-15 01:12:00,70.8,33.3,29.32,NNW,329,4.1,5.8,25,-99.99,,,0.00,0,rob ver 1B,2013-03-15 08:12:00,
2013-03-15 01:13:00,70.8,33.4,29.32,North,355,2.8,4.7,25,-99.99,,,0.00,0,rob ver 1B,2013-03-15 08:13:00,
2013-03-15 01:14:00,70.9,33.7,29.32,East,98,2.3,3.1,25,-99.99,,,0.00,0,rob ver 1B,2013-03-15 08:14:00,
2013-03-15 01:15:00,68.4,31.5,29.44,ESE,122,2.2,2.4,25,-99.99,,,0.00,0,rob ver 1A,2013-03-15 08:15:00,
2013-03-15 01:16:00,71.9,33.8,29.32,NE,43,1.8,2.6,24,-99.99,,,0.00,0,rob ver 1B,2013-03-15 08:16:00,
2013-03-15 01:17:00,72.2,33.8,29.32,East,79,1.7,2.9,24,-99.99,,,0.00,0,rob ver 1B,2013-03-15 08:17:00,
2013-03-15 01:18:00,72.4,33.7,29.32,NNE,13,1.3,2.3,23,-99.99,,,0.00,0,rob ver 1B,2013-03-15 08:18:00,
2013-03-15 01:19:00,72.5,33.6,29.32,North,0,1.4,2.4,23,-99.99,,,0.00,0,rob ver 1B,2013-03-15 08:19:00,
2013-03-15 01:20:00,72.6,33.3,29.32,NE,34,1.3,2.2,23,-99.99,,,0.00,0,rob ver 1B,2013-03-15 08:20:00,
2013-03-15 01:21:00,68.2,31.0,29.44,SE,126,2.1,2.3,24,-99.99,,,0.00,0,rob ver 1A,2013-03-15 08:21:00,
2013-03-15 01:22:00,72.9,33.4,29.32,NW,307,2.0,2.8,23,-99.99,,,0.00,0,rob ver 1B,2013-03-15 08:22:00,
2013-03-15 01:23:00,73.1,33.4,29.32,SW,228,2.3,4.3,23,-99.99,,,0.00,0,rob ver 1B,2013-03-15 08:23:00,
2013-03-15 01:24:00,73.4,33.7,29.32,SW,218,2.9,3.9,23,-99.99,,,0.00,0,rob ver 1B,2013-03-15 08:24:00,
2013-03-15 01:25:00,73.4,33.5,29.32,SSW,193,1.9,2.8,23,-99.99,,,0.00,0,rob ver 1B,2013-03-15 08:25:00,
2013-03-15 01:26:00,68.6,30.6,29.44,ESE,119,2.5,2.8,24,-99.99,,,0.00,0,rob ver 1A,2013-03-15 08:26:00,
2013-03-15 01:27:00,73.3,33.5,29.32,SE,139,1.7,2.0,23,-99.99,,,0.00,0,rob ver 1B,2013-03-15 08:27:00,
2013-03-15 01:28:00,73.1,33.6,29.32,ESE,114,2.1,2.6,23,-99.99,,,0.00,0,rob ver 1B,2013-03-15 08:28:00,
2013-03-15 01:29:00,72.9,33.8,29.32,ESE,107,1.8,2.2,23,-99.99,,,0.00,0,rob ver 1B,2013-03-15 08:29:00,
2013-03-15 01:30:00,72.8,33.7,29.32,SE,146,1.2,1.6,23,-99.99,,,0.00,0,rob ver 1B,2013-03-15 08:30:00,
2013-03-15 01:31:00,68.2,31.0,29.44,SE,126,1.7,1.8,25,-99.99,,,0.00,0,rob ver 1A,2013-03-15 08:31:00,
2013-03-15 01:32:00,72.4,33.7,29.32,SE,144,1.5,1.9,24,-99.99,,,0.00,0,rob ver 1B,2013-03-15 08:32:00,
2013-03-15 01:33:00,72.2,33.8,29.32,SE,138,1.8,2.1,24,-99.99,,,0.00,0,rob ver 1B,2013-03-15 08:33:00,
2013-03-15 01:34:00,72.2,34.2,29.32,SSE,156,2.2,2.7,24,-99.99,,,0.00,0,rob ver 1B,2013-03-15 08:34:00,
2013-03-15 01:35:00,72.5,34.2,29.32,SSW,195,2.4,3.4,24,-99.99,,,0.00,0,rob ver 1B,2013-03-15 08:35:00,
2013-03-15 01:36:00,67.3,31.3,29.44,SE,130,2.1,2.2,26,-99.99,,,0.00,0,rob ver 1A,2013-03-15 08:36:00,
2013-03-15 01:37:00,72.8,34.2,29.32,SE,145,2.4,3.0,24,-99.99,,,0.00,0,rob ver 1B,2013-03-15 08:37:00,
2013-03-15 01:38:00,72.9,34.2,29.32,SE,139,2.4,2.7,24,-99.99,,,0.00,0,rob ver 1B,2013-03-15 08:38:00,
2013-03-15 01:39:00,72.9,34.2,29.32,SE,143,2.0,2.3,24,-99.99,,,0.00,0,rob ver 1B,2013-03-15 08:39:00,
2013-03-15 01:40:00,72.9,34.2,29.32,SE,142,2.1,2.4,24,-99.99,,,0.00,0,rob ver 1B,2013-03-15 08:40:00,
2013-03-15 01:41:00,66.8,31.3,29.44,ESE,105,2.6,2.8,26,-99.99,,,0.00,0,rob ver 1A,2013-03-15 08:41:00,
2013-03-15 01:42:00,72.5,33.8,29.32,ESE,112,2.2,2.4,24,-99.99,,,0.00,0,rob ver 1B,2013-03-15 08:42:00,
2013-03-15 01:43:00,72.2,33.6,29.32,ESE,106,2.0,2.3,24,-99.99,,,0.00,0,rob ver 1B,2013-03-15 08:43:00,
2013-03-15 01:44:00,72.0,33.6,29.32,East,101,1.7,2.4,24,-99.99,,,0.00,0,rob ver 1B,2013-03-15 08:44:00,
2013-03-15 01:45:00,71.9,33.6,29.32,East,96,0.8,1.1,24,-99.99,,,0.00,0,rob ver 1B,2013-03-15 08:45:00,
2013-03-15 01:46:00,67.1,30.8,29.44,East,87,2.3,2.4,25,-99.99,,,0.00,0,rob ver 1A,2013-03-15 08:46:00,
2013-03-15 01:47:00,71.7,33.6,29.32,East,91,0.5,0.7,24,-99.99,,,0.00,0,rob ver 1B,2013-03-15 08:47:00,
2013-03-15 01:48:00,71.6,33.6,29.32,ENE,60,0.5,0.6,24,-99.99,,,0.00,0,rob ver 1B,2013-03-15 08:48:00,
2013-03-15 01:49:00,71.5,33.6,29.32,NNE,23,0.8,1.1,24,-99.99,,,0.00,0,rob ver 1B,2013-03-15 08:49:00,
2013-03-15 01:50:00,71.4,33.5,29.32,NNE,15,1.1,1.4,24,-99.99,,,0.00,0,rob ver 1B,2013-03-15 08:50:00,
2013-03-15 01:51:00,67.5,30.3,29.44,East,85,1.7,1.9,24,-99.99,,,0.00,0,rob ver 1A,2013-03-15 08:51:00,
2013-03-15 01:52:00,71.0,33.5,29.32,North,8,2.6,3.5,24,-99.99,,,0.00,0,rob ver 1B,2013-03-15 08:52:00,
2013-03-15 01:53:00,70.7,33.1,29.32,North,7,3.4,3.7,24,-99.99,,,0.00,0,rob ver 1B,2013-03-15 08:53:00,
2013-03-15 01:54:00,70.1,32.7,29.32,NNE,13,3.7,3.9,25,-99.99,,,0.00,0,rob ver 1B,2013-03-15 08:54:00,
2013-03-15 01:55:00,69.5,33.0,29.32,NNE,17,3.7,3.9,25,-99.99,,,0.00,0,rob ver 1B,2013-03-15 08:55:00,
2013-03-15 01:56:00,67.2,30.4,29.44,NNE,32,1.5,2.0,25,-99.99,,,0.00,0,rob ver 1A,2013-03-15 08:56:00,
2013-03-15 01:57:00,69.1,32.9,29.32,NNE,29,3.6,3.8,26,-99.99,,,0.00,0,rob ver 1B,2013-03-15 08:57:00,
2013-03-15 01:58:00,69.0,33.0,29.32,NE,34,3.6,3.7,26,-99.99,,,0.00,0,rob ver 1B,2013-03-15 08:58:00,
2013-03-15 01:59:00,69.0,33.3,29.32,NE,41,3.6,3.7,26,-99.99,,,0.00,0,rob ver 1B,2013-03-15 08:59:00,
2013-03-15 02:00:00,69.3,33.5,29.32,NE,49,3.3,3.5,26,-99.99,,,0.00,0,rob ver 1B,2013-03-15 09:00:00,
2013-03-15 02:01:00,68.1,30.6,29.44,NNE,20,1.8,1.9,24,-99.99,,,0.00,0,rob ver 1A,2013-03-15 09:01:00,
2013-03-15 02:02:00,69.9,33.4,29.32,ENE,61,3.1,3.3,25,-99.99,,,0.00,0,rob ver 1B,2013-03-15 09:02:00,
2013-03-15 02:03:00,69.9,33.3,29.32,ENE,63,3.4,3.8,25,-99.99,,,0.00,0,rob ver 1B,2013-03-15 09:03:00,
2013-03-15 02:04:00,69.7,33.3,29.32,ENE,61,3.3,3.7,25,-99.99,,,0.00,0,rob ver 1B,2013-03-15 09:04:00,
2013-03-15 02:05:00,69.6,33.3,29.32,ENE,61,3.2,3.5,26,-99.99,,,0.00,0,rob ver 1B,2013-03-15 09:05:00,
2013-03-15 02:06:00,68.4,30.3,29.44,East,91,0.4,1.1,24,-99.99,,,0.00,0,rob ver 1A,2013-03-15 09:06:00,
2013-03-15 02:07:00,69.5,33.3,29.32,NE,56,3.0,3.2,26,-99.99,,,0.00,0,rob ver 1B,2013-03-15 09:07:00,
2013-03-15 02:08:00,69.5,33.3,29.32,NE,52,3.3,3.6,26,-99.99,,,0.00,0,rob ver 1B,2013-03-15 09:08:00,
2013-03-15 02:09:00,69.5,33.4,29.32,NE,48,3.5,3.9,26,-99.99,,,0.00,0,rob ver 1B,2013-03-15 09:09:00,
2013-03-15 02:10:00,69.7,33.5,29.32,NE,45,3.6,4.0,26,-99.99,,,0.00,0,rob ver 1B,2013-03-15 09:10:00,
2013-03-15 02:11:00,67.6,30.3,29.44,NE,44,1.5,1.6,24,-99.99,,,0.00,0,rob ver 1A,2013-03-15 09:11:00,
2013-03-15 02:12:00,69.5,33.2,29.32,NE,36,3.9,4.4,26,-99.99,,,0.00,0,rob ver 1B,2013-03-15 09:12:00,
2013-03-15 02:13:00,69.2,33.1,29.32,NE,37,3.8,4.2,26,-99.99,,,0.00,0,rob ver 1B,2013-03-15 09:13:00,
2013-03-15 02:14:00,69.0,33.0,29.32,NE,34,3.9,4.1,26,-99.99,,,0.00,0,rob ver 1B,2013-03-15 09:14:00,
2013-03-15 02:15:00,68.8,32.8,29.32,NNE,29,4.3,4.6,26,-99.99,,,0.00,0,rob ver 1B,2013-03-15 09:15:00,
2013-03-15 02:16:00,67.6,30.5,29.44,North,8,1.3,1.5,25,-99.99,,,0.00,0,rob ver 1A,2013-03-15 09:16:00,
2013-03-15 02:17:00,68.4,32.9,29.32,NNE,24,4.0,4.7,26,-99.99,,,0.00,0,rob ver 1B,2013-03-15 09:17:00,
2013-03-15 02:18:00,68.5,32.9,29.32,NNE,23,3.5,4.0,26,-99.99,,,0.00,0,rob ver 1B,2013-03-15 09:18:00,
2013-03-15 02:19:00,68.7,33.1,29.32,NNE,16,3.8,4.1,26,-99.99,,,0.00,0,rob ver 1B,2013-03-15 09:19:00,
2013-03-15 02:20:00,68.9,33.0,29.32,NNW,344,3.1,4.0,26,-99.99,,,0.00,0,rob ver 1B,2013-03-15 09:20:00,
2013-03-15 02:21:00,68.7,33.2,29.32,North,352,3.0,3.2,26,-99.99,,,0.00,0,rob ver 1B,2013-03-15 09:21:00,
2013-03-15 02:22:00,67.8,30.1,29.44,NNE,21,1.4,2.1,24,-99.99,,,0.00,0,rob ver 1A,2013-03-15 09:22:00,
2013-03-15 02:23:00,68.7,33.2,29.32,North,4,1.9,2.4,26,-99.99,,,0.00,0,rob ver 1B,2013-03-15 09:23:00,
2013-03-15 02:24:00,69.0,33.2,29.32,NNE,20,1.9,2.2,26,-99.99,,,0.00,0,rob ver 1B,2013-03-15 09:24:00,
2013-03-15 02:25:00,69.3,33.1,29.29,NE,47,2.0,2.2,25,-99.99,,,0.00,0,rob ver 1B,2013-03-15 09:25:00,
2013-03-15 02:26:00,69.7,33.1,29.29,NE,48,1.8,2.1,25,-99.99,,,0.00,0,rob ver 1B,2013-03-15 09:26:00,
2013-03-15 02:27:00,68.4,30.5,29.41,NNW,334,1.2,1.5,24,-99.99,,,0.00,0,rob ver 1A,2013-03-15 09:27:00,
2013-03-15 02:28:00,70.5,33.0,29.32,ENE,76,0.8,1.1,24,-99.99,,,0.00,0,rob ver 1B,2013-03-15 09:28:00,
2013-03-15 02:29:00,70.7,33.0,29.32,East,87,0.5,0.9,24,-99.99,,,0.00,0,rob ver 1B,2013-03-15 09:29:00,
2013-03-15 02:30:00,70.8,33.0,29.29,NE,51,1.3,1.5,24,-99.99,,,0.00,0,rob ver 1B,2013-03-15 09:30:00,
2013-03-15 02:31:00,70.9,32.9,29.29,NE,40,1.0,1.5,24,-99.99,,,0.00,0,rob ver 1B,2013-03-15 09:31:00,
2013-03-15 02:32:00,66.8,30.4,29.41,NNW,332,1.7,1.9,25,-99.99,,,0.00,0,rob ver 1A,2013-03-15 09:32:00,
2013-03-15 02:33:00,71.1,33.0,29.32,North,357,1.6,1.7,24,-99.99,,,0.00,0,rob ver 1B,2013-03-15 09:33:00,
2013-03-15 02:34:00,71.0,32.8,29.29,NNW,337,1.5,1.7,24,-99.99,,,0.00,0,rob ver 1B,2013-03-15 09:34:00,
2013-03-15 02:35:00,70.8,32.8,29.29,NW,317,1.7,2.1,24,-99.99,,,0.00,0,rob ver 1B,2013-03-15 09:35:00,
2013-03-15 02:36:00,70.5,33.0,29.29,NW,323,2.2,2.3,24,-99.99,,,0.00,0,rob ver 1B,2013-03-15 09:36:00,
2013-03-15 02:37:00,66.7,30.7,29.41,WNW,299,1.7,1.9,25,-99.99,,,0.00,0,rob ver 1A,2013-03-15 09:37:00,
2013-03-15 02:38:00,70.6,32.9,29.32,NW,310,1.7,1.9,24,-99.99,,,0.00,0,rob ver 1B,2013-03-15 09:38:00,
2013-03-15 02:39:00,70.6,32.9,29.32,NW,315,1.9,2.2,24,-99.99,,,0.00,0,rob ver 1B,2013-03-15 09:39:00,
2013-03-15 02:40:00,70.5,33.0,29.29,NW,315,2.4,2.8,25,-99.99,,,0.00,0,rob ver 1B,2013-03-15 09:40:00,
2013-03-15 02:41:00,70.2,33.1,29.29,WNW,301,2.2,2.6,25,-99.99,,,0.00,0,rob ver 1B,2013-03-15 09:41:00,
2013-03-15 02:42:00,68.1,30.7,29.41,WNW,284,1.8,1.9,24,-99.99,,,0.00,0,rob ver 1A,2013-03-15 09:42:00,
2013-03-15 02:43:00,70.1,32.9,29.32,WNW,292,2.6,3.0,25,-99.99,,,0.00,0,rob ver 1B,2013-03-15 09:43:00,
2013-03-15 02:44:00,70.3,32.8,29.32,WNW,289,3.1,3.4,24,-99.99,,,0.00,0,rob ver 1B,2013-03-15 09:44:00,
2013-03-15 02:45:00,70.4,32.8,29.29,WNW,283,3.6,3.8,24,-99.99,,,0.00,0,rob ver 1B,2013-03-15 09:45:00,
2013-03-15 02:46:00,70.3,32.8,29.29,West,272,3.0,3.5,24,-99.99,,,0.00,0,rob ver 1B,2013-03-15 09:46:00,
2013-03-15 02:47:00,68.8,30.5,29.41,NW,307,1.7,1.7,23,-99.99,,,0.00,0,rob ver 1A,2013-03-15 09:47:00,
2013-03-15 02:48:00,71.1,32.7,29.32,WSW,245,2.6,2.9,24,-99.99,,,0.00,0,rob ver 1B,2013-03-15 09:48:00,
2013-03-15 02:49:00,71.0,32.5,29.32,SW,234,2.4,2.8,24,-99.99,,,0.00,0,rob ver 1B,2013-03-15 09:49:00,
2013-03-15 02:50:00,70.9,32.6,29.29,SW,223,2.1,2.3,24,-99.99,,,0.00,0,rob ver 1B,2013-03-15 09:50:00,
2013-03-15 02:51:00,71.0,32.5,29.29,SW,215,2.2,2.5,24,-99.99,,,0.00,0,rob ver 1B,2013-03-15 09:51:00,
2013-03-15 02:52:00,68.8,30.5,29.41,WNW,297,0.5,0.7,24,-99.99,,,0.00,0,rob ver 1A,2013-03-15 09:52:00,
2013-03-15 02:53:00,71.2,32.6,29.29,SW,231,2.9,3.9,24,-99.99,,,0.00,0,rob ver 1B,2013-03-15 09:53:00,
2013-03-15 02:54:00,71.0,32.4,29.29,WSW,239,3.4,4.0,24,-99.99,,,0.00,0,rob ver 1B,2013-03-15 09:54:00,
2013-03-15 02:55:00,70.0,32.4,29.29,SW,234,3.9,4.2,25,-99.99,,,0.00,0,rob ver 1B,2013-03-15 09:55:00,
2013-03-15 02:56:00,68.7,32.4,29.29,SW,227,4.3,4.6,26,-99.99,,,0.00,0,rob ver 1B,2013-03-15 09:56:00,
2013-03-15 02:57:00,68.2,30.1,29.41,East,80,2.9,3.1,23,-99.99,,,0.00,0,rob ver 1A,2013-03-15 09:57:00,
2013-03-15 02:58:00,67.0,33.0,29.29,SW,232,3.7,3.9,28,-99.99,,,0.00,0,rob ver 1B,2013-03-15 09:58:00,
2013-03-15 02:59:00,66.6,33.3,29.29,SW,233,3.2,3.4,29,-99.99,,,0.00,0,rob ver 1B,2013-03-15 09:59:00,
2013-03-15 03:00:00,66.5,33.4,29.29,SW,228,3.0,3.2,28,-99.99,,,0.00,0,rob ver 1B,2013-03-15 10:00:00,
2013-03-15 03:01:00,66.6,33.3,29.29,SW,215,2.3,2.7,28,-99.99,,,0.00,0,rob ver 1B,2013-03-15 10:01:00,
2013-03-15 03:02:00,67.2,29.5,29.41,ENE,57,3.5,3.9,24,-99.99,,,0.00,0,rob ver 1A,2013-03-15 10:02:00,
2013-03-15 03:03:00,66.9,33.4,29.29,SSW,205,2.0,2.3,28,-99.99,,,0.00,0,rob ver 1B,2013-03-15 10:03:00,
2013-03-15 03:04:00,67.2,33.4,29.29,SW,231,1.9,2.3,28,-99.99,,,0.00,0,rob ver 1B,2013-03-15 10:04:00,
2013-03-15 03:05:00,67.0,33.4,29.29,WSW,242,1.6,1.8,28,-99.99,,,0.00,0,rob ver 1B,2013-03-15 10:05:00,
2013-03-15 03:06:00,66.9,33.1,29.29,West,273,1.4,1.6,28,-99.99,,,0.00,0,rob ver 1B,2013-03-15 10:06:00,
2013-03-15 03:07:00,66.7,33.3,29.29,WNW,302,1.8,2.2,29,-99.99,,,0.00,0,rob ver 1B,2013-03-15 10:07:00,
2013-03-15 03:08:00,67.4,29.3,29.41,NE,44,4.0,4.7,23,-99.99,,,0.00,0,rob ver 1A,2013-03-15 10:08:00,
2013-03-15 03:09:00,66.1,32.7,29.29,NNW,337,3.4,4.1,28,-99.99,,,0.00,0,rob ver 1B,2013-03-15 10:09:00,
2013-03-15 03:10:00,65.9,32.7,29.29,NNW,342,2.7,3.0,28,-99.99,,,0.00,0,rob ver 1B,2013-03-15 10:10:00,
2013-03-15 03:11:00,65.9,32.4,29.29,North,353,2.9,3.1,28,-99.99,,,0.00,0,rob ver 1B,2013-03-15 10:11:00,
2013-03-15 03:12:00,65.9,32.1,29.29,North,2,2.6,2.8,28,-99.99,,,0.00,0,rob ver 1B,2013-03-15 10:12:00,
2013-03-15 03:13:00,66.7,29.1,29.41,NE,49,4.2,5.2,24,-99.99,,,0.00,0,rob ver 1A,2013-03-15 10:13:00,
2013-03-15 03:14:00,66.2,32.2,29.29,NNE,12,2.3,2.7,27,-99.99,,,0.00,0,rob ver 1B,2013-03-15 10:14:00,
2013-03-15 03:15:00,66.6,32.4,29.29,North,353,1.8,2.0,27,-99.99,,,0.00,0,rob ver 1B,2013-03-15 10:15:00,
2013-03-15 03:16:00,67.0,32.6,29.29,NNW,330,1.5,1.7,27,-99.99,,,0.00,0,rob ver 1B,2013-03-15 10:16:00,
2013-03-15 03:17:00,67.3,32.5,29.29,NW,325,1.8,1.9,27,-99.99,,,0.00,0,rob ver 1B,2013-03-15 10:17:00,
2013-03-15 03:18:00,66.3,29.2,29.41,NE,46,4.8,5.7,24,-99.99,,,0.00,0,rob ver 1A,2013-03-15 10:18:00,
2013-03-15 03:19:00,67.9,32.4,29.29,North,353,1.5,1.6,26,-99.99,,,0.00,0,rob ver 1B,2013-03-15 10:19:00,
2013-03-15 03:20:00,68.1,32.5,29.29,North,358,1.5,1.7,26,-99.99,,,0.00,0,rob ver 1B,2013-03-15 10:20:00,
2013-03-15 03:21:00,68.3,32.5,29.29,North,5,1.5,1.6,26,-99.99,,,0.00,0,rob ver 1B,2013-03-15 10:21:00,
2013-03-15 03:22:00,68.6,32.6,29.29,North,6,1.6,1.8,26,-99.99,,,0.00,0,rob ver 1B,2013-03-15 10:22:00,
2013-03-15 03:23:00,65.9,29.2,29.41,NE,43,4.6,5.7,25,-99.99,,,0.00,0,rob ver 1A,2013-03-15 10:23:00,
2013-03-15 03:24:00,69.0,32.5,29.29,North,351,2.7,3.3,25,-99.99,,,0.00,0,rob ver 1B,2013-03-15 10:24:00,
2013-03-15 03:25:00,69.1,32.3,29.29,North,353,3.5,3.6,25,-99.99,,,0.00,0,rob ver 1B,2013-03-15 10:25:00,
2013-03-15 03:26:00,68.9,32.3,29.29,NNW,344,3.8,4.1,25,-99.99,,,0.00,0,rob ver 1B,2013-03-15 10:26:00,
2013-03-15 03:27:00,68.8,32.4,29.29,NNW,341,3.8,4.2,25,-99.99,,,0.00,0,rob ver 1B,2013-03-15 10:27:00,
2013-03-15 03:28:00,65.4,29.1,29.41,NE,37,4.5,5.0,25,-99.99,,,0.00,0,rob ver 1A,2013-03-15 10:28:00,
2013-03-15 03:29:00,68.1,32.2,29.29,NNW,343,3.1,3.4,26,-99.99,,,0.00,0,rob ver 1B,2013-03-15 10:29:00,
2013-03-15 03:30:00,68.1,32.3,29.29,North,351,2.7,3.0,26,-99.99,,,0.00,0,rob ver 1B,2013-03-15 10:30:00,
2013-03-15 03:31:00,68.4,32.4,29.29,North,352,2.3,2.7,26,-99.99,,,0.00,0,rob ver 1B,2013-03-15 10:31:00,
2013-03-15 03:32:00,68.8,32.5,29.29,North,350,1.8,2.0,25,-99.99,,,0.00,0,rob ver 1B,2013-03-15 10:32:00,
2013-03-15 03:33:00,65.3,29.1,29.41,NE,37,5.5,6.4,25,-99.99,,,0.00,0,rob ver 1A,2013-03-15 10:33:00,
2013-03-15 03:34:00,69.7,32.6,29.29,NNW,342,1.3,1.5,25,-99.99,,,0.00,0,rob ver 1B,2013-03-15 10:34:00,
2013-03-15 03:35:00,70.0,32.3,29.29,NNW,336,1.1,1.2,24,-99.99,,,0.00,0,rob ver 1B,2013-03-15 10:35:00,
2013-03-15 03:36:00,70.1,32.3,29.29,NNW,337,1.0,1.2,24,-99.99,,,0.00,0,rob ver 1B,2013-03-15 10:36:00,
2013-03-15 03:37:00,70.1,32.3,29.29,North,355,1.0,1.2,24,-99.99,,,0.00,0,rob ver 1B,2013-03-15 10:37:00,
2013-03-15 03:38:00,65.6,29.3,29.41,NE,37,5.8,7.1,25,-99.99,,,0.00,0,rob ver 1A,2013-03-15 10:38:00,
2013-03-15 03:39:00,69.8,32.3,29.29,North,8,1.6,1.7,25,-99.99,,,0.00,0,rob ver 1B,2013-03-15 10:39:00,
2013-03-15 03:40:00,69.8,32.4,29.29,North,0,1.6,1.7,24,-99.99,,,0.00,0,rob ver 1B,2013-03-15 10:40:00,
2013-03-15 03:41:00,70.0,32.3,29.29,North,356,1.7,1.8,24,-99.99,,,0.00,0,rob ver 1B,2013-03-15 10:41:00,
2013-03-15 03:42:00,70.2,32.4,29.29,NNW,346,1.7,1.8,24,-99.99,,,0.00,0,rob ver 1B,2013-03-15 10:42:00,
2013-03-15 03:43:00,65.8,29.4,29.41,NE,38,6.3,7.0,25,-99.99,,,0.00,0,rob ver 1A,2013-03-15 10:43:00,
2013-03-15 03:44:00,70.6,32.4,29.29,NNW,345,1.6,1.7,24,-99.99,,,0.00,0,rob ver 1B,2013-03-15 10:44:00,
2013-03-15 03:45:00,70.7,32.4,29.29,North,350,1.3,1.7,24,-99.99,,,0.00,0,rob ver 1B,2013-03-15 10:45:00,
2013-03-15 03:46:00,70.7,32.4,29.29,NNW,345,0.9,1.1,24,-99.99,,,0.00,0,rob ver 1B,2013-03-15 10:46:00,
2013-03-15 03:47:00,70.8,32.4,29.29,NNW,337,0.8,0.9,23,-99.99,,,0.00,0,rob ver 1B,2013-03-15 10:47:00,
2013-03-15 03:48:00,65.4,29.4,29.41,NE,42,6.3,7.4,25,-99.99,,,0.00,0,rob ver 1A,2013-03-15 10:48:00,
2013-03-15 03:49:00,70.6,32.1,29.29,NW,323,0.9,1.1,24,-99.99,,,0.00,0,rob ver 1B,2013-03-15 10:49:00,
2013-03-15 03:50:00,70.5,32.3,29.29,NW,312,0.7,0.9,24,-99.99,,,0.00,0,rob ver 1B,2013-03-15 10:50:00,
2013-03-15 03:51:00,70.4,32.3,29.29,NW,311,0.4,0.8,24,-99.99,,,0.00,0,rob ver 1B,2013-03-15 10:51:00,
2013-03-15 03:52:00,70.3,32.2,29.29,NNW,336,0.7,1.1,24,-99.99,,,0.00,0,rob ver 1B,2013-03-15 10:52:00,
2013-03-15 03:53:00,65.7,29.3,29.41,NE,43,5.5,6.3,25,-99.99,,,0.00,0,rob ver 1A,2013-03-15 10:53:00,
2013-03-15 03:54:00,69.8,31.8,29.29,NNE,18,0.9,1.4,24,-99.99,,,0.00,0,rob ver 1B,2013-03-15 10:54:00,
2013-03-15 03:55:00,69.4,31.8,29.29,NE,52,1.3,1.8,25,-99.99,,,0.00,0,rob ver 1B,2013-03-15 10:55:00,
2013-03-15 03:56:00,68.8,31.9,29.29,NE,45,1.1,1.5,25,-99.99,,,0.00,0,rob ver 1B,2013-03-15 10:56:00,
2013-03-15 03:57:00,68.5,31.9,29.29,NE,56,0.7,0.9,25,-99.99,,,0.00,0,rob ver 1B,2013-03-15 10:57:00,
2013-03-15 03:58:00,66.3,28.9,29.41,NNE,33,4.9,5.4,24,-99.99,,,0.00,0,rob ver 1A,2013-03-15 10:58:00,
2013-03-15 03:59:00,68.2,32.4,29.29,East,85,1.1,1.6,26,-99.99,,,0.00,0,rob ver 1B,2013-03-15 10:59:00,
2013-03-15 04:00:00,68.4,32.6,29.29,East,92,1.2,1.5,26,-99.99,,,0.00,0,rob ver 1B,2013-03-15 11:00:00,
2013-03-15 04:01:00,68.8,32.5,29.29,East,86,1.0,1.3,25,-99.99,,,0.00,0,rob ver 1B,2013-03-15 11:01:00,
2013-03-15 04:02:00,69.1,32.6,29.29,East,83,0.7,1.1,25,-99.99,,,0.00,0,rob ver 1B,2013-03-15 11:02:00,
2013-03-15 04:03:00,66.6,28.8,29.41,NNE,28,5.8,6.2,24,-99.99,,,0.00,0,rob ver 1A,2013-03-15 11:03:00,
2013-03-15 04:04:00,69.5,32.6,29.29,East,87,1.2,1.5,25,-99.99,,,0.00,0,rob ver 1B,2013-03-15 11:04:00,
2013-03-15 04:05:00,69.7,32.6,29.29,East,101,1.4,1.9,25,-99.99,,,0.00,0,rob ver 1B,2013-03-15 11:05:00,
2013-03-15 04:06:00,70.0,32.6,29.29,ESE,110,1.4,1.8,24,-99.99,,,0.00,0,rob ver 1B,2013-03-15 11:06:00,
2013-03-15 04:07:00,70.2,32.5,29.29,East,84,1.4,1.9,24,-99.99,,,0.00,0,rob ver 1B,2013-03-15 11:07:00,
2013-03-15 04:08:00,66.9,28.7,29.41,North,10,3.5,4.0,23,-99.99,,,0.00,0,rob ver 1A,2013-03-15 11:08:00,
2013-03-15 04:09:00,70.1,32.3,29.29,East,90,1.6,2.1,24,-99.99,,,0.00,0,rob ver 1B,2013-03-15 11:09:00,
2013-03-15 04:10:00,70.0,32.3,29.29,East,91,1.6,2.0,24,-99.99,,,0.00,0,rob ver 1B,2013-03-15 11:10:00,
2013-03-15 04:11:00,70.1,32.2,29.29,East,93,1.8,2.5,24,-99.99,,,0.00,0,rob ver 1B,2013-03-15 11:11:00,
2013-03-15 04:12:00,70.3,32.2,29.29,East,95,1.8,2.3,24,-99.99,,,0.00,0,rob ver 1B,2013-03-15 11:12:00,
2013-03-15 04:13:00,70.3,32.1,29.29,East,96,2.0,2.3,24,-99.99,,,0.00,0,rob ver 1B,2013-03-15 11:13:00,
2013-03-15 04:14:00,66.9,28.5,29.41,North,10,3.5,3.7,23,-99.99,,,0.00,0,rob ver 1A,2013-03-15 11:14:00,
2013-03-15 04:15:00,70.4,32.1,29.29,East,88,2.8,3.2,24,-99.99,,,0.00,0,rob ver 1B,2013-03-15 11:15:00,
2013-03-15 04:16:00,70.3,32.1,29.29,East,93,2.8,3.1,24,-99.99,,,0.00,0,rob ver 1B,2013-03-15 11:16:00,
2013-03-15 04:17:00,70.2,32.0,29.29,East,87,3.0,3.5,24,-99.99,,,0.00,0,rob ver 1B,2013-03-15 11:17:00,
2013-03-15 04:18:00,69.9,31.8,29.29,East,87,2.9,3.2,24,-99.99,,,0.00,0,rob ver 1B,2013-03-15 11:18:00,
2013-03-15 04:19:00,67.6,28.1,29.41,NNE,23,4.9,5.1,22,-99.99,,,0.00,0,rob ver 1A,2013-03-15 11:19:00,
2013-03-15 04:20:00,69.7,31.9,29.29,East,90,2.4,2.5,24,-99.99,,,0.00,0,rob ver 1B,2013-03-15 11:20:00,
2013-03-15 04:21:00,69.7,31.8,29.29,East,84,2.1,2.4,24,-99.99,,,0.00,0,rob ver 1B,2013-03-15 11:21:00,
2013-03-15 04:22:00,69.6,31.9,29.29,East,88,1.5,1.9,24,-99.99,,,0.00,0,rob ver 1B,2013-03-15 11:22:00,
2013-03-15 04:23:00,69.5,31.9,29.29,East,99,1.3,1.8,24,-99.99,,,0.00,0,rob ver 1B,2013-03-15 11:23:00,
2013-03-15 04:24:00,68.6,28.3,29.41,NE,42,3.3,3.8,22,-99.99,,,0.00,0,rob ver 1A,2013-03-15 11:24:00,
2013-03-15 04:25:00,69.6,32.0,29.29,East,93,2.6,3.0,24,-99.99,,,0.00,0,rob ver 1B,2013-03-15 11:25:00,
2013-03-15 04:26:00,69.7,32.0,29.29,East,95,2.6,3.0,24,-99.99,,,0.00,0,rob ver 1B,2013-03-15 11:26:00,
2013-03-15 04:27:00,69.7,32.0,29.29,East,97,2.5,3.1,24,-99.99,,,0.00,0,rob ver 1B,2013-03-15 11:27:00,
2013-03-15 04:28:00,69.5,31.9,29.29,East,101,2.0,2.7,24,-99.99,,,0.00,0,rob ver 1B,2013-03-15 11:28:00,
2013-03-15 04:29:00,66.5,28.4,29.41,NE,38,5.1,5.6,23,-99.99,,,0.00,0,rob ver 1A,2013-03-15 11:29:00,
2013-03-15 04:30:00,68.7,31.5,29.29,East,89,2.2,2.7,25,-99.99,,,0.00,0,rob ver 1B,2013-03-15 11:30:00,
2013-03-15 04:31:00,68.2,31.4,29.29,East,86,2.2,3.0,25,-99.99,,,0.00,0,rob ver 1B,2013-03-15 11:31:00,
2013-03-15 04:32:00,67.7,31.4,29.29,East,101,2.3,3.2,26,-99.99,,,0.00,0,rob ver 1B,2013-03-15 11:32:00,
2013-03-15 04:33:00,67.3,31.6,29.29,ESE,112,2.7,3.1,26,-99.99,,,0.00,0,rob ver 1B,2013-03-15 11:33:00,
2013-03-15 04:34:00,65.7,28.4,29.41,NE,34,4.8,5.4,24,-99.99,,,0.00,0,rob ver 1A,2013-03-15 11:34:00,
2013-03-15 04:35:00,67.0,31.6,29.29,SE,127,3.2,3.5,26,-99.99,,,0.00,0,rob ver 1B,2013-03-15 11:35:00,
2013-03-15 04:36:00,66.9,31.6,29.29,SE,125,3.2,3.4,26,-99.99,,,0.00,0,rob ver 1B,2013-03-15 11:36:00,
2013-03-15 04:37:00,66.8,31.7,29.29,SE,125,3.3,3.8,26,-99.99,,,0.00,0,rob ver 1B,2013-03-15 11:37:00,
2013-03-15 04:38:00,66.7,31.6,29.29,ESE,118,3.6,4.1,26,-99.99,,,0.00,0,rob ver 1B,2013-03-15 11:38:00,
2013-03-15 04:39:00,66.6,28.2,29.41,NNE,29,5.3,6.1,23,-99.99,,,0.00,0,rob ver 1A,2013-03-15 11:39:00,
2013-03-15 04:40:00,65.8,31.3,29.29,ESE,107,3.8,4.7,27,-99.99,,,0.00,0,rob ver 1B,2013-03-15 11:40:00,
2013-03-15 04:41:00,65.2,31.0,29.29,East,80,3.4,4.0,27,-99.99,,,0.00,0,rob ver 1B,2013-03-15 11:41:00,
2013-03-15 04:42:00,64.5,30.8,29.29,East,88,3.5,4.2,28,-99.99,,,0.00,0,rob ver 1B,2013-03-15 11:42:00,
2013-03-15 04:43:00,63.8,30.6,29.29,East,83,3.4,4.1,28,-99.99,,,0.00,0,rob ver 1B,2013-03-15 11:43:00,
2013-03-15 04:44:00,67.8,28.0,29.38,NNE,29,5.1,5.8,22,-99.99,,,0.00,0,rob ver 1A,2013-03-15 11:44:00,
2013-03-15 04:45:00,62.9,30.6,29.29,ENE,73,2.8,3.8,29,-99.99,,,0.00,0,rob ver 1B,2013-03-15 11:45:00,
2013-03-15 04:46:00,62.6,30.5,29.29,ENE,64,3.0,4.2,29,-99.99,,,0.00,0,rob ver 1B,2013-03-15 11:46:00,
2013-03-15 04:47:00,62.3,30.5,29.29,NE,54,3.4,4.2,30,-99.99,,,0.00,0,rob ver 1B,2013-03-15 11:47:00,
2013-03-15 04:48:00,62.1,30.5,29.29,NE,50,3.7,4.5,30,-99.99,,,0.00,0,rob ver 1B,2013-03-15 11:48:00,
2013-03-15 04:49:00,68.1,28.0,29.38,NE,35,5.5,6.1,22,-99.99,,,0.00,0,rob ver 1A,2013-03-15 11:49:00,
2013-03-15 04:50:00,62.0,30.5,29.29,NE,49,4.1,4.9,30,-99.99,,,0.00,0,rob ver 1B,2013-03-15 11:50:00,
2013-03-15 04:51:00,62.0,30.5,29.29,NE,51,4.1,4.9,30,-99.99,,,0.00,0,rob ver 1B,2013-03-15 11:51:00,
2013-03-15 04:52:00,62.0,30.6,29.29,NE,54,4.1,4.5,30,-99.99,,,0.00,0,rob ver 1B,2013-03-15 11:52:00,
2013-03-15 04:53:00,62.1,30.6,29.29,ENE,60,4.0,4.7,30,-99.99,,,0.00,0,rob ver 1B,2013-03-15 11:53:00,
2013-03-15 04:54:00,68.1,28.0,29.38,NE,38,5.0,5.8,22,-99.99,,,0.00,0,rob ver 1A,2013-03-15 11:54:00,
2013-03-15 04:55:00,62.5,30.7,29.29,ENE,70,4.1,4.7,30,-99.99,,,0.00,0,rob ver 1B,2013-03-15 11:55:00,
2013-03-15 04:56:00,62.7,30.8,29.29,ENE,74,4.2,4.5,29,-99.99,,,0.00,0,rob ver 1B,2013-03-15 11:56:00,
2013-03-15 04:57:00,63.0,30.8,29.29,East,81,4.0,4.3,29,-99.99,,,0.00,0,rob ver 1B,2013-03-15 11:57:00,
2013-03-15 04:58:00,63.2,30.9,29.29,East,82,4.1,4.5,29,-99.99,,,0.00,0,rob ver 1B,2013-03-15 11:58:00,
2013-03-15 04:59:00,68.5,27.9,29.38,NE,36,5.1,5.6,21,-99.99,,,0.00,0,rob ver 1A,2013-03-15 11:59:00,
2013-03-15 05:00:00,63.9,31.0,29.29,East,83,3.8,4.2,28,-99.99,,,0.00,0,rob ver 1B,2013-03-15 12:00:00,
2013-03-15 05:01:00,64.0,30.9,29.29,ENE,78,3.8,4.4,28,-99.99,,,0.00,0,rob ver 1B,2013-03-15 12:01:00,
2013-03-15 05:02:00,64.0,30.8,29.29,ENE,78,3.9,4.3,28,-99.99,,,0.00,0,rob ver 1B,2013-03-15 12:02:00,
2013-03-15 05:03:00,63.9,30.8,29.29,East,82,3.9,4.2,28,-99.99,,,0.00,0,rob ver 1B,2013-03-15 12:03:00,
2013-03-15 05:04:00,68.9,27.8,29.41,NE,41,5.2,5.7,21,-99.99,,,0.00,0,rob ver 1A,2013-03-15 12:04:00,
2013-03-15 05:05:00,65.0,31.4,29.29,East,95,3.9,4.1,27,-99.99,,,0.00,0,rob ver 1B,2013-03-15 12:05:00,
2013-03-15 05:06:00,65.6,31.3,29.29,East,94,4.0,4.2,27,-99.99,,,0.00,0,rob ver 1B,2013-03-15 12:06:00,
2013-03-15 05:07:00,65.7,31.2,29.29,East,93,4.1,4.4,27,-99.99,,,0.00,0,rob ver 1B,2013-03-15 12:07:00,
2013-03-15 05:08:00,65.7,31.1,29.29,East,91,3.7,4.2,27,-99.99,,,0.00,0,rob ver 1B,2013-03-15 12:08:00,
2013-03-15 05:09:00,68.1,27.7,29.41,NE,39,5.8,6.2,21,-99.99,,,0.00,0,rob ver 1A,2013-03-15 12:09:00,
2013-03-15 05:10:00,65.1,30.9,29.29,East,96,3.5,4.0,27,-99.99,,,0.00,0,rob ver 1B,2013-03-15 12:10:00,
2013-03-15 05:11:00,65.2,30.9,29.29,East,98,4.1,4.8,27,-99.99,,,0.00,0,rob ver 1B,2013-03-15 12:11:00,
2013-03-15 05:12:00,65.2,30.9,29.29,East,94,3.9,4.4,27,-99.99,,,0.00,0,rob ver 1B,2013-03-15 12:12:00,
2013-03-15 05:13:00,65.1,30.9,29.29,East,101,3.0,3.7,27,-99.99,,,0.00,0,rob ver 1B,2013-03-15 12:13:00,
2013-03-15 05:14:00,66.8,27.8,29.41,NE,38,4.9,5.6,22,-99.99,,,0.00,0,rob ver 1A,2013-03-15 12:14:00,
2013-03-15 05:15:00,64.7,30.7,29.29,ESE,104,3.5,4.3,27,-99.99,,,0.00,0,rob ver 1B,2013-03-15 12:15:00,
2013-03-15 05:16:00,64.7,30.8,29.29,ESE,107,3.6,4.5,28,-99.99,,,0.00,0,rob ver 1B,2013-03-15 12:16:00,
2013-03-15 05:17:00,64.6,30.9,29.29,ESE,114,3.6,4.5,28,-99.99,,,0.00,0,rob ver 1B,2013-03-15 12:17:00,
2013-03-15 05:18:00,64.7,31.1,29.29,ESE,119,3.9,4.8,28,-99.99,,,0.00,0,rob ver 1B,2013-03-15 12:18:00,
2013-03-15 05:19:00,65.0,31.0,29.29,ESE,115,3.7,4.6,27,-99.99,,,0.00,0,rob ver 1B,2013-03-15 12:19:00,
2013-03-15 05:20:00,66.4,27.7,29.41,NNE,30,4.6,5.2,23,-99.99,,,0.00,0,rob ver 1A,2013-03-15 12:20:00,
2013-03-15 05:21:00,64.8,31.0,29.29,ESE,114,3.7,4.9,27,-99.99,,,0.00,0,rob ver 1B,2013-03-15 12:21:00,
2013-03-15 05:22:00,64.8,31.0,29.29,SE,141,2.3,4.0,28,-99.99,,,0.00,0,rob ver 1B,2013-03-15 12:22:00,
2013-03-15 05:23:00,64.8,31.2,29.29,ESE,122,2.1,2.8,28,-99.99,,,0.00,0,rob ver 1B,2013-03-15 12:23:00,
2013-03-15 05:24:00,65.0,31.3,29.29,ESE,110,1.8,2.4,28,-99.99,,,0.00,0,rob ver 1B,2013-03-15 12:24:00,
2013-03-15 05:25:00,66.8,27.7,29.41,NE,36,3.9,4.5,22,-99.99,,,0.00,0,rob ver 1A,2013-03-15 12:25:00,
2013-03-15 05:26:00,65.3,31.4,29.29,ESE,108,2.5,3.8,28,-99.99,,,0.00,0,rob ver 1B,2013-03-15 12:26:00,
2013-03-15 05:27:00,65.5,31.4,29.29,SE,126,3.3,4.9,27,-99.99,,,0.00,0,rob ver 1B,2013-03-15 12:27:00,
2013-03-15 05:28:00,65.5,31.4,29.29,SE,127,3.0,3.5,27,-99.99,,,0.00,0,rob ver 1B,2013-03-15 12:28:00,
2013-03-15 05:29:00,65.7,31.6,29.29,ESE,123,3.0,3.5,27,-99.99,,,0.00,0,rob ver 1B,2013-03-15 12:29:00,
2013-03-15 05:30:00,64.7,28.1,29.41,South,177,3.6,4.2,25,-99.99,,,0.00,0,rob ver 1A,2013-03-15 12:30:00,
2013-03-15 05:31:00,65.8,31.5,29.29,ESE,110,3.7,4.1,27,-99.99,,,0.00,0,rob ver 1B,2013-03-15 12:31:00,
2013-03-15 05:32:00,65.8,31.5,29.29,ESE,110,3.3,4.2,27,-99.99,,,0.00,0,rob ver 1B,2013-03-15 12:32:00,
2013-03-15 05:33:00,65.7,31.3,29.29,ESE,103,2.9,3.5,27,-99.99,,,0.00,0,rob ver 1B,2013-03-15 12:33:00,
2013-03-15 05:34:00,65.5,31.2,29.29,ESE,103,2.8,3.8,27,-99.99,,,0.00,0,rob ver 1B,2013-03-15 12:34:00,
2013-03-15 05:35:00,62.9,28.4,29.41,ESE,108,4.7,4.9,27,-99.99,,,0.00,0,rob ver 1A,2013-03-15 12:35:00,
2013-03-15 05:36:00,65.4,31.5,29.29,ESE,116,3.5,3.9,28,-99.99,,,0.00,0,rob ver 1B,2013-03-15 12:36:00,
2013-03-15 05:37:00,65.7,31.7,29.29,ESE,110,3.5,4.0,27,-99.99,,,0.00,0,rob ver 1B,2013-03-15 12:37:00,
2013-03-15 05:38:00,65.7,31.6,29.29,ESE,110,3.3,4.0,27,-99.99,,,0.00,0,rob ver 1B,2013-03-15 12:38:00,
2013-03-15 05:39:00,65.7,31.4,29.29,ESE,110,3.7,4.1,27,-99.99,,,0.00,0,rob ver 1B,2013-03-15 12:39:00,
2013-03-15 05:40:00,63.3,28.5,29.41,ENE,70,4.9,5.5,26,-99.99,,,0.00,0,rob ver 1A,2013-03-15 12:40:00,
2013-03-15 05:41:00,65.6,31.3,29.29,East,88,4.0,4.5,27,-99.99,,,0.00,0,rob ver 1B,2013-03-15 12:41:00,
2013-03-15 05:42:00,65.4,31.2,29.29,East,87,4.4,5.0,27,-99.99,,,0.00,0,rob ver 1B,2013-03-15 12:42:00,
2013-03-15 05:43:00,65.1,31.1,29.29,East,87,4.4,5.0,27,-99.99,,,0.00,0,rob ver 1B,2013-03-15 12:43:00,
2013-03-15 05:44:00,64.8,31.1,29.29,East,88,4.5,5.1,28,-99.99,,,0.00,0,rob ver 1B,2013-03-15 12:44:00,
2013-03-15 05:45:00,63.0,28.4,29.41,SSW,208,1.0,1.6,26,-99.99,,,0.00,0,rob ver 1A,2013-03-15 12:45:00,
2013-03-15 05:46:00,64.5,31.1,29.29,East,89,4.4,5.1,28,-99.99,,,0.00,0,rob ver 1B,2013-03-15 12:46:00,
2013-03-15 05:47:00,64.3,31.2,29.29,East,90,4.7,5.0,28,-99.99,,,0.00,0,rob ver 1B,2013-03-15 12:47:00,
2013-03-15 05:48:00,64.2,31.1,29.29,East,83,4.8,5.4,28,-99.99,,,0.00,0,rob ver 1B,2013-03-15 12:48:00,
2013-03-15 05:49:00,64.0,31.0,29.29,East,80,5.0,5.4,28,-99.99,,,0.00,0,rob ver 1B,2013-03-15 12:49:00,
2013-03-15 05:50:00,62.4,28.3,29.41,NNE,30,1.2,1.3,27,-99.99,,,0.00,0,rob ver 1A,2013-03-15 12:50:00,
2013-03-15 05:51:00,63.7,31.0,29.29,East,84,5.0,5.5,29,-99.99,,,0.00,0,rob ver 1B,2013-03-15 12:51:00,
2013-03-15 05:52:00,63.7,31.0,29.29,East,87,4.6,5.0,29,-99.99,,,0.00,0,rob ver 1B,2013-03-15 12:52:00,
2013-03-15 05:53:00,63.7,30.9,29.29,East,91,4.7,5.2,28,-99.99,,,0.00,0,rob ver 1B,2013-03-15 12:53:00,
2013-03-15 05:54:00,63.7,30.9,29.29,East,93,4.8,5.0,29,-99.99,,,0.00,0,rob ver 1B,2013-03-15 12:54:00,
2013-03-15 05:55:00,61.6,28.3,29.41,North,356,2.5,3.0,27,-99.99,,,0.00,0,rob ver 1A,2013-03-15 12:55:00,
2013-03-15 05:56:00,63.6,31.0,29.29,ESE,106,4.2,4.4,29,-99.99,,,0.00,0,rob ver 1B,2013-03-15 12:56:00,
2013-03-15 05:57:00,63.6,31.0,29.29,ESE,109,3.9,4.0,29,-99.99,,,0.00,0,rob ver 1B,2013-03-15 12:57:00,
2013-03-15 05:58:00,63.5,31.0,29.29,ESE,110,4.0,4.2,29,-99.99,,,0.00,0,rob ver 1B,2013-03-15 12:58:00,
2013-03-15 05:59:00,63.5,31.1,29.29,ESE,110,4.4,4.7,29,-99.99,,,0.00,0,rob ver 1B,2013-03-15 12:59:00,
2013-03-15 06:00:00,63.0,28.1,29.41,NNE,19,3.3,3.6,26,-99.99,,,0.00,0,rob ver 1A,2013-03-15 13:00:00,
2013-03-15 06:01:00,63.8,31.1,29.29,ESE,119,4.2,4.5,29,-99.99,,,0.00,0,rob ver 1B,2013-03-15 13:01:00,
2013-03-15 06:02:00,63.6,30.9,29.29,ESE,116,3.7,4.1,29,-99.99,,,0.00,0,rob ver 1B,2013-03-15 13:02:00,
2013-03-15 06:03:00,63.4,30.8,29.29,ESE,111,3.5,3.7,29,-99.99,,,0.00,0,rob ver 1B,2013-03-15 13:03:00,
2013-03-15 06:04:00,63.2,30.8,29.29,ESE,111,3.5,3.8,29,-99.99,,,0.00,0,rob ver 1B,2013-03-15 13:04:00,
2013-03-15 06:05:00,62.8,28.0,29.41,NE,36,0.7,2.0,26,-99.99,,,0.00,0,rob ver 1A,2013-03-15 13:05:00,
2013-03-15 06:06:00,62.9,30.8,29.29,ESE,107,3.4,3.6,29,-99.99,,,0.00,0,rob ver 1B,2013-03-15 13:06:00,
2013-03-15 06:07:00,63.0,30.8,29.29,ESE,109,3.6,3.7,29,-99.99,,,0.00,0,rob ver 1B,2013-03-15 13:07:00,
2013-03-15 06:08:00,63.2,30.9,29.29,ESE,108,3.5,3.7,29,-99.99,,,0.00,0,rob ver 1B,2013-03-15 13:08:00,
2013-03-15 06:09:00,63.4,31.0,29.29,ESE,107,3.5,3.7,29,-99.99,,,0.00,0,rob ver 1B,2013-03-15 13:09:00,
2013-03-15 06:10:00,62.8,28.0,29.41,NNE,30,3.6,4.2,26,-99.99,,,0.00,0,rob ver 1A,2013-03-15 13:10:00,
2013-03-15 06:11:00,63.7,30.9,29.29,East,96,3.1,3.5,29,-99.99,,,0.00,0,rob ver 1B,2013-03-15 13:11:00,
2013-03-15 06:12:00,63.6,30.8,29.29,East,87,3.3,3.7,28,-99.99,,,0.00,0,rob ver 1B,2013-03-15 13:12:00,
2013-03-15 06:13:00,63.5,30.6,29.29,East,82,3.8,4.3,28,-99.99,,,0.00,0,rob ver 1B,2013-03-15 13:13:00,
2013-03-15 06:14:00,63.2,30.5,29.29,ENE,72,4.1,4.6,29,-99.99,,,0.00,0,rob ver 1B,2013-03-15 13:14:00,
2013-03-15 06:15:00,62.9,30.5,29.29,ENE,64,4.4,5.1,29,-99.99,,,0.00,0,rob ver 1B,2013-03-15 13:15:00,
2013-03-15 06:16:00,63.4,28.0,29.41,NNE,14,2.3,2.9,25,-99.99,,,0.00,0,rob ver 1A,2013-03-15 13:16:00,
2013-03-15 06:17:00,63.0,30.7,29.29,ENE,58,5.3,5.8,29,-99.99,,,0.00,0,rob ver 1B,2013-03-15 13:17:00,
2013-03-15 06:18:00,63.2,30.8,29.29,ENE,65,4.6,5.7,29,-99.99,,,0.00,0,rob ver 1B,2013-03-15 13:18:00,
2013-03-15 06:19:00,63.4,30.9,29.29,ENE,65,4.7,5.4,29,-99.99,,,0.00,0,rob ver 1B,2013-03-15 13:19:00,
2013-03-15 06:20:00,63.5,30.8,29.29,ENE,64,4.6,5.2,29,-99.99,,,0.00,0,rob ver 1B,2013-03-15 13:20:00,
2013-03-15 06:21:00,63.6,28.1,29.41,NNE,12,2.2,2.5,25,-99.99,,,0.00,0,rob ver 1A,2013-03-15 13:21:00,
2013-03-15 06:22:00,63.6,30.7,29.29,ENE,59,5.3,5.8,28,-99.99,,,0.00,0,rob ver 1B,2013-03-15 13:22:00,
2013-03-15 06:23:00,63.6,30.6,29.26,NE,55,5.5,6.0,28,-99.99,,,0.00,0,rob ver 1B,2013-03-15 13:23:00,
2013-03-15 06:24:00,63.6,30.6,29.29,NE,51,5.1,6.0,28,-99.99,,,0.00,0,rob ver 1B,2013-03-15 13:24:00,
2013-03-15 06:25:00,63.4,30.5,29.29,NE,50,5.2,6.2,28,-99.99,,,0.00,0,rob ver 1B,2013-03-15 13:25:00,
2013-03-15 06:26:00,64.0,27.7,29.41,NNE,30,3.0,3.1,25,-99.99,,,0.00,0,rob ver 1A,2013-03-15 13:26:00,
2013-03-15 06:27:00,63.2,30.5,29.29,NE,48,5.1,6.0,29,-99.99,,,0.00,.328,rob ver 1B,2013-03-15 13:27:00,
2013-03-15 06:28:00,63.0,30.5,29.29,NE,50,5.3,6.1,29,-99.99,,,0.00,.328,rob ver 1B,2013-03-15 13:28:00,
2013-03-15 06:29:00,63.0,30.5,29.29,NE,51,5.5,6.1,29,-99.99,,,0.00,.328,rob ver 1B,2013-03-15 13:29:00,
2013-03-15 06:30:00,62.9,30.5,29.29,NE,51,5.3,6.0,29,-99.99,,,0.00,.328,rob ver 1B,2013-03-15 13:30:00,
2013-03-15 06:31:00,64.3,27.8,29.41,North,349,2.6,3.0,25,-99.99,,,0.00,.328,rob ver 1A,2013-03-15 13:31:00,
2013-03-15 06:32:00,62.5,30.4,29.29,NE,47,4.9,5.8,29,-99.99,,,0.00,.328,rob ver 1B,2013-03-15 13:32:00,
2013-03-15 06:33:00,62.2,30.4,29.29,NE,45,5.3,6.0,30,-99.99,,,0.00,.657,rob ver 1B,2013-03-15 13:33:00,
2013-03-15 06:34:00,62.0,30.4,29.29,NE,38,6.4,7.2,30,-99.99,,,0.00,.985,rob ver 1B,2013-03-15 13:34:00,
2013-03-15 06:35:00,62.0,30.4,29.29,NE,39,6.3,6.9,30,-99.99,,,0.00,1.642,rob ver 1B,2013-03-15 13:35:00,
2013-03-15 06:36:00,63.8,27.8,29.41,North,4,0.5,0.9,25,-99.99,,,0.00,2.299,rob ver 1A,2013-03-15 13:36:00,
2013-03-15 06:37:00,62.0,30.5,29.29,NNE,30,6.0,6.4,30,-99.99,,,0.00,3.94,rob ver 1B,2013-03-15 13:37:00,
2013-03-15 06:38:00,62.5,30.6,29.29,NNE,32,5.7,6.0,29,-99.99,,,0.00,4.597,rob ver 1B,2013-03-15 13:38:00,
2013-03-15 06:39:00,63.0,30.6,29.29,NE,37,5.0,5.5,29,-99.99,,,0.00,5.254,rob ver 1B,2013-03-15 13:39:00,
2013-03-15 06:40:00,63.4,30.6,29.29,NE,42,4.4,5.2,28,-99.99,,,0.00,5.91,rob ver 1B,2013-03-15 13:40:00,
2013-03-15 06:41:00,63.2,27.6,29.41,North,6,2.0,2.3,25,-99.99,,,0.00,4.597,rob ver 1A,2013-03-15 13:41:00,
2013-03-15 06:42:00,63.9,30.4,29.29,NE,41,4.1,5.1,28,-99.99,,,0.00,6.239,rob ver 1B,2013-03-15 13:42:00,
2013-03-15 06:43:00,64.3,30.4,29.29,NE,39,3.3,4.6,27,-99.99,,,0.00,6.403,rob ver 1B,2013-03-15 13:43:00,
2013-03-15 06:44:00,64.4,30.3,29.29,NE,34,3.4,4.2,27,-99.99,,,0.00,6.239,rob ver 1B,2013-03-15 13:44:00,
2013-03-15 06:45:00,64.3,30.4,29.29,NNE,26,3.3,4.1,27,-99.99,,,0.00,6.403,rob ver 1B,2013-03-15 13:45:00,
2013-03-15 06:46:00,63.3,27.7,29.41,NNE,18,2.2,2.4,25,-99.99,,,0.00,6.567,rob ver 1A,2013-03-15 13:46:00,
2013-03-15 06:47:00,63.9,30.3,29.29,North,2,2.4,3.0,28,-99.99,,,0.00,6.567,rob ver 1B,2013-03-15 13:47:00,
2013-03-15 06:48:00,63.6,30.2,29.29,North,8,2.7,3.3,28,-99.99,,,0.00,7.22,rob ver 1B,2013-03-15 13:48:00,
2013-03-15 06:49:00,63.4,30.3,29.29,North,6,2.1,2.4,28,-99.99,,,0.00,8.54,rob ver 1B,2013-03-15 13:49:00,
2013-03-15 06:50:00,63.1,30.3,29.29,NNE,24,2.6,3.4,29,-99.99,,,0.00,9.52,rob ver 1B,2013-03-15 13:50:00,
2013-03-15 06:51:00,63.0,30.2,29.29,NNE,29,3.3,4.0,28,-99.99,,,0.00,11.99,rob ver 1B,2013-03-15 13:51:00,
2013-03-15 06:52:00,63.3,27.6,29.41,NE,50,2.7,3.4,25,-99.99,,,0.00,11.82,rob ver 1A,2013-03-15 13:52:00,
2013-03-15 06:53:00,63.1,30.2,29.29,NNE,31,3.1,3.7,28,-99.99,,,0.00,18.39,rob ver 1B,2013-03-15 13:53:00,
2013-03-15 06:54:00,63.2,30.2,29.29,NNE,31,3.1,3.6,28,-99.99,,,0.00,21.34,rob ver 1B,2013-03-15 13:54:00,
2013-03-15 06:55:00,63.2,30.2,29.29,NNE,18,2.6,3.3,28,-99.99,,,0.00,24.79,rob ver 1B,2013-03-15 13:55:00,
2013-03-15 06:56:00,63.2,30.1,29.29,NNE,13,2.1,2.4,28,-99.99,,,0.00,27.58,rob ver 1B,2013-03-15 13:56:00,
2013-03-15 06:57:00,63.4,27.8,29.41,NE,38,4.5,5.0,25,-99.99,,,0.00,26.93,rob ver 1A,2013-03-15 13:57:00,
2013-03-15 06:58:00,63.3,30.1,29.29,NNE,23,1.5,2.3,28,-99.99,,,0.00,24.96,rob ver 1B,2013-03-15 13:58:00,
2013-03-15 06:59:00,63.4,30.2,29.29,NNE,18,2.0,2.7,28,-99.99,,,0.00,36.12,rob ver 1B,2013-03-15 13:59:00,
2013-03-15 07:00:00,63.7,30.1,29.29,NNE,13,1.8,2.6,27,-99.99,,,0.00,42.03,rob ver 1B,2013-03-15 14:00:00,
2013-03-15 07:01:00,64.0,30.2,29.29,North,350,1.9,2.3,27,-99.99,,,0.00,40.72,rob ver 1B,2013-03-15 14:01:00,
2013-03-15 07:02:00,64.0,27.9,29.41,WSW,237,1.3,1.9,25,-99.99,,,0.00,41.37,rob ver 1A,2013-03-15 14:02:00,
2013-03-15 07:03:00,64.5,30.2,29.29,North,355,2.4,2.8,27,-99.99,,,0.00,52.87,rob ver 1B,2013-03-15 14:03:00,
2013-03-15 07:04:00,64.8,30.2,29.29,North,2,2.4,2.7,27,-99.99,,,0.00,57.79,rob ver 1B,2013-03-15 14:04:00,
2013-03-15 07:05:00,65.0,30.3,29.29,North,358,1.9,2.1,27,-99.99,,,0.00,59.11,rob ver 1B,2013-03-15 14:05:00,
2013-03-15 07:06:00,65.1,30.4,29.29,NNE,17,1.6,1.8,27,-99.99,,,0.00,59.6,rob ver 1B,2013-03-15 14:06:00,
2013-03-15 07:07:00,64.0,27.6,29.41,NW,318,0.7,1.2,25,-99.99,,,0.00,56.64,rob ver 1A,2013-03-15 14:07:00,
2013-03-15 07:08:00,64.4,30.0,29.29,SE,137,1.2,2.6,27,-99.99,,,0.00,45.31,rob ver 1B,2013-03-15 14:08:00,
2013-03-15 07:09:00,64.0,29.9,29.29,East,83,1.3,1.8,27,-99.99,,,0.00,38.75,rob ver 1B,2013-03-15 14:09:00,
2013-03-15 07:10:00,63.6,29.9,29.29,SE,138,1.7,2.2,28,-99.99,,,0.00,38.58,rob ver 1B,2013-03-15 14:10:00,
2013-03-15 07:11:00,63.0,29.9,29.29,ESE,109,1.8,2.1,28,-99.99,,,0.00,41.05,rob ver 1B,2013-03-15 14:11:00,
2013-03-15 07:12:00,63.1,27.6,29.44,SSE,165,1.1,1.3,26,-99.99,,,0.00,66,rob ver 1A,2013-03-15 14:12:00,
2013-03-15 07:13:00,62.7,30.1,29.29,East,85,1.9,2.3,29,-99.99,,,0.00,57.96,rob ver 1B,2013-03-15 14:13:00,
2013-03-15 07:14:00,62.7,30.1,29.29,East,88,1.5,2.0,29,-99.99,,,0.00,55.82,rob ver 1B,2013-03-15 14:14:00,
2013-03-15 07:15:00,62.7,30.2,29.29,East,87,1.4,1.7,29,-99.99,,,0.00,55.99,rob ver 1B,2013-03-15 14:15:00,
2013-03-15 07:16:00,62.7,30.2,29.29,East,82,1.6,2.0,29,-99.99,,,0.00,58.45,rob ver 1B,2013-03-15 14:16:00,
2013-03-15 07:17:00,63.9,28.0,29.41,East,97,1.8,2.0,25,-99.99,,,0.00,88.7,rob ver 1A,2013-03-15 14:17:00,
2013-03-15 07:18:00,62.6,30.2,29.29,ENE,69,2.3,2.7,29,-99.99,,,0.00,59.11,rob ver 1B,2013-03-15 14:18:00,
2013-03-15 07:19:00,62.6,30.2,29.29,ENE,73,2.2,2.5,29,-99.99,,,0.00,61.08,rob ver 1B,2013-03-15 14:19:00,
2013-03-15 07:20:00,62.7,30.2,29.29,ENE,74,3.0,3.3,29,-99.99,,,0.00,62.06,rob ver 1B,2013-03-15 14:20:00,
2013-03-15 07:21:00,62.7,30.2,29.29,ENE,73,3.4,3.8,29,-99.99,,,0.00,66.99,rob ver 1B,2013-03-15 14:21:00,
2013-03-15 07:22:00,65.1,28.2,29.44,ENE,75,2.3,2.5,24,-99.99,,,0.00,101.1,rob ver 1A,2013-03-15 14:22:00,
2013-03-15 07:23:00,62.7,30.2,29.29,ENE,68,3.3,3.9,29,-99.99,,,0.00,70.4,rob ver 1B,2013-03-15 14:23:00,
2013-03-15 07:24:00,62.5,30.2,29.29,ENE,59,4.3,4.7,29,-99.99,,,0.00,76.2,rob ver 1B,2013-03-15 14:24:00,
2013-03-15 07:25:00,62.4,30.2,29.29,NE,53,4.8,5.6,29,-99.99,,,0.00,75.5,rob ver 1B,2013-03-15 14:25:00,
2013-03-15 07:26:00,62.3,30.2,29.29,NE,48,4.9,5.8,29,-99.99,,,0.00,76.8,rob ver 1B,2013-03-15 14:26:00,
2013-03-15 07:27:00,66.2,29.0,29.44,WSW,238,0.8,1.2,24,-99.99,,,0.00,118.9,rob ver 1A,2013-03-15 14:27:00,
2013-03-15 07:28:00,62.5,30.2,29.29,NE,40,5.1,5.7,29,-99.99,,,0.00,87.7,rob ver 1B,2013-03-15 14:28:00,
2013-03-15 07:29:00,62.7,30.3,29.29,NE,39,5.1,5.5,29,-99.99,,,0.00,84.7,rob ver 1B,2013-03-15 14:29:00,
2013-03-15 07:30:00,62.9,30.4,29.29,NE,38,5.0,5.6,29,-99.99,,,0.00,92.3,rob ver 1B,2013-03-15 14:30:00,
2013-03-15 07:31:00,63.0,30.4,29.29,NE,40,4.2,5.4,29,-99.99,,,0.00,95.9,rob ver 1B,2013-03-15 14:31:00,
2013-03-15 07:32:00,63.2,30.6,29.29,NNE,32,3.6,4.7,29,-99.99,,,0.00,102.5,rob ver 1B,2013-03-15 14:32:00,
2013-03-15 07:33:00,65.6,28.9,29.44,West,272,1.0,1.3,25,-99.99,,,0.00,100.2,rob ver 1A,2013-03-15 14:33:00,
2013-03-15 07:34:00,63.6,30.5,29.29,North,4,5.1,5.6,28,-99.99,,,0.00,139.2,rob ver 1B,2013-03-15 14:34:00,
2013-03-15 07:35:00,64.0,30.7,29.29,North,350,3.8,4.7,28,-99.99,,,0.00,151,rob ver 1B,2013-03-15 14:35:00,
2013-03-15 07:36:00,64.3,30.9,29.29,North,357,4.1,4.5,28,-99.99,,,0.00,150.2,rob ver 1B,2013-03-15 14:36:00,
2013-03-15 07:37:00,64.5,30.8,29.29,North,4,4.0,4.6,27,-99.99,,,0.00,145.1,rob ver 1B,2013-03-15 14:37:00,
2013-03-15 07:38:00,65.9,29.0,29.44,NW,317,1.1,1.2,25,-99.99,,,0.00,137.3,rob ver 1A,2013-03-15 14:38:00,
2013-03-15 07:39:00,65.0,30.7,29.29,NNE,15,4.2,4.6,27,-99.99,,,0.00,196.4,rob ver 1B,2013-03-15 14:39:00,
2013-03-15 07:40:00,65.5,30.8,29.29,North,11,4.2,4.7,26,-99.99,,,0.00,179,rob ver 1B,2013-03-15 14:40:00,
2013-03-15 07:41:00,65.8,30.9,29.29,North,3,3.3,4.0,26,-99.99,,,0.00,188.8,rob ver 1B,2013-03-15 14:41:00,
2013-03-15 07:42:00,66.1,30.9,29.29,North,3,3.4,4.2,26,-99.99,,,0.00,170.1,rob ver 1B,2013-03-15 14:42:00,
2013-03-15 07:43:00,66.0,29.8,29.44,NW,315,2.4,2.9,25,-99.99,,,0.00,150.1,rob ver 1A,2013-03-15 14:43:00,
2013-03-15 07:44:00,66.4,30.9,29.29,North,5,3.5,3.7,26,-99.99,,,0.00,143.2,rob ver 1B,2013-03-15 14:44:00,
2013-03-15 07:45:00,66.5,31.2,29.29,North,7,3.3,3.7,26,-99.99,,,0.00,111.2,rob ver 1B,2013-03-15 14:45:00,
2013-03-15 07:46:00,66.5,31.2,29.29,North,1,3.4,3.9,26,-99.99,,,0.00,104.4,rob ver 1B,2013-03-15 14:46:00,
2013-03-15 07:47:00,66.4,31.1,29.29,North,359,3.4,4.0,26,-99.99,,,0.00,104.4,rob ver 1B,2013-03-15 14:47:00,
2013-03-15 07:48:00,66.0,29.9,29.44,NW,304,1.3,1.9,25,-99.99,,,0.00,169.9,rob ver 1A,2013-03-15 14:48:00,
2013-03-15 07:49:00,66.3,31.2,29.29,North,1,3.4,3.8,26,-99.99,,,0.00,109.5,rob ver 1B,2013-03-15 14:49:00,
2013-03-15 07:50:00,66.3,31.1,29.29,North,5,2.8,3.5,27,-99.99,,,0.00,107.7,rob ver 1B,2013-03-15 14:50:00,
2013-03-15 07:51:00,66.3,31.3,29.29,North,6,2.5,3.1,26,-99.99,,,0.00,110.8,rob ver 1B,2013-03-15 14:51:00,
2013-03-15 07:52:00,66.4,31.3,29.29,North,353,2.6,2.8,26,-99.99,,,0.00,107.4,rob ver 1B,2013-03-15 14:52:00,
2013-03-15 07:53:00,67.1,30.1,29.44,NW,311,1.9,2.1,25,-99.99,,,0.00,199.6,rob ver 1A,2013-03-15 14:53:00,
2013-03-15 07:54:00,66.5,31.1,29.29,North,8,2.1,3.0,26,-99.99,,,0.00,109,rob ver 1B,2013-03-15 14:54:00,
2013-03-15 07:55:00,66.6,31.1,29.29,NNE,17,1.9,2.0,26,-99.99,,,0.00,111,rob ver 1B,2013-03-15 14:55:00,
2013-03-15 07:56:00,66.7,31.0,29.29,NNE,22,2.0,2.1,26,-99.99,,,0.00,113.3,rob ver 1B,2013-03-15 14:56:00,
2013-03-15 07:57:00,66.8,30.9,29.29,NNE,21,1.8,2.0,26,-99.99,,,0.00,116.9,rob ver 1B,2013-03-15 14:57:00,
2013-03-15 07:58:00,67.4,29.7,29.44,WNW,294,2.4,2.9,24,-99.99,,,0.00,174,rob ver 1A,2013-03-15 14:58:00,
2013-03-15 07:59:00,67.0,31.1,29.29,North,359,2.2,2.5,26,-99.99,,,0.00,146.4,rob ver 1B,2013-03-15 14:59:00,
2013-03-15 08:00:00,67.1,31.1,29.32,NNW,339,2.4,2.6,26,-99.99,,,0.00,193.1,rob ver 1B,2013-03-15 15:00:00,
2013-03-15 08:01:00,67.3,31.7,29.32,NW,320,2.1,2.5,26,-99.99,,,0.00,166.8,rob ver 1B,2013-03-15 15:01:00,
2013-03-15 08:02:00,67.4,32.4,29.29,WNW,301,1.6,1.9,26,-99.99,,,0.00,153.7,rob ver 1B,2013-03-15 15:02:00,
2013-03-15 08:03:00,68.5,29.6,29.44,WSW,249,1.0,1.3,23,-99.99,,,0.00,230.3,rob ver 1A,2013-03-15 15:03:00,
2013-03-15 08:04:00,67.2,32.0,29.29,WSW,248,1.4,1.6,27,-99.99,,,0.00,171.9,rob ver 1B,2013-03-15 15:04:00,
2013-03-15 08:05:00,67.1,32.0,29.32,WSW,254,0.9,1.5,27,-99.99,,,0.00,174,rob ver 1B,2013-03-15 15:05:00,
2013-03-15 08:06:00,67.0,32.1,29.29,SSW,194,1.4,1.7,27,-99.99,,,0.00,146.9,rob ver 1B,2013-03-15 15:06:00,
2013-03-15 08:07:00,66.6,31.8,29.29,SSE,167,1.4,1.7,27,-99.99,,,0.00,130,rob ver 1B,2013-03-15 15:07:00,
2013-03-15 08:08:00,68.8,29.5,29.44,SSW,212,0.6,1.1,22,-99.99,,,0.00,242.8,rob ver 1A,2013-03-15 15:08:00,
2013-03-15 08:09:00,66.2,32.0,29.29,East,94,1.1,1.5,28,-99.99,,,0.00,141.7,rob ver 1B,2013-03-15 15:09:00,
2013-03-15 08:10:00,66.1,32.1,29.29,SE,143,1.3,1.5,28,-99.99,,,0.00,143.8,rob ver 1B,2013-03-15 15:10:00,
2013-03-15 08:11:00,66.0,32.2,29.29,SE,128,1.1,1.6,28,-99.99,,,0.00,158.9,rob ver 1B,2013-03-15 15:11:00,
2013-03-15 08:12:00,66.1,32.1,29.29,ESE,114,0.7,0.9,28,-99.99,,,0.00,158.3,rob ver 1B,2013-03-15 15:12:00,
2013-03-15 08:13:00,70.2,29.4,29.44,SSE,166,1.6,2.1,21,-99.99,,,0.00,263.6,rob ver 1A,2013-03-15 15:13:00,
2013-03-15 08:14:00,66.3,32.4,29.29,ESE,118,1.1,2.1,28,-99.99,,,0.00,148.4,rob ver 1B,2013-03-15 15:14:00,
2013-03-15 08:15:00,66.4,32.0,29.29,East,84,2.1,2.2,27,-99.99,,,0.00,149.7,rob ver 1B,2013-03-15 15:15:00,
2013-03-15 08:16:00,66.5,32.1,29.29,East,92,2.0,2.1,28,-99.99,,,0.00,148.4,rob ver 1B,2013-03-15 15:16:00,
2013-03-15 08:17:00,66.5,32.9,29.29,ESE,120,2.0,2.2,28,-99.99,,,0.00,147.8,rob ver 1B,2013-03-15 15:17:00,
2013-03-15 08:18:00,69.2,28.6,29.44,SE,141,1.8,2.1,22,-99.99,,,0.00,287.6,rob ver 1A,2013-03-15 15:18:00,
2013-03-15 08:19:00,66.5,32.6,29.29,ESE,113,2.0,2.3,28,-99.99,,,0.00,152.4,rob ver 1B,2013-03-15 15:19:00,
2013-03-15 08:20:00,66.5,32.4,29.29,East,94,1.8,2.0,27,-99.99,,,0.00,155.6,rob ver 1B,2013-03-15 15:20:00,
2013-03-15 08:21:00,66.7,32.2,29.29,ENE,75,1.8,2.1,27,-99.99,,,0.00,151,rob ver 1B,2013-03-15 15:21:00,
2013-03-15 08:22:00,66.9,32.2,29.29,ENE,64,1.7,2.9,27,-99.99,,,0.00,160.2,rob ver 1B,2013-03-15 15:22:00,
2013-03-15 08:23:00,69.5,29.7,29.44,SE,137,1.4,1.8,22,-99.99,,,0.00,306.1,rob ver 1A,2013-03-15 15:23:00,
2013-03-15 08:24:00,67.3,31.8,29.29,ENE,76,1.8,2.1,26,-99.99,,,0.00,160.2,rob ver 1B,2013-03-15 15:24:00,
2013-03-15 08:25:00,67.4,31.9,29.29,East,83,1.5,2.1,26,-99.99,,,0.00,165.5,rob ver 1B,2013-03-15 15:25:00,
2013-03-15 08:26:00,67.6,32.1,29.29,East,96,1.3,1.5,26,-99.99,,,0.00,192.4,rob ver 1B,2013-03-15 15:26:00,
2013-03-15 08:27:00,67.8,32.2,29.32,East,79,0.9,1.4,26,-99.99,,,0.00,224.6,rob ver 1B,2013-03-15 15:27:00,
2013-03-15 08:28:00,68.1,32.3,29.29,NNE,31,0.5,0.8,26,-99.99,,,0.00,212.7,rob ver 1B,2013-03-15 15:28:00,
2013-03-15 08:29:00,71.7,29.6,29.44,SSW,209,0.8,1.6,20,-99.99,,,0.00,311.2,rob ver 1A,2013-03-15 15:29:00,
2013-03-15 08:30:00,69.1,32.2,29.32,North,356,0.8,1.2,25,-99.99,,,0.00,206.2,rob ver 1B,2013-03-15 15:30:00,
2013-03-15 08:31:00,69.5,32.1,29.32,North,352,0.7,1.1,24,-99.99,,,0.00,242.3,rob ver 1B,2013-03-15 15:31:00,
2013-03-15 08:32:00,69.8,32.0,29.32,NNE,13,1.2,1.7,24,-99.99,,,0.00,244.3,rob ver 1B,2013-03-15 15:32:00,
2013-03-15 08:33:00,70.0,32.3,29.32,NNW,335,1.1,1.4,24,-99.99,,,0.00,216,rob ver 1B,2013-03-15 15:33:00,
2013-03-15 08:34:00,72.2,29.8,29.44,West,270,1.3,1.7,20,-99.99,,,0.00,356.5,rob ver 1A,2013-03-15 15:34:00,
2013-03-15 08:35:00,70.3,32.4,29.32,NW,322,1.2,1.9,24,-99.99,,,0.00,239,rob ver 1B,2013-03-15 15:35:00,
2013-03-15 08:36:00,70.4,32.5,29.32,NNW,339,1.2,1.9,24,-99.99,,,0.00,223.9,rob ver 1B,2013-03-15 15:36:00,
2013-03-15 08:37:00,70.6,32.5,29.32,NNW,338,1.6,2.5,24,-99.99,,,0.00,261.3,rob ver 1B,2013-03-15 15:37:00,
2013-03-15 08:38:00,70.7,32.5,29.32,NNW,327,2.0,2.6,24,-99.99,,,0.00,284.3,rob ver 1B,2013-03-15 15:38:00,
2013-03-15 08:39:00,72.8,30.0,29.44,West,273,1.1,1.4,20,-99.99,,,0.00,377.5,rob ver 1A,2013-03-15 15:39:00,
2013-03-15 08:40:00,70.8,32.7,29.32,NW,320,2.0,2.5,24,-99.99,,,0.00,281.7,rob ver 1B,2013-03-15 15:40:00,
2013-03-15 08:41:00,70.8,32.9,29.32,NNW,330,1.8,2.2,24,-99.99,,,0.00,317.1,rob ver 1B,2013-03-15 15:41:00,
2013-03-15 08:42:00,71.0,33.3,29.32,NNW,331,1.3,1.7,24,-99.99,,,0.00,302.7,rob ver 1B,2013-03-15 15:42:00,
2013-03-15 08:43:00,71.2,33.1,29.32,NW,313,1.1,1.5,24,-99.99,,,0.00,283,rob ver 1B,2013-03-15 15:43:00,
2013-03-15 08:44:00,74.2,30.2,29.44,NNW,329,1.4,2.1,19,-99.99,,,0.00,392.5,rob ver 1A,2013-03-15 15:44:00,
2013-03-15 08:45:00,71.5,33.2,29.32,SW,230,1.1,1.4,24,-99.99,,,0.00,306.6,rob ver 1B,2013-03-15 15:45:00,
2013-03-15 08:46:00,71.6,33.1,29.32,SSW,210,1.2,1.7,23,-99.99,,,0.00,322.4,rob ver 1B,2013-03-15 15:46:00,
2013-03-15 08:47:00,71.7,32.8,29.32,SSW,203,1.9,2.7,24,-99.99,,,0.00,323,rob ver 1B,2013-03-15 15:47:00,
2013-03-15 08:48:00,71.6,32.7,29.32,SSW,200,2.5,2.8,23,-99.99,,,0.00,323,rob ver 1B,2013-03-15 15:48:00,
2013-03-15 08:49:00,75.3,30.5,29.44,North,353,0.4,1.1,19,-99.99,,,0.00,399.1,rob ver 1A,2013-03-15 15:49:00,
2013-03-15 08:50:00,71.2,32.9,29.32,SSW,200,3.9,4.6,24,-99.99,,,0.00,325,rob ver 1B,2013-03-15 15:50:00,
2013-03-15 08:51:00,70.9,33.0,29.32,SSW,193,4.0,4.5,24,-99.99,,,0.00,317.1,rob ver 1B,2013-03-15 15:51:00,
2013-03-15 08:52:00,70.7,32.6,29.32,SSW,198,4.1,4.5,24,-99.99,,,0.00,355.9,rob ver 1B,2013-03-15 15:52:00,
2013-03-15 08:53:00,70.5,32.4,29.32,SSW,199,3.6,4.3,24,-99.99,,,0.00,370.3,rob ver 1B,2013-03-15 15:53:00,
2013-03-15 08:54:00,75.5,30.6,29.44,ENE,69,2.5,3.3,18,-99.99,,,0.00,399.7,rob ver 1A,2013-03-15 15:54:00,
2013-03-15 08:55:00,70.7,32.5,29.32,SSW,193,2.8,3.3,23,-99.99,,,0.00,429.4,rob ver 1B,2013-03-15 15:55:00,
2013-03-15 08:56:00,71.0,31.8,29.32,SSW,196,2.6,3.2,23,-99.99,,,0.00,430,rob ver 1B,2013-03-15 15:56:00,
2013-03-15 08:57:00,71.3,31.8,29.32,SSW,193,2.7,3.2,22,-99.99,,,0.00,434,rob ver 1B,2013-03-15 15:57:00,
2013-03-15 08:58:00,71.5,31.8,29.32,South,188,2.6,3.5,22,-99.99,,,0.00,407.5,rob ver 1B,2013-03-15 15:58:00,
2013-03-15 08:59:00,74.1,30.3,29.44,ENE,78,3.7,4.9,19,-99.99,,,0.00,376.4,rob ver 1A,2013-03-15 15:59:00,
2013-03-15 09:00:00,71.7,31.3,29.32,South,171,2.6,3.4,22,-99.99,,,0.00,403.8,rob ver 1B,2013-03-15 16:00:00,
2013-03-15 09:01:00,71.9,31.7,29.32,South,188,2.7,3.5,22,-99.99,,,0.00,475.3,rob ver 1B,2013-03-15 16:01:00,
2013-03-15 09:02:00,72.1,32.1,29.32,South,182,2.5,3.5,23,-99.99,,,0.00,453.2,rob ver 1B,2013-03-15 16:02:00,
2013-03-15 09:03:00,72.3,32.2,29.32,SSE,161,2.5,3.1,22,-99.99,,,0.00,432,rob ver 1B,2013-03-15 16:03:00,
2013-03-15 09:04:00,74.3,30.5,29.44,East,101,4.1,5.7,19,-99.99,,,0.00,460.2,rob ver 1A,2013-03-15 16:04:00,
2013-03-15 09:05:00,72.3,32.1,29.32,SSE,163,2.4,3.2,22,-99.99,,,0.00,416,rob ver 1B,2013-03-15 16:05:00,
2013-03-15 09:06:00,72.4,31.9,29.32,SSE,155,2.4,2.9,22,-99.99,,,0.00,452.3,rob ver 1B,2013-03-15 16:06:00,
2013-03-15 09:07:00,72.6,31.8,29.32,SSE,168,1.9,2.6,22,-99.99,,,0.00,402.4,rob ver 1B,2013-03-15 16:07:00,
2013-03-15 09:08:00,72.8,32.5,29.32,SSE,164,2.1,2.6,22,-99.99,,,0.00,294.4,rob ver 1B,2013-03-15 16:08:00,
2013-03-15 09:09:00,75.5,30.6,29.44,East,95,2.7,3.3,18,-99.99,,,0.00,483.6,rob ver 1A,2013-03-15 16:09:00,
2013-03-15 09:10:00,72.4,32.1,29.32,SSE,158,1.8,2.3,22,-99.99,,,0.00,359.7,rob ver 1B,2013-03-15 16:10:00,
2013-03-15 09:11:00,72.4,31.4,29.32,SE,138,2.0,2.5,21,-99.99,,,0.00,524.5,rob ver 1B,2013-03-15 16:11:00,
2013-03-15 09:12:00,72.5,31.5,29.32,SE,145,1.7,2.1,21,-99.99,,,0.00,494.3,rob ver 1B,2013-03-15 16:12:00,
2013-03-15 09:13:00,72.8,31.8,29.32,SSE,165,1.6,2.2,22,-99.99,,,0.00,490.4,rob ver 1B,2013-03-15 16:13:00,
2013-03-15 09:14:00,76.5,30.5,29.44,East,84,2.7,3.6,18,-99.99,,,0.00,500,rob ver 1A,2013-03-15 16:14:00,
2013-03-15 09:15:00,73.6,31.7,29.32,SSE,168,2.1,2.8,20,-99.99,,,0.00,339.4,rob ver 1B,2013-03-15 16:15:00,
2013-03-15 09:16:00,73.6,31.4,29.32,SSW,198,2.4,3.1,21,-99.99,,,0.00,416.2,rob ver 1B,2013-03-15 16:16:00,
2013-03-15 09:17:00,73.7,31.4,29.32,SSW,196,2.1,2.8,21,-99.99,,,0.00,435.7,rob ver 1B,2013-03-15 16:17:00,
2013-03-15 09:18:00,73.9,31.4,29.32,SSE,167,2.2,2.9,20,-99.99,,,0.00,423,rob ver 1B,2013-03-15 16:18:00,
2013-03-15 09:19:00,73.7,31.4,29.32,SSE,167,2.1,3.0,20,-99.99,,,0.00,382,rob ver 1B,2013-03-15 16:19:00,
2013-03-15 09:20:00,76.0,31.0,29.44,SE,133,4.4,5.9,18,-99.99,,,0.00,521.8,rob ver 1A,2013-03-15 16:20:00,
2013-03-15 09:21:00,73.6,31.1,29.32,SSE,163,2.7,3.8,20,-99.99,,,0.00,550,rob ver 1B,2013-03-15 16:21:00,
2013-03-15 09:22:00,73.5,31.0,29.32,SSE,156,2.0,2.6,21,-99.99,,,0.00,508.7,rob ver 1B,2013-03-15 16:22:00,
2013-03-15 09:23:00,73.6,31.1,29.32,SE,127,2.0,2.7,20,-99.99,,,0.00,490.3,rob ver 1B,2013-03-15 16:23:00,
2013-03-15 09:24:00,73.6,31.2,29.32,SSE,148,1.7,2.7,20,-99.99,,,0.00,382,rob ver 1B,2013-03-15 16:24:00,
2013-03-15 09:25:00,76.3,31.2,29.44,SE,139,3.7,4.5,19,-99.99,,,0.00,536.8,rob ver 1A,2013-03-15 16:25:00,
2013-03-15 09:26:00,74.3,31.6,29.32,North,349,0.4,0.9,20,-99.99,,,0.00,544.1,rob ver 1B,2013-03-15 16:26:00,
2013-03-15 09:27:00,75.3,31.9,29.32,East,79,0.8,1.3,20,-99.99,,,0.00,558.5,rob ver 1B,2013-03-15 16:27:00,
2013-03-15 09:28:00,75.7,31.8,29.32,ESE,115,2.0,2.5,19,-99.99,,,0.00,522.8,rob ver 1B,2013-03-15 16:28:00,
2013-03-15 09:29:00,75.0,31.4,29.32,SSE,148,1.9,2.6,20,-99.99,,,0.00,556.6,rob ver 1B,2013-03-15 16:29:00,
2013-03-15 09:30:00,76.4,31.0,29.44,ESE,118,3.5,5.0,19,-99.99,,,0.00,549.8,rob ver 1A,2013-03-15 16:30:00,
2013-03-15 09:31:00,75.4,31.5,29.32,ESE,104,1.9,2.8,19,-99.99,,,0.00,537.9,rob ver 1B,2013-03-15 16:31:00,
2013-03-15 09:32:00,75.5,31.5,29.32,ENE,77,0.7,1.5,19,-99.99,,,0.00,550,rob ver 1B,2013-03-15 16:32:00,
2013-03-15 09:33:00,76.0,31.8,29.32,NNE,31,0.6,1.3,19,-99.99,,,0.00,515.9,rob ver 1B,2013-03-15 16:33:00,
2013-03-15 09:34:00,76.7,31.6,29.32,WSW,249,1.6,3.0,18,-99.99,,,0.00,416.1,rob ver 1B,2013-03-15 16:34:00,
2013-03-15 09:35:00,77.3,31.2,29.44,SE,136,4.3,6.4,18,-99.99,,,0.00,583.4,rob ver 1A,2013-03-15 16:35:00,
2013-03-15 09:36:00,75.8,31.2,29.32,SW,218,2.9,4.0,19,-99.99,,,0.00,455.5,rob ver 1B,2013-03-15 16:36:00,
2013-03-15 09:37:00,75.3,31.0,29.32,SW,225,3.3,4.7,19,-99.99,,,0.00,339.8,rob ver 1B,2013-03-15 16:37:00,
2013-03-15 09:38:00,74.8,30.9,29.32,SW,215,3.9,5.5,19,-99.99,,,0.00,476.3,rob ver 1B,2013-03-15 16:38:00,
2013-03-15 09:39:00,74.5,31.1,29.32,SW,216,3.7,5.3,20,-99.99,,,0.00,371.3,rob ver 1B,2013-03-15 16:39:00,
2013-03-15 09:40:00,77.0,31.2,29.47,SE,144,5.3,6.3,18,-99.99,,,0.00,602.5,rob ver 1A,2013-03-15 16:40:00,
2013-03-15 09:41:00,74.2,31.4,29.32,SW,224,4.5,5.5,20,-99.99,,,0.00,517.6,rob ver 1B,2013-03-15 16:41:00,
2013-03-15 09:42:00,74.2,31.6,29.32,SW,226,3.6,4.9,20,-99.99,,,0.00,550.6,rob ver 1B,2013-03-15 16:42:00,
2013-03-15 09:43:00,74.5,31.4,29.32,SSW,204,3.5,5.0,20,-99.99,,,0.00,559.1,rob ver 1B,2013-03-15 16:43:00,
2013-03-15 09:44:00,74.9,31.6,29.32,SW,220,3.7,6.0,20,-99.99,,,0.00,589.9,rob ver 1B,2013-03-15 16:44:00,
2013-03-15 09:45:00,77.4,31.1,29.47,SE,136,5.2,6.9,18,-99.99,,,0.00,572,rob ver 1A,2013-03-15 16:45:00,
2013-03-15 09:46:00,74.9,31.3,29.32,SW,214,3.0,4.3,19,-99.99,,,0.00,564.2,rob ver 1B,2013-03-15 16:46:00,
2013-03-15 09:47:00,75.1,31.1,29.32,SW,231,3.6,7.4,19,-99.99,,,0.00,607.6,rob ver 1B,2013-03-15 16:47:00,
2013-03-15 09:48:00,75.0,31.1,29.32,WSW,237,3.8,4.9,19,-99.99,,,0.00,613,rob ver 1B,2013-03-15 16:48:00,
2013-03-15 09:49:00,74.8,30.9,29.32,West,262,4.2,5.5,20,-99.99,,,0.00,620.1,rob ver 1B,2013-03-15 16:49:00,
2013-03-15 09:50:00,77.8,32.4,29.47,SSE,161,4.3,6.0,18,-99.99,,,0.00,581.2,rob ver 1A,2013-03-15 16:50:00,
2013-03-15 09:51:00,74.8,31.2,29.32,WSW,242,4.5,7.6,20,-99.99,,,0.00,621.5,rob ver 1B,2013-03-15 16:51:00,
2013-03-15 09:52:00,74.7,31.2,29.32,SW,230,4.4,6.9,19,-99.99,,,0.00,623.8,rob ver 1B,2013-03-15 16:52:00,
2013-03-15 09:53:00,74.7,30.8,29.32,SW,221,5.7,7.3,20,-99.99,,,0.00,601,rob ver 1B,2013-03-15 16:53:00,
2013-03-15 09:54:00,74.5,31.0,29.32,SSW,210,3.4,6.3,19,-99.99,,,0.00,569.8,rob ver 1B,2013-03-15 16:54:00,
2013-03-15 09:55:00,77.3,31.9,29.44,SSE,158,5.1,6.7,19,-99.99,,,0.00,605.3,rob ver 1A,2013-03-15 16:55:00,
2013-03-15 09:56:00,74.5,31.0,29.32,South,171,3.3,4.8,19,-99.99,,,0.00,576,rob ver 1B,2013-03-15 16:56:00,
2013-03-15 09:57:00,74.6,30.6,29.32,SE,140,2.3,3.7,19,-99.99,,,0.00,640.3,rob ver 1B,2013-03-15 16:57:00,
2013-03-15 09:58:00,74.8,31.0,29.32,SSE,153,1.8,2.8,19,-99.99,,,0.00,641.2,rob ver 1B,2013-03-15 16:58:00,
2013-03-15 09:59:00,75.4,31.2,29.32,WSW,237,2.4,4.4,19,-99.99,,,0.00,646.9,rob ver 1B,2013-03-15 16:59:00,
2013-03-15 10:00:00,77.6,31.7,29.47,SE,135,4.3,6.0,18,-99.99,,,0.00,575.4,rob ver 1A,2013-03-15 17:00:00,
2013-03-15 10:01:00,75.7,31.4,29.32,WSW,248,1.9,3.8,19,-99.99,,,0.00,640.5,rob ver 1B,2013-03-15 17:01:00,
2013-03-15 10:02:00,75.8,31.7,29.32,WSW,247,4.1,4.9,19,-99.99,,,0.00,615.4,rob ver 1B,2013-03-15 17:02:00,
2013-03-15 10:03:00,75.7,31.5,29.32,West,277,3.5,5.0,19,-99.99,,,0.00,609.8,rob ver 1B,2013-03-15 17:03:00,
2013-03-15 10:04:00,75.7,31.7,29.32,WNW,282,3.0,4.0,19,-99.99,,,0.00,613.6,rob ver 1B,2013-03-15 17:04:00,
2013-03-15 10:05:00,75.8,31.6,29.32,West,271,3.3,4.5,19,-99.99,,,0.00,642.2,rob ver 1B,2013-03-15 17:05:00,
2013-03-15 10:06:00,78.1,31.6,29.47,SE,129,4.8,6.0,18,-99.99,,,0.00,631.5,rob ver 1A,2013-03-15 17:06:00,
2013-03-15 10:07:00,75.8,31.1,29.32,SSW,207,4.3,5.4,19,-99.99,,,0.00,648.8,rob ver 1B,2013-03-15 17:07:00,
2013-03-15 10:08:00,75.8,31.3,29.35,SW,221,2.9,4.6,19,-99.99,,,0.00,651.3,rob ver 1B,2013-03-15 17:08:00,
2013-03-15 10:09:00,75.9,31.5,29.35,WSW,241,3.7,5.7,19,-99.99,,,0.00,662.4,rob ver 1B,2013-03-15 17:09:00,
2013-03-15 10:10:00,75.9,31.0,29.32,WSW,248,5.5,7.7,19,-99.99,,,0.00,661.7,rob ver 1B,2013-03-15 17:10:00,
2013-03-15 10:11:00,78.5,30.8,29.44,ESE,121,3.8,5.2,17,-99.99,,,0.00,658.4,rob ver 1A,2013-03-15 17:11:00,
2013-03-15 10:12:00,75.8,31.4,29.32,SW,226,2.5,3.8,19,-99.99,,,0.00,666.2,rob ver 1B,2013-03-15 17:12:00,
2013-03-15 10:13:00,76.1,31.6,29.32,SW,219,2.9,6.4,19,-99.99,,,0.00,668,rob ver 1B,2013-03-15 17:13:00,
2013-03-15 10:14:00,76.3,31.4,29.32,West,265,4.5,7.4,19,-99.99,,,0.00,670.1,rob ver 1B,2013-03-15 17:14:00,
2013-03-15 10:15:00,76.2,31.3,29.32,West,272,3.4,4.6,19,-99.99,,,0.00,663.5,rob ver 1B,2013-03-15 17:15:00,
2013-03-15 10:16:00,79.3,30.6,29.47,SE,134,4.5,5.8,16,-99.99,,,0.00,668.5,rob ver 1A,2013-03-15 17:16:00,
2013-03-15 10:17:00,76.4,31.0,29.32,SSW,202,3.5,4.7,18,-99.99,,,0.00,673,rob ver 1B,2013-03-15 17:17:00,
2013-03-15 10:18:00,76.4,30.8,29.32,SSE,152,2.1,3.5,18,-99.99,,,0.00,675.2,rob ver 1B,2013-03-15 17:18:00,
2013-03-15 10:19:00,76.5,30.8,29.32,South,180,1.4,2.1,18,-99.99,,,0.00,680.2,rob ver 1B,2013-03-15 17:19:00,
2013-03-15 10:20:00,76.9,30.9,29.32,WSW,254,3.0,4.7,18,-99.99,,,0.00,678.6,rob ver 1B,2013-03-15 17:20:00,
2013-03-15 10:21:00,79.7,30.1,29.47,SE,124,3.5,5.3,16,-99.99,,,0.00,705,rob ver 1A,2013-03-15 17:21:00,
2013-03-15 10:22:00,76.9,31.0,29.32,West,277,1.8,2.4,18,-99.99,,,0.00,686.5,rob ver 1B,2013-03-15 17:22:00,
2013-03-15 10:23:00,77.2,31.3,29.32,SSW,213,2.5,3.6,18,-99.99,,,0.00,687.1,rob ver 1B,2013-03-15 17:23:00,
2013-03-15 10:24:00,77.3,31.0,29.32,WSW,240,1.8,3.4,18,-99.99,,,0.00,692.5,rob ver 1B,2013-03-15 17:24:00,
2013-03-15 10:25:00,77.6,31.2,29.32,SW,233,1.6,2.7,18,-99.99,,,0.00,693.7,rob ver 1B,2013-03-15 17:25:00,
2013-03-15 10:26:00,80.6,29.9,29.44,SE,143,4.9,6.5,15,-99.99,,,0.00,638.7,rob ver 1A,2013-03-15 17:26:00,
2013-03-15 10:27:00,77.3,30.2,29.32,South,176,2.8,4.7,18,-99.99,,,0.00,693,rob ver 1B,2013-03-15 17:27:00,
2013-03-15 10:28:00,77.4,30.5,29.32,SSW,197,2.1,3.7,17,-99.99,,,0.00,689.9,rob ver 1B,2013-03-15 17:28:00,
2013-03-15 10:29:00,77.8,31.0,29.32,SSW,209,1.9,3.7,18,-99.99,,,0.00,685.5,rob ver 1B,2013-03-15 17:29:00,
2013-03-15 10:30:00,77.9,30.8,29.32,South,187,3.2,5.5,17,-99.99,,,0.00,701,rob ver 1B,2013-03-15 17:30:00,
2013-03-15 10:31:00,80.6,29.8,29.47,SSE,147,4.0,6.1,15,-99.99,,,0.00,694.4,rob ver 1A,2013-03-15 17:31:00,
2013-03-15 10:32:00,77.9,30.3,29.32,SW,222,6.1,7.1,17,-99.99,,,0.00,708,rob ver 1B,2013-03-15 17:32:00,
2013-03-15 10:33:00,77.4,30.4,29.32,SW,219,4.9,6.1,17,-99.99,,,0.00,709,rob ver 1B,2013-03-15 17:33:00,
2013-03-15 10:34:00,77.2,30.8,29.32,SW,229,4.0,5.2,18,-99.99,,,0.00,711,rob ver 1B,2013-03-15 17:34:00,
2013-03-15 10:35:00,77.1,30.9,29.32,SW,231,3.4,5.1,18,-99.99,,,0.00,713,rob ver 1B,2013-03-15 17:35:00,
2013-03-15 10:36:00,81.6,29.5,29.44,SE,132,4.7,6.2,14,-99.99,,,0.00,734,rob ver 1A,2013-03-15 17:36:00,
2013-03-15 10:37:00,77.5,30.6,29.32,SW,225,4.9,10.8,17,-99.99,,,0.00,718,rob ver 1B,2013-03-15 17:37:00,
2013-03-15 10:38:00,77.5,30.1,29.32,South,170,4.7,7.2,17,-99.99,,,0.00,720,rob ver 1B,2013-03-15 17:38:00,
2013-03-15 10:39:00,77.5,29.9,29.32,South,187,4.1,5.6,17,-99.99,,,0.00,721,rob ver 1B,2013-03-15 17:39:00,
2013-03-15 10:40:00,77.8,29.7,29.32,South,189,4.0,7.3,17,-99.99,,,0.00,723,rob ver 1B,2013-03-15 17:40:00,
2013-03-15 10:41:00,81.9,29.6,29.44,SE,141,4.0,5.8,14,-99.99,,,0.00,759,rob ver 1A,2013-03-15 17:41:00,
2013-03-15 10:42:00,78.3,28.1,29.32,SSW,204,3.6,6.6,15,-99.99,,,0.00,728,rob ver 1B,2013-03-15 17:42:00,
2013-03-15 10:43:00,78.5,28.5,29.32,SSW,204,3.2,6.6,15,-99.99,,,0.00,731,rob ver 1B,2013-03-15 17:43:00,
2013-03-15 10:44:00,78.7,28.7,29.32,South,185,5.1,7.2,16,-99.99,,,0.00,732,rob ver 1B,2013-03-15 17:44:00,
2013-03-15 10:45:00,78.9,29.0,29.32,SSW,198,4.9,7.0,16,-99.99,,,0.00,734,rob ver 1B,2013-03-15 17:45:00,
2013-03-15 10:46:00,82.8,28.6,29.44,ESE,103,4.1,5.8,13,-99.99,,,0.00,759,rob ver 1A,2013-03-15 17:46:00,
2013-03-15 10:47:00,79.0,28.4,29.32,South,190,6.5,8.5,16,-99.99,,,0.00,737,rob ver 1B,2013-03-15 17:47:00,
2013-03-15 10:48:00,78.9,29.0,29.32,SSW,212,7.1,8.5,15,-99.99,,,0.00,739,rob ver 1B,2013-03-15 17:48:00,
2013-03-15 10:49:00,78.7,28.9,29.32,SSW,212,5.8,9.0,15,-99.99,,,0.00,742,rob ver 1B,2013-03-15 17:49:00,
2013-03-15 10:50:00,78.8,28.2,29.32,SSW,195,7.6,9.4,15,-99.99,,,0.00,744,rob ver 1B,2013-03-15 17:50:00,
2013-03-15 10:51:00,83.2,28.6,29.44,SE,135,4.2,6.5,13,-99.99,,,0.00,790,rob ver 1A,2013-03-15 17:51:00,
2013-03-15 10:52:00,78.8,27.6,29.32,SSW,196,5.4,7.5,15,-99.99,,,0.00,749,rob ver 1B,2013-03-15 17:52:00,
2013-03-15 10:53:00,78.6,26.9,29.32,SW,214,4.4,5.9,15,-99.99,,,0.00,752,rob ver 1B,2013-03-15 17:53:00,
2013-03-15 10:54:00,78.7,27.3,29.32,SSW,200,3.0,4.2,15,-99.99,,,0.00,752,rob ver 1B,2013-03-15 17:54:00,
2013-03-15 10:55:00,79.0,27.8,29.32,SSW,199,2.9,5.3,15,-99.99,,,0.00,755,rob ver 1B,2013-03-15 17:55:00,
2013-03-15 10:56:00,84.1,28.7,29.44,SSE,167,2.6,4.1,13,-99.99,,,0.00,754,rob ver 1A,2013-03-15 17:56:00,
2013-03-15 10:57:00,78.9,26.8,29.32,South,190,6.6,10.0,14,-99.99,,,0.00,758,rob ver 1B,2013-03-15 17:57:00,
2013-03-15 10:58:00,78.8,26.8,29.32,South,189,6.3,8.9,14,-99.99,,,0.00,760,rob ver 1B,2013-03-15 17:58:00,
2013-03-15 10:59:00,78.9,27.2,29.32,SSW,196,4.3,7.4,14,-99.99,,,0.00,761,rob ver 1B,2013-03-15 17:59:00,
2013-03-15 11:00:00,78.9,27.3,29.32,South,191,4.9,8.0,15,-99.99,,,0.00,763,rob ver 1B,2013-03-15 18:00:00,
2013-03-15 11:01:00,86.6,29.5,29.47,South,184,3.4,4.7,12,-99.99,,,0.00,758,rob ver 1A,2013-03-15 18:01:00,
2013-03-15 11:02:00,79.0,28.2,29.32,SSE,165,4.5,8.9,15,-99.99,,,0.00,767,rob ver 1B,2013-03-15 18:02:00,
2013-03-15 11:03:00,79.1,28.5,29.32,South,174,5.1,7.8,15,-99.99,,,0.00,767,rob ver 1B,2013-03-15 18:03:00,
2013-03-15 11:04:00,79.0,28.9,29.32,SE,141,5.9,6.6,15,-99.99,,,0.00,768,rob ver 1B,2013-03-15 18:04:00,
2013-03-15 11:05:00,78.6,29.2,29.32,SE,132,5.5,6.9,16,-99.99,,,0.00,771,rob ver 1B,2013-03-15 18:05:00,
2013-03-15 11:06:00,78.9,26.9,29.32,South,176,7.9,10.1,14,-99.99,,,0.00,773,rob ver 1B,2013-03-15 18:06:00,
2013-03-15 11:07:00,86.2,29.2,29.44,South,173,4.2,5.6,12,-99.99,,,0.00,852,rob ver 1A,2013-03-15 18:07:00,
2013-03-15 11:08:00,78.9,26.1,29.32,South,190,6.9,10.1,13,-99.99,,,0.00,776,rob ver 1B,2013-03-15 18:08:00,
2013-03-15 11:09:00,79.1,25.6,29.32,SSW,197,5.3,7.4,13,-99.99,,,0.00,777,rob ver 1B,2013-03-15 18:09:00,
2013-03-15 11:10:00,79.3,26.6,29.32,South,185,6.1,8.7,14,-99.99,,,0.00,779,rob ver 1B,2013-03-15 18:10:00,
2013-03-15 11:11:00,79.3,27.0,29.32,SSE,156,7.1,8.9,15,-99.99,,,0.00,781,rob ver 1B,2013-03-15 18:11:00,
2013-03-15 11:12:00,86.6,29.4,29.44,SSW,206,2.3,4.1,12,-99.99,,,0.00,794,rob ver 1A,2013-03-15 18:12:00,
2013-03-15 11:13:00,79.4,27.2,29.32,SSE,161,5.5,7.6,14,-99.99,,,0.00,783,rob ver 1B,2013-03-15 18:13:00,
2013-03-15 11:14:00,79.3,28.2,29.32,SE,142,8.6,10.5,15,-99.99,,,0.00,784,rob ver 1B,2013-03-15 18:14:00,
2013-03-15 11:15:00,79.3,28.8,29.32,SE,134,8.1,10.0,15,-99.99,,,0.00,786,rob ver 1B,2013-03-15 18:15:00,
2013-03-15 11:16:00,79.0,28.0,29.32,SSE,148,7.9,10.8,14,-99.99,,,0.00,788,rob ver 1B,2013-03-15 18:16:00,
2013-03-15 11:17:00,85.9,29.2,29.44,SE,137,4.5,5.5,13,-99.99,,,0.00,749,rob ver 1A,2013-03-15 18:17:00,
2013-03-15 11:18:00,79.4,25.4,29.32,South,188,6.5,8.9,13,-99.99,,,0.00,791,rob ver 1B,2013-03-15 18:18:00,
2013-03-15 11:19:00,79.6,25.5,29.32,South,174,5.9,9.8,13,-99.99,,,0.00,792,rob ver 1B,2013-03-15 18:19:00,
2013-03-15 11:20:00,80.0,24.9,29.32,SSE,164,7.1,12.3,13,-99.99,,,0.00,793,rob ver 1B,2013-03-15 18:20:00,
2013-03-15 11:21:00,79.6,25.1,29.32,South,175,5.9,8.9,13,-99.99,,,0.00,796,rob ver 1B,2013-03-15 18:21:00,
2013-03-15 11:22:00,85.9,29.3,29.44,SSE,159,2.6,4.6,12,-99.99,,,0.00,757,rob ver 1A,2013-03-15 18:22:00,
2013-03-15 11:23:00,79.9,25.3,29.32,South,175,7.4,10.3,13,-99.99,,,0.00,798,rob ver 1B,2013-03-15 18:23:00,
2013-03-15 11:24:00,79.8,25.5,29.32,SSE,160,8.1,11.3,13,-99.99,,,0.00,798,rob ver 1B,2013-03-15 18:24:00,
2013-03-15 11:25:00,79.5,26.0,29.32,SSW,194,7.3,8.6,13,-99.99,,,0.00,800,rob ver 1B,2013-03-15 18:25:00,
2013-03-15 11:26:00,79.6,26.3,29.32,SSW,194,6.3,9.6,14,-99.99,,,0.00,801,rob ver 1B,2013-03-15 18:26:00,
2013-03-15 11:27:00,86.2,29.6,29.44,SSE,154,4.6,5.9,12,-99.99,,,0.00,908,rob ver 1A,2013-03-15 18:27:00,
2013-03-15 11:28:00,79.5,26.1,29.32,SSW,213,5.6,7.4,13,-99.99,,,0.00,802,rob ver 1B,2013-03-15 18:28:00,
2013-03-15 11:29:00,79.6,26.4,29.32,SSW,203,5.7,7.4,14,-99.99,,,0.00,807,rob ver 1B,2013-03-15 18:29:00,
2013-03-15 11:30:00,79.9,26.3,29.32,South,183,4.9,6.6,13,-99.99,,,0.00,806,rob ver 1B,2013-03-15 18:30:00,
2013-03-15 11:31:00,80.0,27.9,29.32,SSE,158,8.6,10.7,14,-99.99,,,0.00,806,rob ver 1B,2013-03-15 18:31:00,
2013-03-15 11:32:00,86.4,29.9,29.44,SSE,162,4.1,5.3,13,-99.99,,,0.00,807,rob ver 1A,2013-03-15 18:32:00,
2013-03-15 11:33:00,79.2,28.3,29.32,SE,131,4.7,7.8,15,-99.99,,,0.00,809,rob ver 1B,2013-03-15 18:33:00,
2013-03-15 11:34:00,79.3,28.1,29.32,SE,145,4.8,8.8,15,-99.99,,,0.00,812,rob ver 1B,2013-03-15 18:34:00,
2013-03-15 11:35:00,79.3,28.0,29.32,SE,139,5.9,7.4,15,-99.99,,,0.00,812,rob ver 1B,2013-03-15 18:35:00,
2013-03-15 11:36:00,79.5,27.4,29.32,SSE,168,8.3,10.5,14,-99.99,,,0.00,814,rob ver 1B,2013-03-15 18:36:00,
2013-03-15 11:37:00,87.9,30.3,29.44,South,181,2.9,4.1,12,-99.99,,,0.00,931,rob ver 1A,2013-03-15 18:37:00,
2013-03-15 11:38:00,80.0,26.1,29.32,SSW,202,7.0,9.2,13,-99.99,,,0.00,816,rob ver 1B,2013-03-15 18:38:00,
2013-03-15 11:39:00,80.2,26.2,29.32,SSW,208,7.7,11.1,13,-99.99,,,0.00,817,rob ver 1B,2013-03-15 18:39:00,
2013-03-15 11:40:00,80.3,26.2,29.32,SW,218,7.2,9.9,13,-99.99,,,0.00,819,rob ver 1B,2013-03-15 18:40:00,
2013-03-15 11:41:00,80.2,26.1,29.32,SSW,211,3.7,6.0,13,-99.99,,,0.00,819,rob ver 1B,2013-03-15 18:41:00,
2013-03-15 11:42:00,87.4,30.3,29.44,SSE,152,4.4,5.7,12,-99.99,,,0.00,846,rob ver 1A,2013-03-15 18:42:00,
2013-03-15 11:43:00,80.6,26.3,29.32,SSW,192,7.5,9.7,13,-99.99,,,0.00,822,rob ver 1B,2013-03-15 18:43:00,
2013-03-15 11:44:00,80.7,26.2,29.32,SW,224,4.8,8.0,13,-99.99,,,0.00,823,rob ver 1B,2013-03-15 18:44:00,
2013-03-15 11:45:00,80.7,26.5,29.32,South,178,6.1,10.1,13,-99.99,,,0.00,824,rob ver 1B,2013-03-15 18:45:00,
2013-03-15 11:46:00,80.9,26.4,29.32,SSE,160,8.2,10.0,13,-99.99,,,0.00,825,rob ver 1B,2013-03-15 18:46:00,
2013-03-15 11:47:00,88.5,29.9,29.44,SE,129,4.3,5.5,12,-99.99,,,0.00,913,rob ver 1A,2013-03-15 18:47:00,
2013-03-15 11:48:00,80.7,26.2,29.29,South,179,5.0,7.6,13,-99.99,,,0.00,829,rob ver 1B,2013-03-15 18:48:00,
2013-03-15 11:49:00,80.8,26.3,29.29,SSE,158,4.2,5.7,13,-99.99,,,0.00,827,rob ver 1B,2013-03-15 18:49:00,
2013-03-15 11:50:00,81.1,26.6,29.32,South,191,5.3,7.8,13,-99.99,,,0.00,831,rob ver 1B,2013-03-15 18:50:00,
2013-03-15 11:51:00,81.5,26.5,29.29,SSE,168,8.2,10.1,13,-99.99,,,0.00,830,rob ver 1B,2013-03-15 18:51:00,
2013-03-15 11:52:00,89.0,30.3,29.44,ESE,113,2.6,6.9,12,-99.99,,,0.00,853,rob ver 1A,2013-03-15 18:52:00,
2013-03-15 11:53:00,81.6,26.4,29.29,South,184,5.4,7.9,13,-99.99,,,0.00,834,rob ver 1B,2013-03-15 18:53:00,
2013-03-15 11:54:00,81.7,26.3,29.29,SSW,202,4.6,5.7,13,-99.99,,,0.00,834,rob ver 1B,2013-03-15 18:54:00,
2013-03-15 11:55:00,81.8,26.4,29.29,SW,217,4.0,7.1,13,-99.99,,,0.00,835,rob ver 1B,2013-03-15 18:55:00,
2013-03-15 11:56:00,82.0,26.8,29.29,SSW,203,5.9,9.8,13,-99.99,,,0.00,837,rob ver 1B,2013-03-15 18:56:00,
2013-03-15 11:57:00,88.9,30.1,29.44,SW,231,1.9,3.0,12,-99.99,,,0.00,711,rob ver 1A,2013-03-15 18:57:00,
2013-03-15 11:58:00,82.3,26.4,29.29,SSW,192,9.3,13.3,12,-99.99,,,0.00,838,rob ver 1B,2013-03-15 18:58:00,
2013-03-15 11:59:00,81.9,26.0,29.29,South,182,7.3,8.7,12,-99.99,,,0.00,840,rob ver 1B,2013-03-15 18:59:00,
2013-03-15 12:00:00,81.8,26.1,29.29,SSE,166,4.6,7.3,12,-99.99,,,0.00,840,rob ver 1B,2013-03-15 19:00:00,
2013-03-15 12:01:00,81.9,26.2,29.29,SSE,149,5.2,12.1,12,-99.99,,,0.00,840,rob ver 1B,2013-03-15 19:01:00,
2013-03-15 12:02:00,89.5,30.1,29.44,WSW,242,1.8,3.6,11,-99.99,,,0.00,868,rob ver 1A,2013-03-15 19:02:00,
2013-03-15 12:03:00,81.9,26.2,29.29,South,180,8.2,10.0,13,-99.99,,,0.00,842,rob ver 1B,2013-03-15 19:03:00,
2013-03-15 12:04:00,82.1,26.5,29.29,SSW,202,7.4,9.2,12,-99.99,,,0.00,843,rob ver 1B,2013-03-15 19:04:00,
2013-03-15 12:05:00,82.5,26.0,29.29,SW,228,7.1,9.6,12,-99.99,,,0.00,844,rob ver 1B,2013-03-15 19:05:00,
2013-03-15 12:06:00,82.4,26.4,29.29,SSW,205,6.2,9.2,12,-99.99,,,0.00,845,rob ver 1B,2013-03-15 19:06:00,
2013-03-15 12:07:00,82.7,26.1,29.29,SSW,192,6.6,9.6,12,-99.99,,,0.00,844,rob ver 1B,2013-03-15 19:07:00,
2013-03-15 12:08:00,89.3,29.7,29.44,SW,217,6.1,8.3,11,-99.99,,,0.00,639.2,rob ver 1A,2013-03-15 19:08:00,
2013-03-15 12:09:00,83.0,26.6,29.29,South,176,4.3,6.6,12,-99.99,,,0.00,845,rob ver 1B,2013-03-15 19:09:00,
2013-03-15 12:10:00,83.0,26.7,29.29,SSE,165,4.6,7.8,12,-99.99,,,0.00,847,rob ver 1B,2013-03-15 19:10:00,
2013-03-15 12:11:00,83.3,26.7,29.29,South,175,6.1,8.1,12,-99.99,,,0.00,849,rob ver 1B,2013-03-15 19:11:00,
2013-03-15 12:12:00,83.2,26.4,29.29,SSE,159,7.2,10.0,12,-99.99,,,0.00,850,rob ver 1B,2013-03-15 19:12:00,
2013-03-15 12:13:00,89.5,29.5,29.44,South,184,2.9,5.5,11,-99.99,,,0.00,673.2,rob ver 1A,2013-03-15 19:13:00,
2013-03-15 12:14:00,82.7,26.4,29.29,South,189,6.2,7.9,12,-99.99,,,0.00,850,rob ver 1B,2013-03-15 19:14:00,
2013-03-15 12:15:00,82.7,26.5,29.29,SSW,200,6.1,8.4,12,-99.99,,,0.00,851,rob ver 1B,2013-03-15 19:15:00,
2013-03-15 12:16:00,83.0,26.5,29.29,SSW,206,7.5,9.4,12,-99.99,,,0.00,852,rob ver 1B,2013-03-15 19:16:00,
2013-03-15 12:17:00,83.0,26.5,29.29,South,175,7.5,9.3,12,-99.99,,,0.00,851,rob ver 1B,2013-03-15 19:17:00,
2013-03-15 12:18:00,90.4,29.9,29.44,SSW,194,2.0,3.0,11,-99.99,,,0.00,647,rob ver 1A,2013-03-15 19:18:00,
2013-03-15 12:19:00,83.2,26.2,29.29,SW,221,5.5,8.8,12,-99.99,,,0.00,852,rob ver 1B,2013-03-15 19:19:00,
2013-03-15 12:20:00,83.0,26.3,29.29,SW,232,6.1,9.2,12,-99.99,,,0.00,853,rob ver 1B,2013-03-15 19:20:00,
2013-03-15 12:21:00,83.0,26.5,29.29,WSW,247,7.4,9.0,12,-99.99,,,0.00,854,rob ver 1B,2013-03-15 19:21:00,
2013-03-15 12:22:00,82.8,26.2,29.29,West,262,6.4,8.2,12,-99.99,,,0.00,854,rob ver 1B,2013-03-15 19:22:00,
2013-03-15 12:23:00,90.9,29.7,29.44,South,188,3.5,5.7,11,-99.99,,,0.00,841,rob ver 1A,2013-03-15 19:23:00,
2013-03-15 12:24:00,83.1,26.7,29.29,South,190,6.1,8.6,12,-99.99,,,0.00,856,rob ver 1B,2013-03-15 19:24:00,
2013-03-15 12:25:00,83.2,26.4,29.29,SSE,167,5.4,7.8,12,-99.99,,,0.00,856,rob ver 1B,2013-03-15 19:25:00,
2013-03-15 12:26:00,83.2,26.5,29.29,SSW,198,3.7,5.2,12,-99.99,,,0.00,856,rob ver 1B,2013-03-15 19:26:00,
2013-03-15 12:27:00,83.5,26.5,29.29,South,185,6.4,11.1,12,-99.99,,,0.00,857,rob ver 1B,2013-03-15 19:27:00,
2013-03-15 12:28:00,92.1,30.7,29.44,NW,304,1.3,2.4,11,-99.99,,,0.00,1050,rob ver 1A,2013-03-15 19:28:00,
2013-03-15 12:29:00,83.3,26.2,29.29,SSE,167,3.7,6.4,12,-99.99,,,0.00,857,rob ver 1B,2013-03-15 19:29:00,
2013-03-15 12:30:00,83.5,26.4,29.29,WSW,241,4.7,7.6,12,-99.99,,,0.00,859,rob ver 1B,2013-03-15 19:30:00,
2013-03-15 12:31:00,83.7,26.3,29.29,SW,220,6.3,8.9,12,-99.99,,,0.00,858,rob ver 1B,2013-03-15 19:31:00,
2013-03-15 12:32:00,83.7,25.9,29.29,SSW,193,7.1,8.5,12,-99.99,,,0.00,859,rob ver 1B,2013-03-15 19:32:00,
2013-03-15 12:33:00,91.2,29.6,29.44,WSW,249,4.7,6.2,11,-99.99,,,0.00,847,rob ver 1A,2013-03-15 19:33:00,
2013-03-15 12:34:00,83.1,26.2,29.29,SW,235,5.1,9.0,12,-99.99,,,0.00,859,rob ver 1B,2013-03-15 19:34:00,
2013-03-15 12:35:00,83.3,26.1,29.29,SSW,198,6.9,9.9,12,-99.99,,,0.00,860,rob ver 1B,2013-03-15 19:35:00,
2013-03-15 12:36:00,83.4,26.1,29.29,SSW,198,5.7,7.7,12,-99.99,,,0.00,859,rob ver 1B,2013-03-15 19:36:00,
2013-03-15 12:37:00,83.5,26.2,29.29,SSW,193,4.2,8.4,12,-99.99,,,0.00,860,rob ver 1B,2013-03-15 19:37:00,
2013-03-15 12:38:00,92.1,29.8,29.44,West,260,4.9,6.1,10,-99.99,,,0.00,798,rob ver 1A,2013-03-15 19:38:00,
2013-03-15 12:39:00,84.1,26.9,29.29,SSW,209,3.1,7.6,12,-99.99,,,0.00,859,rob ver 1B,2013-03-15 19:39:00,
2013-03-15 12:40:00,84.2,27.1,29.29,South,189,4.9,7.0,12,-99.99,,,0.00,859,rob ver 1B,2013-03-15 19:40:00,
2013-03-15 12:41:00,84.2,27.1,29.29,South,172,6.4,9.3,12,-99.99,,,0.00,860,rob ver 1B,2013-03-15 19:41:00,
2013-03-15 12:42:00,84.4,27.2,29.29,South,171,7.1,9.5,12,-99.99,,,0.00,860,rob ver 1B,2013-03-15 19:42:00,
2013-03-15 12:43:00,91.9,28.9,29.44,WSW,255,3.2,4.3,10,-99.99,,,0.00,737,rob ver 1A,2013-03-15 19:43:00,
2013-03-15 12:44:00,83.5,26.6,29.29,SE,138,5.8,8.7,12,-99.99,,,0.00,858,rob ver 1B,2013-03-15 19:44:00,
2013-03-15 12:45:00,83.1,26.7,29.29,SE,140,4.7,6.8,12,-99.99,,,0.00,858,rob ver 1B,2013-03-15 19:45:00,
2013-03-15 12:46:00,83.1,26.6,29.29,SE,144,4.2,6.8,12,-99.99,,,0.00,858,rob ver 1B,2013-03-15 19:46:00,
2013-03-15 12:47:00,83.2,26.7,29.29,South,182,5.1,7.2,12,-99.99,,,0.00,858,rob ver 1B,2013-03-15 19:47:00,
2013-03-15 12:48:00,91.8,29.5,29.41,SSE,158,4.6,5.8,10,-99.99,,,0.00,728,rob ver 1A,2013-03-15 19:48:00,
2013-03-15 12:49:00,84.3,26.9,29.29,NW,305,4.2,7.4,12,-99.99,,,0.00,856,rob ver 1B,2013-03-15 19:49:00,
2013-03-15 12:50:00,84.2,26.9,29.29,SSE,157,5.7,7.2,12,-99.99,,,0.00,858,rob ver 1B,2013-03-15 19:50:00,
2013-03-15 12:51:00,84.1,26.7,29.29,SSW,197,3.9,6.3,12,-99.99,,,0.00,860,rob ver 1B,2013-03-15 19:51:00,
2013-03-15 12:52:00,84.3,27.0,29.29,South,177,3.2,4.4,12,-99.99,,,0.00,859,rob ver 1B,2013-03-15 19:52:00,
2013-03-15 12:53:00,91.8,29.6,29.41,SSE,167,3.1,4.7,10,-99.99,,,0.00,813,rob ver 1A,2013-03-15 19:53:00,
2013-03-15 12:54:00,84.3,26.6,29.29,SSW,208,2.3,3.8,12,-99.99,,,0.00,861,rob ver 1B,2013-03-15 19:54:00,
2013-03-15 12:55:00,84.5,26.8,29.29,ENE,75,1.6,3.5,12,-99.99,,,0.00,860,rob ver 1B,2013-03-15 19:55:00,
2013-03-15 12:56:00,85.0,27.1,29.29,NE,36,1.7,5.1,12,-99.99,,,0.00,859,rob ver 1B,2013-03-15 19:56:00,
2013-03-15 12:57:00,85.6,27.5,29.26,West,274,5.1,9.8,11,-99.99,,,0.00,859,rob ver 1B,2013-03-15 19:57:00,
2013-03-15 12:58:00,91.7,28.6,29.41,WSW,251,5.6,7.4,10,-99.99,,,0.00,826,rob ver 1A,2013-03-15 19:58:00,
2013-03-15 12:59:00,85.2,26.7,29.29,WNW,297,2.7,4.4,11,-99.99,,,0.00,859,rob ver 1B,2013-03-15 19:59:00,
2013-03-15 13:00:00,85.2,26.8,29.29,SW,236,1.7,2.9,11,-99.99,,,0.00,859,rob ver 1B,2013-03-15 20:00:00,
2013-03-15 13:01:00,85.4,26.9,29.29,SW,229,0.9,3.9,11,-99.99,,,0.00,859,rob ver 1B,2013-03-15 20:01:00,
2013-03-15 13:02:00,86.0,27.5,29.29,NW,307,3.9,5.8,11,-99.99,,,0.00,857,rob ver 1B,2013-03-15 20:02:00,
2013-03-15 13:03:00,86.2,27.5,29.29,NW,304,2.7,4.6,11,-99.99,,,0.00,858,rob ver 1B,2013-03-15 20:03:00,
2013-03-15 13:04:00,91.8,28.7,29.41,West,271,1.9,3.8,10,-99.99,,,0.00,783,rob ver 1A,2013-03-15 20:04:00,
2013-03-15 13:05:00,86.2,27.6,29.29,SSW,197,3.3,5.2,12,-99.99,,,0.00,858,rob ver 1B,2013-03-15 20:05:00,
2013-03-15 13:06:00,85.8,27.5,29.26,SSE,166,4.4,5.7,12,-99.99,,,0.00,858,rob ver 1B,2013-03-15 20:06:00,
2013-03-15 13:07:00,85.2,27.3,29.26,SSE,166,4.3,6.6,12,-99.99,,,0.00,857,rob ver 1B,2013-03-15 20:07:00,
2013-03-15 13:08:00,84.9,27.2,29.26,SSE,154,3.8,5.3,12,-99.99,,,0.00,857,rob ver 1B,2013-03-15 20:08:00,
2013-03-15 13:09:00,92.5,28.5,29.41,South,176,5.5,7.7,10,-99.99,,,0.00,893,rob ver 1A,2013-03-15 20:09:00,
2013-03-15 13:10:00,85.4,27.9,29.26,South,188,6.4,8.6,12,-99.99,,,0.00,856,rob ver 1B,2013-03-15 20:10:00,
2013-03-15 13:11:00,85.5,27.7,29.26,South,184,5.4,7.3,12,-99.99,,,0.00,854,rob ver 1B,2013-03-15 20:11:00,
2013-03-15 13:12:00,85.2,27.6,29.26,SSE,163,5.3,7.6,12,-99.99,,,0.00,855,rob ver 1B,2013-03-15 20:12:00,
2013-03-15 13:13:00,84.9,27.7,29.26,SSE,167,5.4,8.8,12,-99.99,,,0.00,853,rob ver 1B,2013-03-15 20:13:00,
2013-03-15 13:14:00,93.1,28.4,29.41,SW,236,6.2,9.3,9,-99.99,,,0.00,848,rob ver 1A,2013-03-15 20:14:00,
2013-03-15 13:15:00,85.0,27.5,29.26,SSE,168,5.6,7.3,12,-99.99,,,0.00,850,rob ver 1B,2013-03-15 20:15:00,
2013-03-15 13:16:00,84.7,27.4,29.26,South,173,4.3,7.0,12,-99.99,,,0.00,850,rob ver 1B,2013-03-15 20:16:00,
2013-03-15 13:17:00,84.5,27.5,29.26,South,169,4.8,7.4,12,-99.99,,,0.00,849,rob ver 1B,2013-03-15 20:17:00,
2013-03-15 13:18:00,84.6,27.6,29.26,SSW,193,5.4,7.5,12,-99.99,,,0.00,849,rob ver 1B,2013-03-15 20:18:00,
2013-03-15 13:19:00,92.1,27.7,29.41,WSW,252,8.2,11.1,9,-99.99,,,0.00,877,rob ver 1A,2013-03-15 20:19:00,
2013-03-15 13:20:00,84.9,27.6,29.26,SSE,167,5.1,6.6,12,-99.99,,,0.00,849,rob ver 1B,2013-03-15 20:20:00,
2013-03-15 13:21:00,84.8,27.6,29.26,SSW,196,2.9,4.7,12,-99.99,,,0.00,849,rob ver 1B,2013-03-15 20:21:00,
2013-03-15 13:22:00,85.2,27.8,29.26,SSW,192,3.2,5.7,12,-99.99,,,0.00,848,rob ver 1B,2013-03-15 20:22:00,
2013-03-15 13:23:00,85.3,27.7,29.26,SSE,165,4.3,5.8,12,-99.99,,,0.00,847,rob ver 1B,2013-03-15 20:23:00,
2013-03-15 13:24:00,92.1,28.3,29.41,West,259,2.6,3.9,10,-99.99,,,0.00,397.2,rob ver 1A,2013-03-15 20:24:00,
2013-03-15 13:25:00,85.7,28.0,29.26,South,191,6.3,8.8,12,-99.99,,,0.00,845,rob ver 1B,2013-03-15 20:25:00,
2013-03-15 13:26:00,85.6,27.9,29.26,SSW,210,6.2,8.2,12,-99.99,,,0.00,845,rob ver 1B,2013-03-15 20:26:00,
2013-03-15 13:27:00,85.4,27.9,29.26,SW,217,6.0,11.8,12,-99.99,,,0.00,844,rob ver 1B,2013-03-15 20:27:00,
2013-03-15 13:28:00,85.2,27.9,29.26,SSW,200,8.4,12.5,12,-99.99,,,0.00,843,rob ver 1B,2013-03-15 20:28:00,
2013-03-15 13:29:00,93.2,28.6,29.41,SW,232,7.9,9.4,10,-99.99,,,0.00,751,rob ver 1A,2013-03-15 20:29:00,
2013-03-15 13:30:00,84.8,27.9,29.26,South,171,4.3,6.3,12,-99.99,,,0.00,841,rob ver 1B,2013-03-15 20:30:00,
2013-03-15 13:31:00,84.7,27.7,29.26,South,172,5.8,7.8,12,-99.99,,,0.00,840,rob ver 1B,2013-03-15 20:31:00,
2013-03-15 13:32:00,84.6,27.8,29.26,SSE,157,4.8,6.3,12,-99.99,,,0.00,839,rob ver 1B,2013-03-15 20:32:00,
2013-03-15 13:33:00,84.5,28.0,29.26,South,173,3.3,6.0,12,-99.99,,,0.00,838,rob ver 1B,2013-03-15 20:33:00,
2013-03-15 13:34:00,93.3,28.1,29.41,WSW,241,5.5,8.6,9,-99.99,,,0.00,803,rob ver 1A,2013-03-15 20:34:00,
2013-03-15 13:35:00,85.0,28.1,29.26,SE,133,3.4,5.9,12,-99.99,,,0.00,836,rob ver 1B,2013-03-15 20:35:00,
2013-03-15 13:36:00,85.1,28.3,29.26,SE,128,4.8,7.7,12,-99.99,,,0.00,836,rob ver 1B,2013-03-15 20:36:00,
2013-03-15 13:37:00,85.1,28.1,29.26,SE,137,3.6,5.6,12,-99.99,,,0.00,835,rob ver 1B,2013-03-15 20:37:00,
2013-03-15 13:38:00,85.0,28.1,29.26,SE,131,3.0,5.2,12,-99.99,,,0.00,833,rob ver 1B,2013-03-15 20:38:00,
2013-03-15 13:39:00,92.6,27.9,29.38,WNW,296,4.0,5.9,9,-99.99,,,0.00,513,rob ver 1A,2013-03-15 20:39:00,
2013-03-15 13:40:00,85.9,28.5,29.26,ENE,75,3.2,4.2,12,-99.99,,,0.00,833,rob ver 1B,2013-03-15 20:40:00,
2013-03-15 13:41:00,86.0,28.3,29.26,East,91,3.2,4.2,12,-99.99,,,0.00,831,rob ver 1B,2013-03-15 20:41:00,
2013-03-15 13:42:00,85.8,28.3,29.26,ESE,108,2.9,4.8,12,-99.99,,,0.00,830,rob ver 1B,2013-03-15 20:42:00,
2013-03-15 13:43:00,85.7,28.3,29.26,ESE,112,1.6,2.6,12,-99.99,,,0.00,828,rob ver 1B,2013-03-15 20:43:00,
2013-03-15 13:44:00,93.1,28.3,29.38,West,266,6.3,9.1,9,-99.99,,,0.00,701,rob ver 1A,2013-03-15 20:44:00,
2013-03-15 13:45:00,86.9,28.8,29.26,SSW,210,3.6,4.6,12,-99.99,,,0.00,826,rob ver 1B,2013-03-15 20:45:00,
2013-03-15 13:46:00,86.9,28.5,29.26,SSW,195,2.6,4.0,12,-99.99,,,0.00,826,rob ver 1B,2013-03-15 20:46:00,
2013-03-15 13:47:00,86.6,28.4,29.26,SSE,156,2.5,4.0,12,-99.99,,,0.00,824,rob ver 1B,2013-03-15 20:47:00,
2013-03-15 13:48:00,86.5,28.4,29.26,SW,229,2.9,4.9,12,-99.99,,,0.00,823,rob ver 1B,2013-03-15 20:48:00,
2013-03-15 13:49:00,92.5,27.6,29.38,WSW,237,5.7,7.1,9,-99.99,,,0.00,867,rob ver 1A,2013-03-15 20:49:00,
2013-03-15 13:50:00,87.1,28.7,29.26,SW,217,2.8,6.3,12,-99.99,,,0.00,824,rob ver 1B,2013-03-15 20:50:00,
2013-03-15 13:51:00,87.2,28.5,29.26,South,190,4.3,6.6,12,-99.99,,,0.00,821,rob ver 1B,2013-03-15 20:51:00,
2013-03-15 13:52:00,87.1,28.3,29.26,SW,216,4.4,6.5,11,-99.99,,,0.00,820,rob ver 1B,2013-03-15 20:52:00,
2013-03-15 13:53:00,86.8,28.2,29.26,SSW,195,3.5,5.8,12,-99.99,,,0.00,819,rob ver 1B,2013-03-15 20:53:00,
2013-03-15 13:54:00,93.7,27.6,29.38,West,271,3.8,4.9,9,-99.99,,,0.00,947,rob ver 1A,2013-03-15 20:54:00,
2013-03-15 13:55:00,87.1,28.5,29.26,WSW,247,4.8,6.6,12,-99.99,,,0.00,817,rob ver 1B,2013-03-15 20:55:00,
2013-03-15 13:56:00,87.4,28.5,29.26,SW,229,5.5,8.9,11,-99.99,,,0.00,816,rob ver 1B,2013-03-15 20:56:00,
2013-03-15 13:57:00,87.1,28.1,29.26,SW,227,8.3,10.9,12,-99.99,,,0.00,817,rob ver 1B,2013-03-15 20:57:00,
2013-03-15 13:58:00,86.4,28.0,29.26,WSW,244,6.1,9.6,12,-99.99,,,0.00,814,rob ver 1B,2013-03-15 20:58:00,
2013-03-15 13:59:00,86.1,27.9,29.26,WSW,249,7.2,12.0,12,-99.99,,,0.00,812,rob ver 1B,2013-03-15 20:59:00,
2013-03-15 14:00:00,94.0,27.3,29.38,SW,236,6.6,8.7,9,-99.99,,,0.00,914,rob ver 1A,2013-03-15 21:00:00,
2013-03-15 14:01:00,85.9,28.1,29.26,WSW,243,2.8,3.6,12,-99.99,,,0.00,811,rob ver 1B,2013-03-15 21:01:00,
2013-03-15 14:02:00,86.2,28.3,29.26,SW,223,3.3,7.5,12,-99.99,,,0.00,808,rob ver 1B,2013-03-15 21:02:00,
2013-03-15 14:03:00,86.7,28.0,29.26,SW,219,9.7,12.3,12,-99.99,,,0.00,809,rob ver 1B,2013-03-15 21:03:00,
2013-03-15 14:04:00,86.2,27.7,29.26,South,171,7.5,10.8,12,-99.99,,,0.00,806,rob ver 1B,2013-03-15 21:04:00,
2013-03-15 14:05:00,93.2,26.0,29.38,WSW,258,5.0,6.4,8,-99.99,,,0.00,953,rob ver 1A,2013-03-15 21:05:00,
2013-03-15 14:06:00,85.6,27.6,29.26,SE,140,3.7,5.7,12,-99.99,,,0.00,804,rob ver 1B,2013-03-15 21:06:00,
2013-03-15 14:07:00,86.0,27.6,29.26,SE,136,4.6,5.7,12,-99.99,,,0.00,802,rob ver 1B,2013-03-15 21:07:00,
2013-03-15 14:08:00,86.1,27.7,29.26,South,183,5.0,7.3,11,-99.99,,,0.00,801,rob ver 1B,2013-03-15 21:08:00,
2013-03-15 14:09:00,86.8,28.0,29.26,SSW,203,5.3,7.1,11,-99.99,,,0.00,799,rob ver 1B,2013-03-15 21:09:00,
2013-03-15 14:10:00,94.4,26.0,29.38,NNW,328,2.2,3.7,8,-99.99,,,0.00,962,rob ver 1A,2013-03-15 21:10:00,
2013-03-15 14:11:00,87.6,28.0,29.26,West,268,7.4,9.4,11,-99.99,,,0.00,797,rob ver 1B,2013-03-15 21:11:00,
2013-03-15 14:12:00,87.2,27.8,29.26,West,276,5.6,7.9,11,-99.99,,,0.00,794,rob ver 1B,2013-03-15 21:12:00,
2013-03-15 14:13:00,87.0,27.8,29.26,NW,321,3.1,5.8,11,-99.99,,,0.00,794,rob ver 1B,2013-03-15 21:13:00,
2013-03-15 14:14:00,87.2,27.9,29.26,NNW,342,1.7,2.7,11,-99.99,,,0.00,793,rob ver 1B,2013-03-15 21:14:00,
2013-03-15 14:15:00,94.2,25.3,29.38,NNW,329,5.5,7.7,8,-99.99,,,0.00,761,rob ver 1A,2013-03-15 21:15:00,
2013-03-15 14:16:00,87.6,28.1,29.26,SW,229,6.4,9.0,11,-99.99,,,0.00,789,rob ver 1B,2013-03-15 21:16:00,
2013-03-15 14:17:00,87.6,27.8,29.26,WSW,248,7.0,8.5,11,-99.99,,,0.00,791,rob ver 1B,2013-03-15 21:17:00,
2013-03-15 14:18:00,87.3,27.6,29.26,WSW,245,5.5,7.6,11,-99.99,,,0.00,787,rob ver 1B,2013-03-15 21:18:00,
2013-03-15 14:19:00,86.8,27.6,29.23,SW,216,3.5,6.5,11,-99.99,,,0.00,786,rob ver 1B,2013-03-15 21:19:00,
2013-03-15 14:20:00,86.8,27.5,29.23,South,189,2.5,4.0,11,-99.99,,,0.00,786,rob ver 1B,2013-03-15 21:20:00,
2013-03-15 14:21:00,93.8,26.3,29.38,West,267,3.7,5.4,8,-99.99,,,0.00,824,rob ver 1A,2013-03-15 21:21:00,
2013-03-15 14:22:00,86.9,27.6,29.23,South,173,4.0,5.9,11,-99.99,,,0.00,783,rob ver 1B,2013-03-15 21:22:00,
2013-03-15 14:23:00,86.9,27.6,29.23,SSW,194,2.0,3.8,11,-99.99,,,0.00,782,rob ver 1B,2013-03-15 21:23:00,
2013-03-15 14:24:00,87.3,27.9,29.23,West,269,3.0,5.8,11,-99.99,,,0.00,781,rob ver 1B,2013-03-15 21:24:00,
2013-03-15 14:25:00,87.7,27.9,29.23,SW,214,6.3,9.7,11,-99.99,,,0.00,779,rob ver 1B,2013-03-15 21:25:00,
2013-03-15 14:26:00,93.8,26.6,29.38,WNW,294,4.0,5.5,9,-99.99,,,0.00,813,rob ver 1A,2013-03-15 21:26:00,
2013-03-15 14:27:00,87.4,27.8,29.23,SW,216,8.1,10.5,11,-99.99,,,0.00,775,rob ver 1B,2013-03-15 21:27:00,
2013-03-15 14:28:00,87.2,27.8,29.23,SW,216,4.9,7.5,11,-99.99,,,0.00,772,rob ver 1B,2013-03-15 21:28:00,
2013-03-15 14:29:00,87.3,27.8,29.23,WSW,239,9.3,12.9,11,-99.99,,,0.00,771,rob ver 1B,2013-03-15 21:29:00,
2013-03-15 14:30:00,87.0,27.7,29.23,WSW,243,8.9,11.3,11,-99.99,,,0.00,768,rob ver 1B,2013-03-15 21:30:00,
2013-03-15 14:31:00,93.3,26.6,29.38,West,261,8.8,12.3,9,-99.99,,,0.00,732,rob ver 1A,2013-03-15 21:31:00,
2013-03-15 14:32:00,86.9,27.8,29.23,WNW,290,4.6,7.8,11,-99.99,,,0.00,765,rob ver 1B,2013-03-15 21:32:00,
2013-03-15 14:33:00,87.1,27.8,29.23,NNW,335,4.0,6.5,11,-99.99,,,0.00,764,rob ver 1B,2013-03-15 21:33:00,
2013-03-15 14:34:00,87.1,27.9,29.23,NNW,332,2.8,5.7,11,-99.99,,,0.00,762,rob ver 1B,2013-03-15 21:34:00,
2013-03-15 14:35:00,87.2,27.9,29.23,WSW,241,6.4,8.9,11,-99.99,,,0.00,761,rob ver 1B,2013-03-15 21:35:00,
2013-03-15 14:36:00,94.2,25.6,29.38,SSW,194,5.4,7.3,8,-99.99,,,0.00,1034,rob ver 1A,2013-03-15 21:36:00,
2013-03-15 14:37:00,86.9,27.9,29.23,West,269,2.0,3.1,11,-99.99,,,0.00,756,rob ver 1B,2013-03-15 21:37:00,
2013-03-15 14:38:00,87.3,28.2,29.23,SSE,147,1.3,2.3,11,-99.99,,,0.00,754,rob ver 1B,2013-03-15 21:38:00,
2013-03-15 14:39:00,87.9,28.2,29.23,East,84,2.8,4.9,11,-99.99,,,0.00,752,rob ver 1B,2013-03-15 21:39:00,
2013-03-15 14:40:00,87.5,27.6,29.23,SE,145,2.4,4.8,11,-99.99,,,0.00,751,rob ver 1B,2013-03-15 21:40:00,
2013-03-15 14:41:00,93.8,26.1,29.38,South,184,4.2,5.5,8,-99.99,,,0.00,940,rob ver 1A,2013-03-15 21:41:00,
2013-03-15 14:42:00,87.7,27.9,29.23,East,98,2.6,3.6,11,-99.99,,,0.00,747,rob ver 1B,2013-03-15 21:42:00,
2013-03-15 14:43:00,87.7,27.8,29.23,East,83,4.0,6.8,11,-99.99,,,0.00,745,rob ver 1B,2013-03-15 21:43:00,
2013-03-15 14:44:00,87.9,28.0,29.23,NNE,15,8.3,11.9,11,-99.99,,,0.00,743,rob ver 1B,2013-03-15 21:44:00,
2013-03-15 14:45:00,88.4,28.2,29.23,West,275,6.0,8.4,11,-99.99,,,0.00,743,rob ver 1B,2013-03-15 21:45:00,
2013-03-15 14:46:00,93.8,26.1,29.38,South,183,1.9,3.5,8,-99.99,,,0.00,628.4,rob ver 1A,2013-03-15 21:46:00,
2013-03-15 14:47:00,88.1,27.8,29.23,SW,235,4.0,8.0,11,-99.99,,,0.00,737,rob ver 1B,2013-03-15 21:47:00,
2013-03-15 14:48:00,87.9,27.8,29.23,WSW,239,3.1,4.9,11,-99.99,,,0.00,736,rob ver 1B,2013-03-15 21:48:00,
2013-03-15 14:49:00,88.0,27.9,29.23,SW,216,2.1,3.4,11,-99.99,,,0.00,734,rob ver 1B,2013-03-15 21:49:00,
2013-03-15 14:50:00,88.3,28.0,29.23,South,190,2.9,5.6,11,-99.99,,,0.00,732,rob ver 1B,2013-03-15 21:50:00,
2013-03-15 14:51:00,94.6,27.6,29.35,SSW,196,7.1,9.1,9,-99.99,,,0.00,925,rob ver 1A,2013-03-15 21:51:00,
2013-03-15 14:52:00,87.7,27.6,29.23,SSE,147,3.9,6.4,11,-99.99,,,0.00,726,rob ver 1B,2013-03-15 21:52:00,
2013-03-15 14:53:00,88.0,27.7,29.23,SE,136,4.8,7.0,11,-99.99,,,0.00,725,rob ver 1B,2013-03-15 21:53:00,
2013-03-15 14:54:00,87.9,27.6,29.23,SSE,156,4.6,8.3,11,-99.99,,,0.00,723,rob ver 1B,2013-03-15 21:54:00,
2013-03-15 14:55:00,88.1,27.8,29.23,South,171,8.2,11.2,11,-99.99,,,0.00,721,rob ver 1B,2013-03-15 21:55:00,
2013-03-15 14:56:00,93.8,27.3,29.35,WNW,290,4.4,7.1,9,-99.99,,,0.00,398,rob ver 1A,2013-03-15 21:56:00,
2013-03-15 14:57:00,87.8,27.5,29.23,SSW,206,7.7,10.9,11,-99.99,,,0.00,717,rob ver 1B,2013-03-15 21:57:00,
2013-03-15 14:58:00,87.8,27.6,29.23,SSW,210,6.6,10.2,11,-99.99,,,0.00,714,rob ver 1B,2013-03-15 21:58:00,
2013-03-15 14:59:00,88.2,27.7,29.23,SSW,196,9.8,12.3,11,-99.99,,,0.00,712,rob ver 1B,2013-03-15 21:59:00,
2013-03-15 15:00:00,87.9,27.5,29.23,South,189,9.1,11.2,11,-99.99,,,0.00,710,rob ver 1B,2013-03-15 22:00:00,
2013-03-15 15:01:00,93.1,26.8,29.35,SSE,154,3.9,6.0,9,-99.99,,,0.00,405,rob ver 1A,2013-03-15 22:01:00,
2013-03-15 15:02:00,87.6,27.5,29.23,SW,223,6.3,10.5,11,-99.99,,,0.00,704,rob ver 1B,2013-03-15 22:02:00,
2013-03-15 15:03:00,87.7,27.6,29.23,WSW,241,4.9,8.1,11,-99.99,,,0.00,703,rob ver 1B,2013-03-15 22:03:00,
2013-03-15 15:04:00,87.8,27.7,29.23,SW,219,4.3,5.9,11,-99.99,,,0.00,701,rob ver 1B,2013-03-15 22:04:00,
2013-03-15 15:05:00,88.4,27.9,29.23,SSW,201,4.0,6.8,11,-99.99,,,0.00,697.8,rob ver 1B,2013-03-15 22:05:00,
2013-03-15 15:06:00,93.6,27.6,29.35,South,183,6.5,8.4,9,-99.99,,,0.00,824,rob ver 1A,2013-03-15 22:06:00,
2013-03-15 15:07:00,88.3,27.3,29.23,SSW,202,8.7,11.7,11,-99.99,,,0.00,693.7,rob ver 1B,2013-03-15 22:07:00,
2013-03-15 15:08:00,88.1,27.3,29.23,SSW,192,5.8,7.2,11,-99.99,,,0.00,690.8,rob ver 1B,2013-03-15 22:08:00,
2013-03-15 15:09:00,88.0,27.3,29.23,South,178,5.4,7.0,11,-99.99,,,0.00,688.8,rob ver 1B,2013-03-15 22:09:00,
2013-03-15 15:10:00,88.1,27.3,29.23,SSE,162,4.7,5.9,11,-99.99,,,0.00,685.8,rob ver 1B,2013-03-15 22:10:00,
2013-03-15 15:11:00,87.8,27.1,29.23,SSE,153,3.6,4.9,11,-99.99,,,0.00,683.1,rob ver 1B,2013-03-15 22:11:00,
2013-03-15 15:12:00,94.1,27.2,29.35,SE,128,9.5,11.9,9,-99.99,,,0.00,820,rob ver 1A,2013-03-15 22:12:00,
2013-03-15 15:13:00,87.7,27.3,29.23,SSW,209,8.0,11.1,11,-99.99,,,0.00,679,rob ver 1B,2013-03-15 22:13:00,
2013-03-15 15:14:00,87.7,27.5,29.23,WSW,245,6.8,10.9,11,-99.99,,,0.00,677,rob ver 1B,2013-03-15 22:14:00,
2013-03-15 15:15:00,87.6,27.5,29.23,West,259,4.6,5.8,11,-99.99,,,0.00,673.9,rob ver 1B,2013-03-15 22:15:00,
2013-03-15 15:16:00,87.7,27.7,29.23,WNW,303,3.4,5.3,11,-99.99,,,0.00,671.1,rob ver 1B,2013-03-15 22:16:00,
2013-03-15 15:17:00,93.4,27.0,29.35,SSW,213,5.4,8.0,9,-99.99,,,0.00,428.8,rob ver 1A,2013-03-15 22:17:00,
2013-03-15 15:18:00,88.4,27.8,29.23,NNE,14,4.4,5.7,11,-99.99,,,0.00,667.5,rob ver 1B,2013-03-15 22:18:00,
2013-03-15 15:19:00,88.3,27.9,29.23,NW,314,3.7,5.4,11,-99.99,,,0.00,664.5,rob ver 1B,2013-03-15 22:19:00,
2013-03-15 15:20:00,88.5,28.0,29.23,NW,322,3.3,4.9,11,-99.99,,,0.00,661.8,rob ver 1B,2013-03-15 22:20:00,
2013-03-15 15:21:00,88.8,28.0,29.23,WNW,299,1.8,2.6,11,-99.99,,,0.00,659.3,rob ver 1B,2013-03-15 22:21:00,
2013-03-15 15:22:00,92.8,26.6,29.35,SSE,149,4.0,6.3,9,-99.99,,,0.00,335,rob ver 1A,2013-03-15 22:22:00,
2013-03-15 15:23:00,89.1,27.8,29.23,WSW,243,6.0,11.4,11,-99.99,,,0.00,653.2,rob ver 1B,2013-03-15 22:23:00,
2013-03-15 15:24:00,88.7,27.6,29.23,SSW,203,7.2,9.1,11,-99.99,,,0.00,652.4,rob ver 1B,2013-03-15 22:24:00,
2013-03-15 15:25:00,88.3,27.5,29.23,SSW,197,6.7,10.3,11,-99.99,,,0.00,649.8,rob ver 1B,2013-03-15 22:25:00,
2013-03-15 15:26:00,88.2,27.5,29.23,SSW,201,3.6,6.0,11,-99.99,,,0.00,646.9,rob ver 1B,2013-03-15 22:26:00,
2013-03-15 15:27:00,92.9,27.2,29.35,SE,138,11.0,12.8,9,-99.99,,,0.00,296,rob ver 1A,2013-03-15 22:27:00,
2013-03-15 15:28:00,88.6,27.8,29.23,South,179,2.8,4.1,11,-99.99,,,0.00,641.3,rob ver 1B,2013-03-15 22:28:00,
2013-03-15 15:29:00,88.8,27.7,29.23,SSW,212,5.6,8.9,10,-99.99,,,0.00,639,rob ver 1B,2013-03-15 22:29:00,
2013-03-15 15:30:00,88.8,27.6,29.23,SSW,213,6.9,10.3,11,-99.99,,,0.00,635.1,rob ver 1B,2013-03-15 22:30:00,
2013-03-15 15:31:00,88.6,27.7,29.23,South,188,10.0,12.8,11,-99.99,,,0.00,633.8,rob ver 1B,2013-03-15 22:31:00,
2013-03-15 15:32:00,92.4,26.9,29.35,SE,130,6.6,8.7,9,-99.99,,,0.00,330.4,rob ver 1A,2013-03-15 22:32:00,
2013-03-15 15:33:00,89.0,27.9,29.23,South,181,10.6,13.5,11,-99.99,,,0.00,627.7,rob ver 1B,2013-03-15 22:33:00,
2013-03-15 15:34:00,88.5,27.7,29.23,South,170,6.6,10.6,11,-99.99,,,0.00,624.7,rob ver 1B,2013-03-15 22:34:00,
2013-03-15 15:35:00,88.1,27.9,29.23,SE,142,4.9,8.9,11,-99.99,,,0.00,621.6,rob ver 1B,2013-03-15 22:35:00,
2013-03-15 15:36:00,88.2,27.9,29.23,SSE,151,5.8,7.1,11,-99.99,,,0.00,618.8,rob ver 1B,2013-03-15 22:36:00,
2013-03-15 15:37:00,92.9,27.6,29.35,SSE,155,4.4,6.6,9,-99.99,,,0.00,587.1,rob ver 1A,2013-03-15 22:37:00,
2013-03-15 15:38:00,88.6,28.4,29.23,SSE,157,8.4,10.0,11,-99.99,,,0.00,612.3,rob ver 1B,2013-03-15 22:38:00,
2013-03-15 15:39:00,88.6,28.4,29.23,SSE,166,9.6,12.9,11,-99.99,,,0.00,610.5,rob ver 1B,2013-03-15 22:39:00,
2013-03-15 15:40:00,88.8,28.3,29.21,SW,224,9.7,18.3,11,-99.99,,,0.00,607.4,rob ver 1B,2013-03-15 22:40:00,
2013-03-15 15:41:00,89.1,28.3,29.23,SSW,199,12.1,15.4,11,-99.99,,,0.00,604.9,rob ver 1B,2013-03-15 22:41:00,
2013-03-15 15:42:00,92.9,28.7,29.35,SSE,168,9.8,12.8,9,-99.99,,,0.00,593,rob ver 1A,2013-03-15 22:42:00,
2013-03-15 15:43:00,88.8,28.1,29.23,SSW,202,6.9,11.9,11,-99.99,,,0.00,598.9,rob ver 1B,2013-03-15 22:43:00,
2013-03-15 15:44:00,88.8,28.2,29.23,SSW,200,11.0,13.8,11,-99.99,,,0.00,594.8,rob ver 1B,2013-03-15 22:44:00,
2013-03-15 15:45:00,88.8,28.3,29.23,South,183,6.4,8.3,11,-99.99,,,0.00,592.3,rob ver 1B,2013-03-15 22:45:00,
2013-03-15 15:46:00,88.6,28.2,29.23,South,174,5.2,7.2,11,-99.99,,,0.00,589.4,rob ver 1B,2013-03-15 22:46:00,
2013-03-15 15:47:00,92.9,28.8,29.35,SSW,195,4.5,6.3,10,-99.99,,,0.00,808,rob ver 1A,2013-03-15 22:47:00,
2013-03-15 15:48:00,88.6,28.4,29.23,SSE,166,6.7,8.9,11,-99.99,,,0.00,584.8,rob ver 1B,2013-03-15 22:48:00,
2013-03-15 15:49:00,88.7,28.5,29.21,SSE,160,10.2,12.6,11,-99.99,,,0.00,581,rob ver 1B,2013-03-15 22:49:00,
2013-03-15 15:50:00,88.5,28.5,29.23,SSE,163,9.5,11.7,11,-99.99,,,0.00,577.6,rob ver 1B,2013-03-15 22:50:00,
2013-03-15 15:51:00,88.8,28.5,29.21,South,176,12.7,16.4,11,-99.99,,,0.00,573.8,rob ver 1B,2013-03-15 22:51:00,
2013-03-15 15:52:00,93.4,28.3,29.35,SSW,192,8.0,10.0,9,-99.99,,,0.00,330.7,rob ver 1A,2013-03-15 22:52:00,
2013-03-15 15:53:00,88.7,28.3,29.21,SSW,192,10.7,15.3,11,-99.99,,,0.00,566.9,rob ver 1B,2013-03-15 22:53:00,
2013-03-15 15:54:00,88.8,28.2,29.21,SSW,213,8.9,12.2,11,-99.99,,,0.00,564.2,rob ver 1B,2013-03-15 22:54:00,
2013-03-15 15:55:00,88.6,28.2,29.21,SSW,205,8.3,10.6,11,-99.99,,,0.00,561.7,rob ver 1B,2013-03-15 22:55:00,
2013-03-15 15:56:00,88.7,28.4,29.21,South,173,11.5,13.9,11,-99.99,,,0.00,560.1,rob ver 1B,2013-03-15 22:56:00,
2013-03-15 15:57:00,92.9,26.9,29.35,SSE,165,9.4,12.3,9,-99.99,,,0.00,347.4,rob ver 1A,2013-03-15 22:57:00,
2013-03-15 15:58:00,88.6,28.3,29.21,South,186,8.9,11.9,11,-99.99,,,0.00,553.2,rob ver 1B,2013-03-15 22:58:00,
2013-03-15 15:59:00,89.2,28.4,29.21,South,171,10.7,13.9,11,-99.99,,,0.00,551.5,rob ver 1B,2013-03-15 22:59:00,
2013-03-15 16:00:00,88.7,28.1,29.21,SSE,163,10.2,12.6,11,-99.99,,,0.00,547.3,rob ver 1B,2013-03-15 23:00:00,
2013-03-15 16:01:00,88.4,28.0,29.21,South,171,8.1,11.3,11,-99.99,,,0.00,544.3,rob ver 1B,2013-03-15 23:01:00,
2013-03-15 16:02:00,88.2,28.1,29.21,SSE,164,9.4,12.3,11,-99.99,,,0.00,541.9,rob ver 1B,2013-03-15 23:02:00,
2013-03-15 16:03:00,92.5,26.9,29.35,South,182,6.4,8.5,9,-99.99,,,0.00,305.7,rob ver 1A,2013-03-15 23:03:00,
2013-03-15 16:04:00,88.6,28.0,29.21,South,190,10.2,13.8,11,-99.99,,,0.00,535.2,rob ver 1B,2013-03-15 23:04:00,
2013-03-15 16:05:00,88.5,28.0,29.21,SSW,204,8.5,11.0,11,-99.99,,,0.00,532.9,rob ver 1B,2013-03-15 23:05:00,
2013-03-15 16:06:00,88.7,28.2,29.21,SW,214,8.7,11.5,11,-99.99,,,0.00,528.6,rob ver 1B,2013-03-15 23:06:00,
2013-03-15 16:07:00,89.0,28.3,29.21,South,183,13.0,16.8,11,-99.99,,,0.00,525.7,rob ver 1B,2013-03-15 23:07:00,
2013-03-15 16:08:00,92.8,26.7,29.35,SSW,207,8.8,10.5,9,-99.99,,,0.00,289.6,rob ver 1A,2013-03-15 23:08:00,
2013-03-15 16:09:00,88.5,28.1,29.21,South,171,9.4,11.9,11,-99.99,,,0.00,519.4,rob ver 1B,2013-03-15 23:09:00,
2013-03-15 16:10:00,88.7,28.1,29.21,SSE,158,7.9,9.8,11,-99.99,,,0.00,516.8,rob ver 1B,2013-03-15 23:10:00,
2013-03-15 16:11:00,88.5,28.0,29.21,SSE,168,8.2,9.9,11,-99.99,,,0.00,513.1,rob ver 1B,2013-03-15 23:11:00,
2013-03-15 16:12:00,88.5,28.1,29.21,South,173,8.9,11.4,11,-99.99,,,0.00,510.3,rob ver 1B,2013-03-15 23:12:00,
2013-03-15 16:13:00,92.6,27.0,29.32,South,185,10.0,13.4,9,-99.99,,,0.00,384.4,rob ver 1A,2013-03-15 23:13:00,
2013-03-15 16:14:00,89.2,28.2,29.21,South,180,8.9,11.6,11,-99.99,,,0.00,504.4,rob ver 1B,2013-03-15 23:14:00,
2013-03-15 16:15:00,89.3,28.0,29.21,SSW,203,12.2,15.0,11,-99.99,,,0.00,500.8,rob ver 1B,2013-03-15 23:15:00,
2013-03-15 16:16:00,89.0,28.0,29.21,SSW,213,9.6,12.7,11,-99.99,,,0.00,498.2,rob ver 1B,2013-03-15 23:16:00,
2013-03-15 16:17:00,88.8,27.9,29.21,SSW,205,11.4,13.6,11,-99.99,,,0.00,495,rob ver 1B,2013-03-15 23:17:00,
2013-03-15 16:18:00,92.5,26.1,29.32,South,174,9.4,11.5,9,-99.99,,,0.00,295.7,rob ver 1A,2013-03-15 23:18:00,
2013-03-15 16:19:00,88.4,27.9,29.21,South,169,9.7,14.9,11,-99.99,,,0.00,489.3,rob ver 1B,2013-03-15 23:19:00,
2013-03-15 16:20:00,88.2,28.1,29.21,South,173,9.2,12.1,11,-99.99,,,0.00,486.2,rob ver 1B,2013-03-15 23:20:00,
2013-03-15 16:21:00,88.6,28.1,29.21,SSE,165,10.6,13.8,11,-99.99,,,0.00,482.6,rob ver 1B,2013-03-15 23:21:00,
2013-03-15 16:22:00,88.4,28.0,29.21,South,173,8.3,10.5,11,-99.99,,,0.00,479.5,rob ver 1B,2013-03-15 23:22:00,
2013-03-15 16:23:00,92.2,26.5,29.32,SSE,162,9.8,11.3,9,-99.99,,,0.00,270.8,rob ver 1A,2013-03-15 23:23:00,
2013-03-15 16:24:00,88.3,28.0,29.21,SSE,166,7.9,10.2,11,-99.99,,,0.00,472.6,rob ver 1B,2013-03-15 23:24:00,
2013-03-15 16:25:00,88.6,28.1,29.21,SSE,159,9.1,13.1,11,-99.99,,,0.00,469.3,rob ver 1B,2013-03-15 23:25:00,
2013-03-15 16:26:00,88.6,28.1,29.21,SSE,152,7.3,9.9,11,-99.99,,,0.00,466.9,rob ver 1B,2013-03-15 23:26:00,
2013-03-15 16:27:00,88.5,28.1,29.21,SSE,165,6.3,7.7,11,-99.99,,,0.00,462.6,rob ver 1B,2013-03-15 23:27:00,
2013-03-15 16:28:00,92.3,26.7,29.32,South,181,6.7,9.2,9,-99.99,,,0.00,234.3,rob ver 1A,2013-03-15 23:28:00,
2013-03-15 16:29:00,88.8,28.3,29.21,South,186,8.0,10.0,11,-99.99,,,0.00,453.8,rob ver 1B,2013-03-15 23:29:00,
2013-03-15 16:30:00,89.4,28.3,29.21,South,172,11.4,14.1,11,-99.99,,,0.00,451,rob ver 1B,2013-03-15 23:30:00,
2013-03-15 16:31:00,89.3,28.1,29.21,South,171,10.4,12.6,11,-99.99,,,0.00,449.4,rob ver 1B,2013-03-15 23:31:00,
2013-03-15 16:32:00,89.1,28.1,29.21,SSE,160,10.3,12.2,11,-99.99,,,0.00,444.3,rob ver 1B,2013-03-15 23:32:00,
2013-03-15 16:33:00,92.4,26.6,29.32,SSW,203,6.1,9.4,9,-99.99,,,0.00,226.8,rob ver 1A,2013-03-15 23:33:00,
2013-03-15 16:34:00,89.2,28.1,29.21,South,191,9.6,11.2,11,-99.99,,,0.00,438.6,rob ver 1B,2013-03-15 23:34:00,
2013-03-15 16:35:00,89.3,28.0,29.21,South,173,8.1,12.9,10,-99.99,,,0.00,434.3,rob ver 1B,2013-03-15 23:35:00,
2013-03-15 16:36:00,89.3,27.9,29.21,South,176,6.9,8.9,10,-99.99,,,0.00,431.3,rob ver 1B,2013-03-15 23:36:00,
2013-03-15 16:37:00,89.3,27.9,29.21,South,190,12.3,15.0,11,-99.99,,,0.00,428.1,rob ver 1B,2013-03-15 23:37:00,
2013-03-15 16:38:00,92.4,27.1,29.32,SSW,209,7.1,8.9,9,-99.99,,,0.00,363.5,rob ver 1A,2013-03-15 23:38:00,
2013-03-15 16:39:00,89.3,28.1,29.21,South,183,8.7,11.0,10,-99.99,,,0.00,421.4,rob ver 1B,2013-03-15 23:39:00,
2013-03-15 16:40:00,89.4,28.1,29.21,SSW,200,9.4,11.6,11,-99.99,,,0.00,418.6,rob ver 1B,2013-03-15 23:40:00,
2013-03-15 16:41:00,89.6,28.3,29.21,South,190,9.3,11.4,10,-99.99,,,0.00,415,rob ver 1B,2013-03-15 23:41:00,
2013-03-15 16:42:00,89.9,28.1,29.21,SSW,193,10.3,14.1,10,-99.99,,,0.00,410.5,rob ver 1B,2013-03-15 23:42:00,
2013-03-15 16:43:00,92.4,27.0,29.32,South,177,8.0,9.7,9,-99.99,,,0.00,295.9,rob ver 1A,2013-03-15 23:43:00,
2013-03-15 16:44:00,89.7,28.2,29.21,South,173,9.8,12.2,11,-99.99,,,0.00,404,rob ver 1B,2013-03-15 23:44:00,
2013-03-15 16:45:00,89.9,28.3,29.21,South,172,12.6,14.7,10,-99.99,,,0.00,401.1,rob ver 1B,2013-03-15 23:45:00,
2013-03-15 16:46:00,90.0,28.2,29.21,South,175,11.8,14.0,10,-99.99,,,0.00,397.9,rob ver 1B,2013-03-15 23:46:00,
2013-03-15 16:47:00,89.7,28.1,29.21,South,178,10.6,14.5,10,-99.99,,,0.00,393.8,rob ver 1B,2013-03-15 23:47:00,
2013-03-15 16:48:00,92.8,27.6,29.32,South,191,6.4,8.1,9,-99.99,,,0.00,240.5,rob ver 1A,2013-03-15 23:48:00,
2013-03-15 16:49:00,89.8,28.1,29.21,SSW,193,12.0,14.6,10,-99.99,,,0.00,387.5,rob ver 1B,2013-03-15 23:49:00,
2013-03-15 16:50:00,89.7,28.1,29.21,South,190,11.5,14.4,10,-99.99,,,0.00,383.9,rob ver 1B,2013-03-15 23:50:00,
2013-03-15 16:51:00,89.8,27.9,29.21,South,181,11.9,13.6,10,-99.99,,,0.00,380.1,rob ver 1B,2013-03-15 23:51:00,
2013-03-15 16:52:00,89.7,28.0,29.21,SSW,196,10.5,12.5,10,-99.99,,,0.00,376.3,rob ver 1B,2013-03-15 23:52:00,
2013-03-15 16:53:00,92.3,27.4,29.32,South,185,8.5,12.0,9,-99.99,,,0.00,196.7,rob ver 1A,2013-03-15 23:53:00,
2013-03-15 16:54:00,89.8,28.0,29.21,SSW,200,12.8,16.2,10,-99.99,,,0.00,369.3,rob ver 1B,2013-03-15 23:54:00,
2013-03-15 16:55:00,89.6,28.0,29.21,SSW,197,10.9,13.0,10,-99.99,,,0.00,365.5,rob ver 1B,2013-03-15 23:55:00,
2013-03-15 16:56:00,89.5,28.0,29.21,SSW,199,10.6,12.5,11,-99.99,,,0.00,361.6,rob ver 1B,2013-03-15 23:56:00,
2013-03-15 16:57:00,89.5,28.1,29.21,South,191,10.9,13.9,10,-99.99,,,0.00,357.7,rob ver 1B,2013-03-15 23:57:00,
2013-03-15 16:58:00,89.7,28.1,29.21,SSW,196,10.5,14.0,10,-99.99,,,0.00,353.1,rob ver 1B,2013-03-15 23:58:00,
2013-03-15 16:59:00,92.3,27.7,29.32,SSW,210,8.8,10.4,9,-99.99,,,0.00,397.6,rob ver 1A,2013-03-15 23:59:00,
2013-03-15 17:00:00,89.6,28.0,29.21,SSW,202,9.5,12.5,10,-99.99,,,0.00,345.5,rob ver 1B,2013-03-16 00:00:00,
2013-03-15 17:01:00,89.7,28.2,29.21,SSW,195,8.4,10.6,11,-99.99,,,0.00,341.6,rob ver 1B,2013-03-16 00:01:00,
2013-03-15 17:02:00,89.9,28.2,29.21,South,177,9.9,13.1,10,-99.99,,,0.00,338.2,rob ver 1B,2013-03-16 00:02:00,
2013-03-15 17:03:00,90.0,28.0,29.21,SSW,193,11.8,14.0,10,-99.99,,,0.00,334.1,rob ver 1B,2013-03-16 00:03:00,
2013-03-15 17:04:00,92.3,27.9,29.32,South,185,8.4,10.0,9,-99.99,,,0.00,202.1,rob ver 1A,2013-03-16 00:04:00,
2013-03-15 17:05:00,90.0,28.5,29.21,SSW,200,10.4,12.2,11,-99.99,,,0.00,326.9,rob ver 1B,2013-03-16 00:05:00,
2013-03-15 17:06:00,89.9,28.7,29.21,South,179,11.5,14.2,11,-99.99,,,0.00,322.6,rob ver 1B,2013-03-16 00:06:00,
2013-03-15 17:07:00,89.7,28.6,29.21,South,182,11.7,14.6,11,-99.99,,,0.00,319.5,rob ver 1B,2013-03-16 00:07:00,
2013-03-15 17:08:00,89.7,28.6,29.21,South,186,13.0,15.0,11,-99.99,,,0.00,316.7,rob ver 1B,2013-03-16 00:08:00,
2013-03-15 17:09:00,92.0,27.5,29.32,SSW,202,9.0,11.8,9,-99.99,,,0.00,159,rob ver 1A,2013-03-16 00:09:00,
2013-03-15 17:10:00,89.3,28.6,29.21,South,169,11.9,15.2,11,-99.99,,,0.00,310.2,rob ver 1B,2013-03-16 00:10:00,
2013-03-15 17:11:00,89.4,28.7,29.21,South,181,12.6,15.5,11,-99.99,,,0.00,307.5,rob ver 1B,2013-03-16 00:11:00,
2013-03-15 17:12:00,89.5,28.7,29.21,South,191,13.5,15.7,11,-99.99,,,0.00,303.1,rob ver 1B,2013-03-16 00:12:00,
2013-03-15 17:13:00,89.5,28.9,29.21,SSW,195,10.9,14.5,11,-99.99,,,0.00,299.9,rob ver 1B,2013-03-16 00:13:00,
2013-03-15 17:14:00,91.8,27.1,29.32,South,184,7.8,9.2,9,-99.99,,,0.00,153.9,rob ver 1A,2013-03-16 00:14:00,
2013-03-15 17:15:00,89.4,29.0,29.21,SSW,199,11.4,13.6,11,-99.99,,,0.00,292,rob ver 1B,2013-03-16 00:15:00,
2013-03-15 17:16:00,89.5,29.0,29.21,SSW,197,10.4,13.9,11,-99.99,,,0.00,288.1,rob ver 1B,2013-03-16 00:16:00,
2013-03-15 17:17:00,89.6,28.9,29.21,South,185,10.7,14.9,11,-99.99,,,0.00,284,rob ver 1B,2013-03-16 00:17:00,
2013-03-15 17:18:00,89.8,28.8,29.21,South,189,11.1,14.2,11,-99.99,,,0.00,279.7,rob ver 1B,2013-03-16 00:18:00,
2013-03-15 17:19:00,91.4,26.7,29.32,South,169,6.6,8.0,9,-99.99,,,0.00,144.1,rob ver 1A,2013-03-16 00:19:00,
2013-03-15 17:20:00,89.3,28.7,29.21,SSW,197,10.3,12.7,11,-99.99,,,0.00,272.3,rob ver 1B,2013-03-16 00:20:00,
2013-03-15 17:21:00,89.3,28.9,29.21,South,183,11.4,15.2,11,-99.99,,,0.00,269.1,rob ver 1B,2013-03-16 00:21:00,
2013-03-15 17:22:00,89.4,28.9,29.21,South,180,10.6,12.5,11,-99.99,,,0.00,265,rob ver 1B,2013-03-16 00:22:00,
2013-03-15 17:23:00,89.3,28.9,29.21,South,183,12.2,15.7,11,-99.99,,,0.00,261.4,rob ver 1B,2013-03-16 00:23:00,
2013-03-15 17:24:00,91.4,26.8,29.32,South,190,7.4,8.7,9,-99.99,,,0.00,131.3,rob ver 1A,2013-03-16 00:24:00,
2013-03-15 17:25:00,89.2,29.0,29.21,South,184,11.4,13.6,11,-99.99,,,0.00,254.5,rob ver 1B,2013-03-16 00:25:00,
2013-03-15 17:26:00,89.1,29.1,29.21,South,184,12.1,14.1,11,-99.99,,,0.00,250.6,rob ver 1B,2013-03-16 00:26:00,
2013-03-15 17:27:00,89.0,28.9,29.21,South,186,12.2,13.7,11,-99.99,,,0.00,246.8,rob ver 1B,2013-03-16 00:27:00,
2013-03-15 17:28:00,88.9,28.8,29.21,South,189,10.1,13.0,11,-99.99,,,0.00,243,rob ver 1B,2013-03-16 00:28:00,
2013-03-15 17:29:00,91.3,27.0,29.32,SSW,202,8.6,10.8,9,-99.99,,,0.00,108.7,rob ver 1A,2013-03-16 00:29:00,
2013-03-15 17:30:00,89.1,29.0,29.21,SSW,193,9.1,10.9,11,-99.99,,,0.00,235.5,rob ver 1B,2013-03-16 00:30:00,
2013-03-15 17:31:00,89.1,29.1,29.21,SSW,198,10.7,13.3,11,-99.99,,,0.00,231.9,rob ver 1B,2013-03-16 00:31:00,
2013-03-15 17:32:00,88.9,29.1,29.21,SSW,196,10.8,12.5,11,-99.99,,,0.00,228.1,rob ver 1B,2013-03-16 00:32:00,
2013-03-15 17:33:00,88.7,29.2,29.21,South,185,9.0,11.3,11,-99.99,,,0.00,225,rob ver 1B,2013-03-16 00:33:00,
2013-03-15 17:34:00,91.5,27.0,29.32,South,188,7.0,9.1,9,-99.99,,,0.00,301.7,rob ver 1A,2013-03-16 00:34:00,
2013-03-15 17:35:00,88.8,29.2,29.21,South,188,10.4,12.5,11,-99.99,,,0.00,217.8,rob ver 1B,2013-03-16 00:35:00,
2013-03-15 17:36:00,88.8,29.2,29.21,South,181,9.6,11.2,11,-99.99,,,0.00,214.5,rob ver 1B,2013-03-16 00:36:00,
2013-03-15 17:37:00,88.8,29.3,29.21,South,186,9.5,12.0,11,-99.99,,,0.00,211.6,rob ver 1B,2013-03-16 00:37:00,
2013-03-15 17:38:00,89.0,29.3,29.21,SSW,196,10.1,12.6,11,-99.99,,,0.00,208,rob ver 1B,2013-03-16 00:38:00,
2013-03-15 17:39:00,92.3,26.5,29.32,SSW,197,8.4,11.0,9,-99.99,,,0.00,280.7,rob ver 1A,2013-03-16 00:39:00,
2013-03-15 17:40:00,88.8,29.1,29.21,South,179,10.1,12.2,11,-99.99,,,0.00,200.9,rob ver 1B,2013-03-16 00:40:00,
2013-03-15 17:41:00,88.8,29.1,29.21,South,180,10.3,12.6,11,-99.99,,,0.00,196.2,rob ver 1B,2013-03-16 00:41:00,
2013-03-15 17:42:00,88.6,29.1,29.21,South,183,10.2,12.0,11,-99.99,,,0.00,192.9,rob ver 1B,2013-03-16 00:42:00,
2013-03-15 17:43:00,88.6,29.1,29.21,South,191,10.4,12.7,11,-99.99,,,0.00,189.1,rob ver 1B,2013-03-16 00:43:00,
2013-03-15 17:44:00,92.4,27.9,29.32,South,191,8.4,10.2,10,-99.99,,,0.00,260.7,rob ver 1A,2013-03-16 00:44:00,
2013-03-15 17:45:00,88.6,29.0,29.21,South,191,10.6,13.4,11,-99.99,,,0.00,182.4,rob ver 1B,2013-03-16 00:45:00,
2013-03-15 17:46:00,88.5,29.0,29.21,SSW,192,10.8,13.1,11,-99.99,,,0.00,178.8,rob ver 1B,2013-03-16 00:46:00,
2013-03-15 17:47:00,88.4,29.0,29.21,SSW,193,10.5,12.5,11,-99.99,,,0.00,175.6,rob ver 1B,2013-03-16 00:47:00,
2013-03-15 17:48:00,88.4,29.1,29.21,South,190,8.8,10.5,11,-99.99,,,0.00,172.6,rob ver 1B,2013-03-16 00:48:00,
2013-03-15 17:49:00,92.3,28.4,29.32,SSW,200,9.6,11.3,10,-99.99,,,0.00,241.4,rob ver 1A,2013-03-16 00:49:00,
2013-03-15 17:50:00,88.5,29.3,29.21,South,184,9.9,11.9,11,-99.99,,,0.00,164.1,rob ver 1B,2013-03-16 00:50:00,
2013-03-15 17:51:00,88.5,29.2,29.21,South,179,11.5,13.6,11,-99.99,,,0.00,160.8,rob ver 1B,2013-03-16 00:51:00,
2013-03-15 17:52:00,88.4,29.0,29.21,South,180,12.2,14.3,11,-99.99,,,0.00,156.9,rob ver 1B,2013-03-16 00:52:00,
2013-03-15 17:53:00,88.3,29.0,29.21,South,186,9.4,12.1,11,-99.99,,,0.00,153.5,rob ver 1B,2013-03-16 00:53:00,
2013-03-15 17:54:00,92.1,28.6,29.32,SSW,204,9.5,11.6,10,-99.99,,,0.00,220.3,rob ver 1A,2013-03-16 00:54:00,
2013-03-15 17:55:00,88.6,29.1,29.21,South,176,9.4,11.4,11,-99.99,,,0.00,146.7,rob ver 1B,2013-03-16 00:55:00,
2013-03-15 17:56:00,88.6,29.0,29.21,South,169,9.2,10.8,11,-99.99,,,0.00,143.1,rob ver 1B,2013-03-16 00:56:00,
2013-03-15 17:57:00,88.4,29.0,29.21,South,176,8.1,10.0,11,-99.99,,,0.00,140.2,rob ver 1B,2013-03-16 00:57:00,
2013-03-15 17:58:00,88.5,28.9,29.21,South,186,9.6,11.6,11,-99.99,,,0.00,136.6,rob ver 1B,2013-03-16 00:58:00,
2013-03-15 17:59:00,91.8,28.7,29.32,SSW,201,9.7,10.8,10,-99.99,,,0.00,195.2,rob ver 1A,2013-03-16 00:59:00,
2013-03-15 18:00:00,88.4,28.6,29.21,South,180,10.2,11.9,11,-99.99,,,0.00,131.4,rob ver 1B,2013-03-16 01:00:00,
2013-03-15 18:01:00,88.3,28.6,29.21,South,180,10.2,11.8,11,-99.99,,,0.00,127.8,rob ver 1B,2013-03-16 01:01:00,
2013-03-15 18:02:00,88.2,28.5,29.21,South,174,10.4,12.8,11,-99.99,,,0.00,124.8,rob ver 1B,2013-03-16 01:02:00,
2013-03-15 18:03:00,88.1,28.4,29.21,South,181,11.3,13.3,11,-99.99,,,0.00,121.9,rob ver 1B,2013-03-16 01:03:00,
2013-03-15 18:04:00,91.6,28.4,29.32,SSW,204,10.6,12.5,10,-99.99,,,0.00,168.7,rob ver 1A,2013-03-16 01:04:00,
2013-03-15 18:05:00,88.1,28.7,29.21,South,180,10.6,12.9,11,-99.99,,,0.00,115.6,rob ver 1B,2013-03-16 01:05:00,
2013-03-15 18:06:00,88.1,28.7,29.21,South,172,10.3,12.2,11,-99.99,,,0.00,112.4,rob ver 1B,2013-03-16 01:06:00,
2013-03-15 18:07:00,87.9,28.8,29.21,South,176,10.3,12.0,11,-99.99,,,0.00,109.1,rob ver 1B,2013-03-16 01:07:00,
2013-03-15 18:08:00,87.9,28.8,29.21,South,176,9.4,11.2,11,-99.99,,,0.00,105.3,rob ver 1B,2013-03-16 01:08:00,
2013-03-15 18:09:00,91.3,28.0,29.32,South,188,9.2,10.9,10,-99.99,,,0.00,142.2,rob ver 1A,2013-03-16 01:09:00,
2013-03-15 18:10:00,87.9,28.9,29.21,South,172,11.1,14.1,12,-99.99,,,0.00,98.4,rob ver 1B,2013-03-16 01:10:00,
2013-03-15 18:11:00,87.7,29.0,29.21,South,178,10.9,12.7,12,-99.99,,,0.00,95,rob ver 1B,2013-03-16 01:11:00,
2013-03-15 18:13:00,87.5,28.9,29.21,South,169,10.3,12.9,12,-99.99,,,0.00,87.5,rob ver 1B,2013-03-16 01:13:00,
2013-03-15 18:14:00,91.3,28.2,29.32,SSW,195,6.9,9.2,10,-99.99,,,0.00,114.7,rob ver 1A,2013-03-16 01:14:00,
2013-03-15 18:15:00,87.3,28.9,29.21,SSE,165,10.1,12.8,12,-99.99,,,0.00,79.6,rob ver 1B,2013-03-16 01:15:00,
2013-03-15 18:16:00,87.3,29.0,29.21,South,172,10.3,13.7,12,-99.99,,,0.00,76.3,rob ver 1B,2013-03-16 01:16:00,
2013-03-15 18:17:00,87.2,29.0,29.21,South,175,10.8,13.0,12,-99.99,,,0.00,73.4,rob ver 1B,2013-03-16 01:17:00,
2013-03-15 18:18:00,87.1,29.0,29.21,South,174,9.7,13.1,12,-99.99,,,0.00,70.4,rob ver 1B,2013-03-16 01:18:00,
2013-03-15 18:19:00,90.9,27.8,29.32,SSW,205,8.5,10.1,10,-99.99,,,0.00,92.7,rob ver 1A,2013-03-16 01:19:00,
2013-03-15 18:20:00,87.0,29.1,29.21,SSE,166,10.5,13.2,12,-99.99,,,0.00,64.53,rob ver 1B,2013-03-16 01:20:00,
2013-03-15 18:21:00,86.8,29.3,29.21,SSE,163,11.4,13.4,12,-99.99,,,0.00,61.26,rob ver 1B,2013-03-16 01:21:00,
2013-03-15 18:22:00,86.8,29.3,29.21,South,169,10.7,12.9,12,-99.99,,,0.00,58.64,rob ver 1B,2013-03-16 01:22:00,
2013-03-15 18:23:00,86.7,29.4,29.21,South,172,10.5,12.8,12,-99.99,,,0.00,55.69,rob ver 1B,2013-03-16 01:23:00,
2013-03-15 18:24:00,90.7,27.7,29.32,SSW,197,6.7,8.6,10,-99.99,,,0.00,72.7,rob ver 1A,2013-03-16 01:24:00,
2013-03-15 18:25:00,86.5,29.4,29.21,SSE,166,10.1,12.0,12,-99.99,,,0.00,49.79,rob ver 1B,2013-03-16 01:25:00,
2013-03-15 18:26:00,86.4,29.4,29.21,South,173,9.2,10.8,12,-99.99,,,0.00,46.85,rob ver 1B,2013-03-16 01:26:00,
2013-03-15 18:27:00,86.3,29.5,29.21,South,175,8.7,10.6,12,-99.99,,,0.00,44.23,rob ver 1B,2013-03-16 01:27:00,
2013-03-15 18:28:00,86.3,29.6,29.21,South,174,9.6,11.2,12,-99.99,,,0.00,41.6,rob ver 1B,2013-03-16 01:28:00,
2013-03-15 18:29:00,86.2,29.5,29.21,South,174,9.0,10.8,12,-99.99,,,0.00,38.98,rob ver 1B,2013-03-16 01:29:00,
2013-03-15 18:30:00,90.1,27.7,29.32,SSW,194,7.7,9.3,10,-99.99,,,0.00,53.07,rob ver 1A,2013-03-16 01:30:00,
2013-03-15 18:31:00,85.9,29.6,29.21,South,169,8.9,11.9,13,-99.99,,,0.00,33.74,rob ver 1B,2013-03-16 01:31:00,
2013-03-15 18:32:00,85.8,29.6,29.21,South,170,9.0,10.8,13,-99.99,,,0.00,31.12,rob ver 1B,2013-03-16 01:32:00,
2013-03-15 18:33:00,85.7,29.6,29.21,South,170,8.5,10.6,13,-99.99,,,0.00,28.83,rob ver 1B,2013-03-16 01:33:00,
2013-03-15 18:34:00,85.6,29.7,29.21,South,173,8.9,10.4,13,-99.99,,,0.00,26.54,rob ver 1B,2013-03-16 01:34:00,
2013-03-15 18:35:00,89.5,27.0,29.32,SSW,197,6.0,6.9,10,-99.99,,,0.00,32.76,rob ver 1A,2013-03-16 01:35:00,
2013-03-15 18:36:00,85.5,29.8,29.21,South,175,9.4,11.1,13,-99.99,,,0.00,21.95,rob ver 1B,2013-03-16 01:36:00,
2013-03-15 18:37:00,85.5,29.9,29.21,South,171,9.6,11.1,13,-99.99,,,0.00,19.99,rob ver 1B,2013-03-16 01:37:00,
2013-03-15 18:38:00,85.4,29.9,29.21,South,175,8.7,10.7,13,-99.99,,,0.00,17.86,rob ver 1B,2013-03-16 01:38:00,
2013-03-15 18:39:00,85.3,29.9,29.21,South,175,8.6,11.1,13,-99.99,,,0.00,16.05,rob ver 1B,2013-03-16 01:39:00,
2013-03-15 18:40:00,88.8,26.8,29.32,SSW,197,6.2,7.1,10,-99.99,,,0.00,15.4,rob ver 1A,2013-03-16 01:40:00,
2013-03-15 18:41:00,85.2,29.9,29.21,South,174,9.4,12.7,13,-99.99,,,0.00,12.78,rob ver 1B,2013-03-16 01:41:00,
2013-03-15 18:42:00,85.1,29.9,29.21,South,176,8.2,11.0,13,-99.99,,,0.00,10.48,rob ver 1B,2013-03-16 01:42:00,
2013-03-15 18:43:00,85.0,29.9,29.21,South,178,10.0,13.0,13,-99.99,,,0.00,8.85,rob ver 1B,2013-03-16 01:43:00,
2013-03-15 18:44:00,85.0,29.9,29.21,South,176,8.8,11.1,13,-99.99,,,0.00,7.86,rob ver 1B,2013-03-16 01:44:00,
2013-03-15 18:45:00,87.9,27.1,29.32,SSW,194,5.6,7.2,11,-99.99,,,0.00,6.879,rob ver 1A,2013-03-16 01:45:00,
2013-03-15 18:46:00,84.8,29.9,29.21,South,171,8.4,9.7,13,-99.99,,,0.00,6.225,rob ver 1B,2013-03-16 01:46:00,
2013-03-15 18:47:00,84.7,29.9,29.21,South,172,8.3,10.1,13,-99.99,,,0.00,5.242,rob ver 1B,2013-03-16 01:47:00,
2013-03-15 18:48:00,84.5,29.9,29.21,South,173,7.8,9.4,13,-99.99,,,0.00,4.587,rob ver 1B,2013-03-16 01:48:00,
2013-03-15 18:49:00,84.5,29.9,29.21,South,174,7.3,8.8,13,-99.99,,,0.00,3.932,rob ver 1B,2013-03-16 01:49:00,
2013-03-15 18:50:00,87.3,27.5,29.32,SSW,194,5.2,6.0,11,-99.99,,,0.00,3.276,rob ver 1A,2013-03-16 01:50:00,
2013-03-15 18:51:00,84.3,30.0,29.21,South,176,8.2,10.6,14,-99.99,,,0.00,2.949,rob ver 1B,2013-03-16 01:51:00,
2013-03-15 18:52:00,84.3,30.1,29.21,South,175,8.0,9.4,14,-99.99,,,0.00,2.785,rob ver 1B,2013-03-16 01:52:00,
2013-03-15 18:53:00,84.2,30.2,29.21,South,179,8.1,9.9,14,-99.99,,,0.00,2.294,rob ver 1B,2013-03-16 01:53:00,
2013-03-15 18:54:00,84.1,30.3,29.21,South,178,7.6,10.1,14,-99.99,,,0.00,2.13,rob ver 1B,2013-03-16 01:54:00,
2013-03-15 18:55:00,86.5,27.6,29.32,SSW,202,4.5,5.6,11,-99.99,,,0.00,1.31,rob ver 1A,2013-03-16 01:55:00,
2013-03-15 18:56:00,83.9,30.8,29.21,South,178,7.7,9.3,14,-99.99,,,0.00,1.311,rob ver 1B,2013-03-16 01:56:00,
2013-03-15 18:57:00,83.9,31.0,29.21,South,178,7.9,9.5,14,-99.99,,,0.00,1.147,rob ver 1B,2013-03-16 01:57:00,
2013-03-15 18:58:00,83.8,31.0,29.21,South,179,7.6,9.0,14,-99.99,,,0.00,.983,rob ver 1B,2013-03-16 01:58:00,
2013-03-15 18:59:00,83.8,31.0,29.21,South,179,7.8,9.1,14,-99.99,,,0.00,.655,rob ver 1B,2013-03-16 01:59:00,
2013-03-15 19:00:00,86.0,27.9,29.32,SSW,200,4.6,5.3,12,-99.99,,,0.00,.328,rob ver 1A,2013-03-16 02:00:00,
2013-03-15 19:01:00,83.7,31.2,29.21,South,176,7.6,8.5,15,-99.99,,,0.00,.328,rob ver 1B,2013-03-16 02:01:00,
2013-03-15 19:02:00,83.6,31.1,29.21,South,178,6.0,7.4,15,-99.99,,,0.00,.328,rob ver 1B,2013-03-16 02:02:00,
2013-03-15 19:03:00,83.4,31.2,29.21,South,178,6.7,8.4,15,-99.99,,,0.00,.328,rob ver 1B,2013-03-16 02:03:00,
2013-03-15 19:04:00,83.4,31.2,29.21,South,178,6.6,7.9,15,-99.99,,,0.00,.164,rob ver 1B,2013-03-16 02:04:00,
2013-03-15 19:05:00,85.5,28.3,29.32,SSW,196,5.1,5.9,12,-99.99,,,0.00,0,rob ver 1A,2013-03-16 02:05:00,
2013-03-15 19:06:00,83.2,31.3,29.21,South,174,7.1,8.9,15,-99.99,,,0.00,0,rob ver 1B,2013-03-16 02:06:00,
2013-03-15 19:07:00,83.3,31.3,29.21,South,172,6.9,8.5,15,-99.99,,,0.00,0,rob ver 1B,2013-03-16 02:07:00,
2013-03-15 19:08:00,83.2,31.3,29.21,South,170,6.4,7.3,15,-99.99,,,0.00,0,rob ver 1B,2013-03-16 02:08:00,
2013-03-15 19:09:00,83.1,31.2,29.21,South,169,5.7,7.5,15,-99.99,,,0.00,0,rob ver 1B,2013-03-16 02:09:00,
2013-03-15 19:10:00,83.0,31.2,29.21,South,171,5.7,7.0,15,-99.99,,,0.00,0,rob ver 1B,2013-03-16 02:10:00,
2013-03-15 19:11:00,85.3,28.8,29.32,SSW,193,5.0,5.9,12,-99.99,,,0.00,0,rob ver 1A,2013-03-16 02:11:00,
2013-03-15 19:12:00,82.9,31.2,29.21,South,173,6.5,8.0,15,-99.99,,,0.00,0,rob ver 1B,2013-03-16 02:12:00,
2013-03-15 19:13:00,82.9,31.2,29.21,South,176,6.2,7.7,15,-99.99,,,0.00,0,rob ver 1B,2013-03-16 02:13:00,
2013-03-15 19:14:00,82.8,31.2,29.21,South,176,6.7,7.8,15,-99.99,,,0.00,0,rob ver 1B,2013-03-16 02:14:00,
2013-03-15 19:15:00,82.8,31.1,29.21,South,176,6.9,8.4,15,-99.99,,,0.00,0,rob ver 1B,2013-03-16 02:15:00,
2013-03-15 19:16:00,85.1,29.0,29.32,SSW,195,4.5,5.1,13,-99.99,,,0.00,0,rob ver 1A,2013-03-16 02:16:00,
2013-03-15 19:17:00,82.6,31.1,29.21,South,179,6.5,7.6,15,-99.99,,,0.00,0,rob ver 1B,2013-03-16 02:17:00,
2013-03-15 19:18:00,82.5,31.1,29.21,South,179,7.0,8.5,15,-99.99,,,0.00,0,rob ver 1B,2013-03-16 02:18:00,
2013-03-15 19:19:00,82.3,31.0,29.21,South,181,7.0,8.1,15,-99.99,,,0.00,0,rob ver 1B,2013-03-16 02:19:00,
2013-03-15 19:20:00,82.3,31.0,29.21,South,186,7.0,8.6,15,-99.99,,,0.00,0,rob ver 1B,2013-03-16 02:20:00,
2013-03-15 19:21:00,84.7,29.2,29.32,SSW,195,3.9,4.6,13,-99.99,,,0.00,0,rob ver 1A,2013-03-16 02:21:00,
2013-03-15 19:22:00,82.3,31.0,29.21,South,186,7.4,9.3,15,-99.99,,,0.00,0,rob ver 1B,2013-03-16 02:22:00,
2013-03-15 19:23:00,82.3,30.9,29.21,South,187,6.8,8.2,15,-99.99,,,0.00,0,rob ver 1B,2013-03-16 02:23:00,
2013-03-15 19:24:00,82.2,30.9,29.21,South,188,7.0,8.1,15,-99.99,,,0.00,0,rob ver 1B,2013-03-16 02:24:00,
2013-03-15 19:25:00,82.2,31.0,29.21,South,186,7.2,9.1,15,-99.99,,,0.00,0,rob ver 1B,2013-03-16 02:25:00,
2013-03-15 19:26:00,84.8,29.5,29.32,SSW,192,2.7,3.6,13,-99.99,,,0.00,0,rob ver 1A,2013-03-16 02:26:00,
2013-03-15 19:27:00,82.1,30.9,29.21,South,187,6.8,8.0,15,-99.99,,,0.00,0,rob ver 1B,2013-03-16 02:27:00,
2013-03-15 19:28:00,82.0,30.9,29.21,South,187,6.9,8.5,15,-99.99,,,0.00,0,rob ver 1B,2013-03-16 02:28:00,
2013-03-15 19:29:00,82.0,30.9,29.21,South,187,6.8,8.4,15,-99.99,,,0.00,0,rob ver 1B,2013-03-16 02:29:00,
2013-03-15 19:30:00,82.0,30.9,29.21,South,187,7.0,9.5,15,-99.99,,,0.00,0,rob ver 1B,2013-03-16 02:30:00,
2013-03-15 19:31:00,84.5,29.5,29.32,South,182,2.2,2.8,13,-99.99,,,0.00,0,rob ver 1A,2013-03-16 02:31:00,
2013-03-15 19:32:00,81.9,30.9,29.21,South,185,7.3,9.1,15,-99.99,,,0.00,0,rob ver 1B,2013-03-16 02:32:00,
2013-03-15 19:33:00,81.9,30.9,29.21,South,185,6.6,7.9,15,-99.99,,,0.00,0,rob ver 1B,2013-03-16 02:33:00,
2013-03-15 19:34:00,81.8,30.8,29.21,South,184,6.4,7.9,15,-99.99,,,0.00,0,rob ver 1B,2013-03-16 02:34:00,
2013-03-15 19:35:00,81.7,30.9,29.21,South,184,6.0,7.3,15,-99.99,,,0.00,0,rob ver 1B,2013-03-16 02:35:00,
2013-03-15 19:36:00,84.1,29.4,29.32,South,176,2.2,3.4,13,-99.99,,,0.00,0,rob ver 1A,2013-03-16 02:36:00,
2013-03-15 19:37:00,81.4,30.8,29.21,South,180,5.9,7.0,15,-99.99,,,0.00,0,rob ver 1B,2013-03-16 02:37:00,
2013-03-15 19:38:00,81.4,30.9,29.21,South,181,5.9,7.2,16,-99.99,,,0.00,0,rob ver 1B,2013-03-16 02:38:00,
2013-03-15 19:39:00,81.3,30.9,29.21,South,183,6.2,7.6,16,-99.99,,,0.00,0,rob ver 1B,2013-03-16 02:39:00,
2013-03-15 19:40:00,81.3,30.9,29.21,South,182,6.3,7.3,16,-99.99,,,0.00,0,rob ver 1B,2013-03-16 02:40:00,
2013-03-15 19:41:00,83.2,30.5,29.32,SSW,193,3.9,5.1,14,-99.99,,,0.00,0,rob ver 1A,2013-03-16 02:41:00,
2013-03-15 19:42:00,81.1,30.9,29.21,South,183,6.5,7.7,16,-99.99,,,0.00,0,rob ver 1B,2013-03-16 02:42:00,
2013-03-15 19:43:00,81.1,31.0,29.21,South,183,7.0,8.6,16,-99.99,,,0.00,0,rob ver 1B,2013-03-16 02:43:00,
2013-03-15 19:44:00,81.1,30.9,29.21,South,185,6.8,8.1,16,-99.99,,,0.00,0,rob ver 1B,2013-03-16 02:44:00,
2013-03-15 19:45:00,81.0,31.0,29.21,South,184,6.7,8.0,16,-99.99,,,0.00,0,rob ver 1B,2013-03-16 02:45:00,
2013-03-15 19:46:00,83.0,31.0,29.32,SSW,200,4.5,5.4,15,-99.99,,,0.00,0,rob ver 1A,2013-03-16 02:46:00,
2013-03-15 19:47:00,81.0,30.9,29.21,South,182,6.9,8.1,16,-99.99,,,0.00,0,rob ver 1B,2013-03-16 02:47:00,
2013-03-15 19:48:00,81.0,30.9,29.21,South,184,7.0,7.9,16,-99.99,,,0.00,0,rob ver 1B,2013-03-16 02:48:00,
2013-03-15 19:49:00,81.0,31.0,29.21,South,182,7.0,8.3,16,-99.99,,,0.00,0,rob ver 1B,2013-03-16 02:49:00,
2013-03-15 19:50:00,81.0,30.9,29.21,South,182,7.0,8.1,16,-99.99,,,0.00,0,rob ver 1B,2013-03-16 02:50:00,
2013-03-15 19:51:00,82.6,31.3,29.32,SSW,198,4.6,5.6,15,-99.99,,,0.00,0,rob ver 1A,2013-03-16 02:51:00,
2013-03-15 19:52:00,80.9,30.9,29.21,South,181,6.4,7.6,16,-99.99,,,0.00,0,rob ver 1B,2013-03-16 02:52:00,
2013-03-15 19:53:00,80.8,30.9,29.21,South,183,6.2,7.2,16,-99.99,,,0.00,0,rob ver 1B,2013-03-16 02:53:00,
2013-03-15 19:54:00,80.7,30.9,29.21,South,182,5.9,6.7,16,-99.99,,,0.00,0,rob ver 1B,2013-03-16 02:54:00,
2013-03-15 19:55:00,80.5,30.9,29.21,South,180,6.0,7.2,16,-99.99,,,0.00,0,rob ver 1B,2013-03-16 02:55:00,
2013-03-15 19:56:00,80.5,30.9,29.21,South,178,6.0,7.0,16,-99.99,,,0.00,0,rob ver 1B,2013-03-16 02:56:00,
2013-03-15 19:57:00,82.2,31.7,29.32,SSW,200,6.3,7.1,16,-99.99,,,0.00,0,rob ver 1A,2013-03-16 02:57:00,
2013-03-15 19:58:00,80.3,31.0,29.21,South,177,6.2,7.2,16,-99.99,,,0.00,0,rob ver 1B,2013-03-16 02:58:00,
2013-03-15 19:59:00,80.3,31.0,29.23,South,179,6.3,7.1,16,-99.99,,,0.00,0,rob ver 1B,2013-03-16 02:59:00,
2013-03-15 20:00:00,80.3,31.0,29.21,South,179,6.1,7.7,16,-99.99,,,0.00,0,rob ver 1B,2013-03-16 03:00:00,
2013-03-15 20:01:00,80.2,31.0,29.21,South,179,6.0,7.0,16,-99.99,,,0.00,0,rob ver 1B,2013-03-16 03:01:00,
2013-03-15 20:02:00,82.2,32.0,29.32,SSW,198,6.1,6.9,16,-99.99,,,0.00,0,rob ver 1A,2013-03-16 03:02:00,
2013-03-15 20:03:00,80.1,31.0,29.23,South,181,6.5,7.7,16,-99.99,,,0.00,0,rob ver 1B,2013-03-16 03:03:00,
2013-03-15 20:04:00,80.1,31.0,29.23,South,181,6.3,7.2,16,-99.99,,,0.00,0,rob ver 1B,2013-03-16 03:04:00,
2013-03-15 20:05:00,80.0,31.1,29.23,South,182,6.1,7.9,16,-99.99,,,0.00,0,rob ver 1B,2013-03-16 03:05:00,
2013-03-15 20:06:00,80.0,31.1,29.23,South,181,6.2,7.2,16,-99.99,,,0.00,0,rob ver 1B,2013-03-16 03:06:00,
2013-03-15 20:07:00,82.5,32.2,29.32,SSW,192,5.5,6.9,16,-99.99,,,0.00,0,rob ver 1A,2013-03-16 03:07:00,
2013-03-15 20:08:00,79.9,31.1,29.23,South,180,5.9,6.8,16,-99.99,,,0.00,0,rob ver 1B,2013-03-16 03:08:00,
2013-03-15 20:09:00,79.9,31.1,29.23,South,180,6.0,7.1,16,-99.99,,,0.00,0,rob ver 1B,2013-03-16 03:09:00,
2013-03-15 20:10:00,79.9,31.1,29.23,South,180,6.3,7.9,17,-99.99,,,0.00,0,rob ver 1B,2013-03-16 03:10:00,
2013-03-15 20:11:00,79.9,31.1,29.23,South,181,6.1,7.2,16,-99.99,,,0.00,0,rob ver 1B,2013-03-16 03:11:00,
2013-03-15 20:12:00,82.7,32.2,29.32,South,191,4.7,6.2,16,-99.99,,,0.00,0,rob ver 1A,2013-03-16 03:12:00,
2013-03-15 20:13:00,79.7,31.2,29.23,South,181,6.3,7.7,17,-99.99,,,0.00,0,rob ver 1B,2013-03-16 03:13:00,
2013-03-15 20:14:00,79.7,31.2,29.23,South,181,6.2,7.8,17,-99.99,,,0.00,0,rob ver 1B,2013-03-16 03:14:00,
2013-03-15 20:15:00,79.6,31.2,29.23,South,180,6.4,7.5,17,-99.99,,,0.00,0,rob ver 1B,2013-03-16 03:15:00,
2013-03-15 20:16:00,79.6,31.3,29.23,South,180,6.6,8.0,17,-99.99,,,0.00,0,rob ver 1B,2013-03-16 03:16:00,
2013-03-15 20:17:00,82.8,32.3,29.32,SSW,195,6.1,7.2,16,-99.99,,,0.00,0,rob ver 1A,2013-03-16 03:17:00,
2013-03-15 20:18:00,79.7,31.3,29.23,South,180,6.6,7.8,17,-99.99,,,0.00,0,rob ver 1B,2013-03-16 03:18:00,
2013-03-15 20:19:00,79.6,31.3,29.23,South,183,6.4,7.5,17,-99.99,,,0.00,0,rob ver 1B,2013-03-16 03:19:00,
2013-03-15 20:20:00,79.6,31.3,29.23,South,181,6.3,7.1,17,-99.99,,,0.00,0,rob ver 1B,2013-03-16 03:20:00,
2013-03-15 20:21:00,79.5,31.3,29.23,South,181,6.1,7.7,17,-99.99,,,0.00,0,rob ver 1B,2013-03-16 03:21:00,
2013-03-15 20:22:00,82.8,32.3,29.32,South,190,5.2,6.4,16,-99.99,,,0.00,0,rob ver 1A,2013-03-16 03:22:00,
2013-03-15 20:23:00,79.4,31.4,29.23,South,180,6.6,8.1,17,-99.99,,,0.00,0,rob ver 1B,2013-03-16 03:23:00,
2013-03-15 20:24:00,79.5,31.5,29.23,South,180,6.7,8.3,17,-99.99,,,0.00,0,rob ver 1B,2013-03-16 03:24:00,
2013-03-15 20:25:00,79.5,31.5,29.23,South,179,6.8,7.8,17,-99.99,,,0.00,0,rob ver 1B,2013-03-16 03:25:00,
2013-03-15 20:26:00,79.5,31.5,29.23,South,179,6.9,8.0,17,-99.99,,,0.00,0,rob ver 1B,2013-03-16 03:26:00,
2013-03-15 20:27:00,81.6,32.1,29.32,South,181,4.9,5.4,16,-99.99,,,0.00,0,rob ver 1A,2013-03-16 03:27:00,
2013-03-15 20:28:00,79.5,31.6,29.23,South,181,6.8,8.1,17,-99.99,,,0.00,0,rob ver 1B,2013-03-16 03:28:00,
2013-03-15 20:29:00,79.5,31.5,29.23,South,181,6.4,7.3,17,-99.99,,,0.00,0,rob ver 1B,2013-03-16 03:29:00,
2013-03-15 20:30:00,79.4,31.6,29.23,South,179,5.9,6.9,17,-99.99,,,0.00,0,rob ver 1B,2013-03-16 03:30:00,
2013-03-15 20:31:00,79.3,31.6,29.23,South,178,6.0,6.8,17,-99.99,,,0.00,0,rob ver 1B,2013-03-16 03:31:00,
2013-03-15 20:32:00,81.2,32.4,29.32,South,180,5.0,5.5,17,-99.99,,,0.00,0,rob ver 1A,2013-03-16 03:32:00,
2013-03-15 20:33:00,79.2,31.8,29.23,South,180,5.9,7.5,17,-99.99,,,0.00,0,rob ver 1B,2013-03-16 03:33:00,
2013-03-15 20:34:00,79.1,31.8,29.23,South,181,5.1,6.2,17,-99.99,,,0.00,0,rob ver 1B,2013-03-16 03:34:00,
2013-03-15 20:35:00,78.9,31.8,29.23,South,179,5.2,6.7,17,-99.99,,,0.00,0,rob ver 1B,2013-03-16 03:35:00,
2013-03-15 20:36:00,78.9,31.9,29.23,South,176,5.0,5.7,18,-99.99,,,0.00,0,rob ver 1B,2013-03-16 03:36:00,
2013-03-15 20:37:00,80.7,32.6,29.32,South,179,4.3,4.7,17,-99.99,,,0.00,0,rob ver 1A,2013-03-16 03:37:00,
2013-03-15 20:38:00,78.7,32.1,29.23,South,173,4.5,5.4,18,-99.99,,,0.00,0,rob ver 1B,2013-03-16 03:38:00,
2013-03-15 20:39:00,78.7,32.2,29.23,South,172,4.3,5.3,18,-99.99,,,0.00,0,rob ver 1B,2013-03-16 03:39:00,
2013-03-15 20:40:00,78.6,32.1,29.23,South,169,3.3,4.0,18,-99.99,,,0.00,0,rob ver 1B,2013-03-16 03:40:00,
2013-03-15 20:41:00,78.4,32.1,29.23,SSE,162,2.7,3.7,18,-99.99,,,0.00,0,rob ver 1B,2013-03-16 03:41:00,
2013-03-15 20:42:00,80.2,32.6,29.32,South,177,4.2,4.6,17,-99.99,,,0.00,0,rob ver 1A,2013-03-16 03:42:00,
2013-03-15 20:43:00,78.2,32.1,29.23,East,90,0.6,1.0,18,-99.99,,,0.00,0,rob ver 1B,2013-03-16 03:43:00,
2013-03-15 20:44:00,78.1,32.0,29.23,NE,55,0.7,1.3,18,-99.99,,,0.00,0,rob ver 1B,2013-03-16 03:44:00,
2013-03-15 20:45:00,78.0,32.0,29.23,North,2,1.0,1.9,18,-99.99,,,0.00,0,rob ver 1B,2013-03-16 03:45:00,
2013-03-15 20:46:00,77.9,31.8,29.23,NNE,16,1.8,2.4,18,-99.99,,,0.00,0,rob ver 1B,2013-03-16 03:46:00,
2013-03-15 20:47:00,80.1,32.6,29.32,South,172,5.0,5.7,17,-99.99,,,0.00,0,rob ver 1A,2013-03-16 03:47:00,
2013-03-15 20:48:00,77.6,31.7,29.23,North,4,2.3,2.8,18,-99.99,,,0.00,0,rob ver 1B,2013-03-16 03:48:00,
2013-03-15 20:49:00,77.5,31.7,29.23,NNE,19,1.6,2.3,18,-99.99,,,0.00,0,rob ver 1B,2013-03-16 03:49:00,
2013-03-15 20:50:00,77.5,31.6,29.23,NE,38,2.3,3.5,18,-99.99,,,0.00,0,rob ver 1B,2013-03-16 03:50:00,
2013-03-15 20:51:00,77.4,31.7,29.23,NNE,15,2.5,3.4,18,-99.99,,,0.00,0,rob ver 1B,2013-03-16 03:51:00,
2013-03-15 20:52:00,80.0,33.5,29.32,SSE,157,5.9,6.9,18,-99.99,,,0.00,0,rob ver 1A,2013-03-16 03:52:00,
2013-03-15 20:53:00,77.4,31.4,29.23,NE,47,2.2,4.0,18,-99.99,,,0.00,0,rob ver 1B,2013-03-16 03:53:00,
2013-03-15 20:54:00,77.4,31.2,29.23,NE,55,2.6,3.9,18,-99.99,,,0.00,0,rob ver 1B,2013-03-16 03:54:00,
2013-03-15 20:55:00,77.2,31.3,29.23,ENE,57,2.2,2.9,18,-99.99,,,0.00,0,rob ver 1B,2013-03-16 03:55:00,
2013-03-15 20:56:00,77.1,31.5,29.23,ENE,63,2.2,3.2,18,-99.99,,,0.00,0,rob ver 1B,2013-03-16 03:56:00,
2013-03-15 20:57:00,77.1,31.7,29.23,ENE,59,2.2,3.0,18,-99.99,,,0.00,0,rob ver 1B,2013-03-16 03:57:00,
2013-03-15 20:58:00,79.4,34.6,29.32,SSE,161,5.3,6.2,19,-99.99,,,0.00,0,rob ver 1A,2013-03-16 03:58:00,
2013-03-15 20:59:00,77.1,31.5,29.23,ENE,63,2.4,3.5,18,-99.99,,,0.00,0,rob ver 1B,2013-03-16 03:59:00,
2013-03-15 21:00:00,79.1,35.0,29.32,SSE,164,5.2,6.4,20,-99.99,,,0.00,0,rob ver 1A,2013-03-16 04:00:00,
2013-03-15 21:01:00,79.1,35.0,29.32,SSE,164,5.2,6.4,20,-99.99,,,0.00,0,rob ver 1A,2013-03-16 04:01:00,
2013-03-15 21:02:00,79.1,35.2,29.32,South,170,5.3,6.5,20,-99.99,,,0.00,0,rob ver 1A,2013-03-16 04:02:00,
2013-03-15 21:03:00,77.4,32.0,29.23,East,94,2.7,3.9,19,-99.99,,,0.00,0,rob ver 1B,2013-03-16 04:03:00,
2013-03-15 21:04:00,77.6,32.1,29.23,East,92,2.7,3.7,18,-99.99,,,0.00,0,rob ver 1B,2013-03-16 04:04:00,
2013-03-15 21:05:00,77.7,32.1,29.23,East,99,3.1,4.1,18,-99.99,,,0.00,0,rob ver 1B,2013-03-16 04:05:00,
2013-03-15 21:06:00,77.8,32.2,29.23,ESE,111,3.6,4.5,18,-99.99,,,0.00,0,rob ver 1B,2013-03-16 04:06:00,
2013-03-15 21:07:00,79.1,35.7,29.32,South,170,6.1,7.3,20,-99.99,,,0.00,0,rob ver 1A,2013-03-16 04:07:00,
2013-03-15 21:08:00,77.7,32.2,29.23,ESE,108,3.7,4.9,19,-99.99,,,0.00,0,rob ver 1B,2013-03-16 04:08:00,
2013-03-15 21:09:00,77.8,32.2,29.23,ESE,119,3.7,5.6,18,-99.99,,,0.00,0,rob ver 1B,2013-03-16 04:09:00,
2013-03-15 21:10:00,77.8,32.2,29.23,SE,127,3.6,4.7,18,-99.99,,,0.00,0,rob ver 1B,2013-03-16 04:10:00,
2013-03-15 21:11:00,77.9,32.2,29.23,SE,128,3.9,4.8,18,-99.99,,,0.00,0,rob ver 1B,2013-03-16 04:11:00,
2013-03-15 21:12:00,79.0,35.8,29.32,SSE,160,4.3,5.2,21,-99.99,,,0.00,0,rob ver 1A,2013-03-16 04:12:00,
2013-03-15 21:13:00,77.9,32.2,29.23,SE,135,3.4,4.4,18,-99.99,,,0.00,0,rob ver 1B,2013-03-16 04:13:00,
2013-03-15 21:14:00,77.8,32.2,29.23,SSE,147,3.4,5.0,18,-99.99,,,0.00,0,rob ver 1B,2013-03-16 04:14:00,
2013-03-15 21:15:00,77.8,32.1,29.23,SE,142,3.8,4.6,18,-99.99,,,0.00,0,rob ver 1B,2013-03-16 04:15:00,
2013-03-15 21:16:00,77.7,32.1,29.23,SE,134,3.7,4.5,18,-99.99,,,0.00,0,rob ver 1B,2013-03-16 04:16:00,
2013-03-15 21:17:00,77.8,35.1,29.32,East,96,3.2,3.8,21,-99.99,,,0.00,0,rob ver 1A,2013-03-16 04:17:00,
2013-03-15 21:18:00,77.1,32.0,29.23,SE,135,3.2,4.1,19,-99.99,,,0.00,0,rob ver 1B,2013-03-16 04:18:00,
2013-03-15 21:19:00,77.0,32.1,29.23,SE,135,3.0,3.9,19,-99.99,,,0.00,0,rob ver 1B,2013-03-16 04:19:00,
2013-03-15 21:20:00,76.8,32.0,29.23,SSE,157,2.9,3.8,19,-99.99,,,0.00,0,rob ver 1B,2013-03-16 04:20:00,
2013-03-15 21:21:00,76.7,32.1,29.23,South,173,4.9,7.3,19,-99.99,,,0.00,0,rob ver 1B,2013-03-16 04:21:00,
2013-03-15 21:22:00,77.8,35.7,29.32,ESE,104,3.9,4.8,21,-99.99,,,0.00,0,rob ver 1A,2013-03-16 04:22:00,
2013-03-15 21:23:00,77.1,32.1,29.23,South,176,6.8,7.7,19,-99.99,,,0.00,0,rob ver 1B,2013-03-16 04:23:00,
2013-03-15 21:24:00,77.3,32.0,29.23,South,177,6.3,7.4,19,-99.99,,,0.00,0,rob ver 1B,2013-03-16 04:24:00,
2013-03-15 21:25:00,77.4,32.0,29.23,South,177,6.4,7.2,19,-99.99,,,0.00,0,rob ver 1B,2013-03-16 04:25:00,
2013-03-15 21:26:00,77.6,32.1,29.23,South,180,6.3,7.5,18,-99.99,,,0.00,0,rob ver 1B,2013-03-16 04:26:00,
2013-03-15 21:27:00,78.0,35.7,29.32,ESE,108,5.8,6.4,21,-99.99,,,0.00,0,rob ver 1A,2013-03-16 04:27:00,
2013-03-15 21:28:00,77.6,32.1,29.23,South,182,6.2,7.2,18,-99.99,,,0.00,0,rob ver 1B,2013-03-16 04:28:00,
2013-03-15 21:29:00,77.6,32.1,29.26,South,183,6.1,7.4,18,-99.99,,,0.00,0,rob ver 1B,2013-03-16 04:29:00,
2013-03-15 21:30:00,77.5,32.0,29.23,South,186,6.4,7.6,19,-99.99,,,0.00,0,rob ver 1B,2013-03-16 04:30:00,
2013-03-15 21:31:00,77.4,32.0,29.23,South,186,6.4,8.1,19,-99.99,,,0.00,0,rob ver 1B,2013-03-16 04:31:00,
2013-03-15 21:32:00,78.5,36.5,29.32,ESE,114,6.0,8.0,21,-99.99,,,0.00,0,rob ver 1A,2013-03-16 04:32:00,
2013-03-15 21:33:00,77.3,32.0,29.26,South,188,7.2,9.0,19,-99.99,,,0.00,0,rob ver 1B,2013-03-16 04:33:00,
2013-03-15 21:34:00,77.4,32.0,29.26,South,190,7.2,8.6,19,-99.99,,,0.00,0,rob ver 1B,2013-03-16 04:34:00,
2013-03-15 21:35:00,77.6,31.9,29.26,South,191,7.9,10.0,18,-99.99,,,0.00,0,rob ver 1B,2013-03-16 04:35:00,
2013-03-15 21:36:00,77.8,31.7,29.26,South,191,8.2,10.2,18,-99.99,,,0.00,0,rob ver 1B,2013-03-16 04:36:00,
2013-03-15 21:37:00,78.4,36.5,29.32,SE,129,4.5,6.1,22,-99.99,,,0.00,0,rob ver 1A,2013-03-16 04:37:00,
2013-03-15 21:38:00,78.1,31.6,29.26,SSW,193,8.2,10.1,18,-99.99,,,0.00,0,rob ver 1B,2013-03-16 04:38:00,
2013-03-15 21:39:00,78.1,31.5,29.26,SSW,193,7.9,9.5,18,-99.99,,,0.00,0,rob ver 1B,2013-03-16 04:39:00,
2013-03-15 21:40:00,78.2,31.4,29.26,SSW,192,7.6,10.8,18,-99.99,,,0.00,0,rob ver 1B,2013-03-16 04:40:00,
2013-03-15 21:41:00,78.2,31.3,29.26,South,190,7.9,10.5,18,-99.99,,,0.00,0,rob ver 1B,2013-03-16 04:41:00,
2013-03-15 21:42:00,77.4,36.2,29.32,SE,126,3.8,4.5,22,-99.99,,,0.00,0,rob ver 1A,2013-03-16 04:42:00,
2013-03-15 21:43:00,77.9,31.3,29.26,South,189,8.6,13.0,18,-99.99,,,0.00,0,rob ver 1B,2013-03-16 04:43:00,
2013-03-15 21:44:00,77.9,31.5,29.26,South,186,9.8,14.1,18,-99.99,,,0.00,0,rob ver 1B,2013-03-16 04:44:00,
2013-03-15 21:45:00,77.8,31.5,29.26,South,188,8.4,10.6,18,-99.99,,,0.00,0,rob ver 1B,2013-03-16 04:45:00,
2013-03-15 21:46:00,77.6,31.5,29.26,South,187,8.8,11.3,18,-99.99,,,0.00,0,rob ver 1B,2013-03-16 04:46:00,
2013-03-15 21:47:00,77.2,36.1,29.32,SE,129,3.5,4.5,22,-99.99,,,0.00,0,rob ver 1A,2013-03-16 04:47:00,
2013-03-15 21:48:00,77.4,32.0,29.26,South,189,10.4,13.5,19,-99.99,,,0.00,0,rob ver 1B,2013-03-16 04:48:00,
2013-03-15 21:49:00,77.6,32.1,29.26,South,183,10.9,13.6,19,-99.99,,,0.00,0,rob ver 1B,2013-03-16 04:49:00,
2013-03-15 21:50:00,77.7,32.4,29.26,South,182,11.5,14.6,19,-99.99,,,0.00,0,rob ver 1B,2013-03-16 04:50:00,
2013-03-15 21:51:00,77.8,32.7,29.26,South,182,11.8,14.1,19,-99.99,,,0.00,0,rob ver 1B,2013-03-16 04:51:00,
2013-03-15 21:52:00,76.9,35.9,29.32,ESE,110,3.4,4.1,22,-99.99,,,0.00,0,rob ver 1A,2013-03-16 04:52:00,
2013-03-15 21:53:00,77.7,33.2,29.26,South,181,13.4,17.6,19,-99.99,,,0.00,0,rob ver 1B,2013-03-16 04:53:00,
2013-03-15 21:54:00,77.6,33.4,29.26,South,181,13.4,17.0,20,-99.99,,,0.00,0,rob ver 1B,2013-03-16 04:54:00,
2013-03-15 21:55:00,77.6,34.0,29.26,South,181,14.8,17.6,20,-99.99,,,0.00,0,rob ver 1B,2013-03-16 04:55:00,
2013-03-15 21:56:00,77.6,34.2,29.26,South,182,13.0,16.2,20,-99.99,,,0.00,0,rob ver 1B,2013-03-16 04:56:00,
2013-03-15 21:57:00,76.5,35.6,29.32,South,173,5.3,7.3,22,-99.99,,,0.00,0,rob ver 1A,2013-03-16 04:57:00,
2013-03-15 21:58:00,77.1,34.6,29.26,South,182,12.9,17.0,21,-99.99,,,0.00,0,rob ver 1B,2013-03-16 04:58:00,
2013-03-15 21:59:00,77.0,34.9,29.26,South,183,13.2,17.0,21,-99.99,,,0.00,0,rob ver 1B,2013-03-16 04:59:00,
2013-03-15 22:00:00,76.9,35.1,29.26,South,184,13.1,16.8,22,-99.99,,,0.00,0,rob ver 1B,2013-03-16 05:00:00,
2013-03-15 22:01:00,76.8,35.1,29.26,South,182,11.4,13.7,22,-99.99,,,0.00,0,rob ver 1B,2013-03-16 05:01:00,
2013-03-15 22:02:00,77.5,35.1,29.32,South,178,7.5,9.2,21,-99.99,,,0.00,0,rob ver 1A,2013-03-16 05:02:00,
2013-03-15 22:03:00,76.4,35.4,29.26,South,183,12.3,14.7,22,-99.99,,,0.00,0,rob ver 1B,2013-03-16 05:03:00,
2013-03-15 22:04:00,76.3,35.5,29.26,South,181,12.5,15.2,22,-99.99,,,0.00,0,rob ver 1B,2013-03-16 05:04:00,
2013-03-15 22:05:00,76.3,35.6,29.26,South,179,12.7,15.3,22,-99.99,,,0.00,0,rob ver 1B,2013-03-16 05:05:00,
2013-03-15 22:06:00,76.2,35.7,29.26,South,180,11.5,14.3,22,-99.99,,,0.00,0,rob ver 1B,2013-03-16 05:06:00,
2013-03-15 22:07:00,77.3,35.1,29.32,South,178,7.3,8.4,21,-99.99,,,0.00,0,rob ver 1A,2013-03-16 05:07:00,
2013-03-15 22:08:00,76.1,35.9,29.26,South,178,13.3,16.1,23,-99.99,,,0.00,0,rob ver 1B,2013-03-16 05:08:00,
2013-03-15 22:09:00,76.1,36.1,29.26,South,179,13.2,17.0,23,-99.99,,,0.00,0,rob ver 1B,2013-03-16 05:09:00,
2013-03-15 22:10:00,76.0,36.3,29.26,South,178,13.5,16.8,23,-99.99,,,0.00,0,rob ver 1B,2013-03-16 05:10:00,
2013-03-15 22:11:00,76.0,36.3,29.26,South,175,12.1,14.9,23,-99.99,,,0.00,0,rob ver 1B,2013-03-16 05:11:00,
2013-03-15 22:12:00,77.4,34.5,29.32,South,178,7.7,9.0,21,-99.99,,,0.00,0,rob ver 1A,2013-03-16 05:12:00,
2013-03-15 22:13:00,75.9,36.6,29.26,South,176,13.2,17.3,24,-99.99,,,0.00,0,rob ver 1B,2013-03-16 05:13:00,
2013-03-15 22:14:00,75.8,36.8,29.26,South,177,12.5,16.0,24,-99.99,,,0.00,0,rob ver 1B,2013-03-16 05:14:00,
2013-03-15 22:15:00,75.8,36.9,29.26,South,177,12.5,14.6,24,-99.99,,,0.00,0,rob ver 1B,2013-03-16 05:15:00,
2013-03-15 22:16:00,75.7,37.1,29.26,South,177,13.8,16.7,24,-99.99,,,0.00,0,rob ver 1B,2013-03-16 05:16:00,
2013-03-15 22:17:00,75.7,37.1,29.26,South,178,12.6,14.8,24,-99.99,,,0.00,0,rob ver 1B,2013-03-16 05:17:00,
2013-03-15 22:18:00,77.2,34.3,29.32,South,179,7.1,8.5,20,-99.99,,,0.00,0,rob ver 1A,2013-03-16 05:18:00,
2013-03-15 22:19:00,75.6,37.3,29.26,South,177,10.9,14.0,24,-99.99,,,0.00,0,rob ver 1B,2013-03-16 05:19:00,
2013-03-15 22:20:00,75.5,37.3,29.26,South,175,10.6,12.9,25,-99.99,,,0.00,0,rob ver 1B,2013-03-16 05:20:00,
2013-03-15 22:21:00,75.5,37.4,29.26,South,173,10.8,13.1,25,-99.99,,,0.00,0,rob ver 1B,2013-03-16 05:21:00,
2013-03-15 22:22:00,75.4,37.4,29.26,South,171,10.4,12.6,25,-99.99,,,0.00,0,rob ver 1B,2013-03-16 05:22:00,
2013-03-15 22:23:00,76.7,34.5,29.32,South,180,5.3,6.2,21,-99.99,,,0.00,0,rob ver 1A,2013-03-16 05:23:00,
2013-03-15 22:24:00,75.4,37.5,29.26,South,173,10.8,13.9,25,-99.99,,,0.00,0,rob ver 1B,2013-03-16 05:24:00,
2013-03-15 22:25:00,75.4,37.4,29.26,South,172,8.9,11.6,25,-99.99,,,0.00,0,rob ver 1B,2013-03-16 05:25:00,
2013-03-15 22:26:00,75.3,37.4,29.26,South,171,9.1,11.5,25,-99.99,,,0.00,0,rob ver 1B,2013-03-16 05:26:00,
2013-03-15 22:27:00,75.2,37.4,29.26,South,169,7.5,8.7,25,-99.99,,,0.00,0,rob ver 1B,2013-03-16 05:27:00,
2013-03-15 22:28:00,76.3,34.6,29.32,South,179,4.9,6.1,21,-99.99,,,0.00,0,rob ver 1A,2013-03-16 05:28:00,
2013-03-15 22:29:00,75.0,37.5,29.26,South,171,8.4,10.8,25,-99.99,,,0.00,0,rob ver 1B,2013-03-16 05:29:00,
2013-03-15 22:30:00,74.9,37.4,29.26,South,169,7.1,8.4,25,-99.99,,,0.00,0,rob ver 1B,2013-03-16 05:30:00,
2013-03-15 22:31:00,74.8,37.4,29.26,South,172,7.5,9.7,25,-99.99,,,0.00,0,rob ver 1B,2013-03-16 05:31:00,
2013-03-15 22:32:00,74.7,37.5,29.26,South,174,7.4,10.3,25,-99.99,,,0.00,0,rob ver 1B,2013-03-16 05:32:00,
2013-03-15 22:33:00,76.1,34.4,29.32,South,177,4.5,5.5,21,-99.99,,,0.00,0,rob ver 1A,2013-03-16 05:33:00,
2013-03-15 22:34:00,74.7,37.5,29.26,South,175,7.1,9.4,25,-99.99,,,0.00,0,rob ver 1B,2013-03-16 05:34:00,
2013-03-15 22:35:00,74.7,37.6,29.26,South,175,8.1,9.8,25,-99.99,,,0.00,0,rob ver 1B,2013-03-16 05:35:00,
2013-03-15 22:36:00,74.7,37.5,29.26,South,177,7.5,9.1,25,-99.99,,,0.00,0,rob ver 1B,2013-03-16 05:36:00,
2013-03-15 22:37:00,74.7,37.5,29.26,South,176,8.0,9.7,25,-99.99,,,0.00,0,rob ver 1B,2013-03-16 05:37:00,
2013-03-15 22:38:00,75.8,34.2,29.32,South,189,4.0,5.0,21,-99.99,,,0.00,0,rob ver 1A,2013-03-16 05:38:00,
2013-03-15 22:39:00,74.6,37.4,29.26,South,175,7.3,9.3,25,-99.99,,,0.00,0,rob ver 1B,2013-03-16 05:39:00,
2013-03-15 22:40:00,74.5,37.4,29.26,South,177,7.5,9.3,25,-99.99,,,0.00,0,rob ver 1B,2013-03-16 05:40:00,
2013-03-15 22:41:00,74.4,37.4,29.26,South,177,7.1,8.2,26,-99.99,,,0.00,0,rob ver 1B,2013-03-16 05:41:00,
2013-03-15 22:42:00,74.3,37.3,29.26,South,175,6.3,7.5,26,-99.99,,,0.00,0,rob ver 1B,2013-03-16 05:42:00,
2013-03-15 22:43:00,75.8,34.4,29.32,SSW,196,5.1,6.4,22,-99.99,,,0.00,0,rob ver 1A,2013-03-16 05:43:00,
2013-03-15 22:44:00,74.2,37.3,29.26,South,169,6.4,8.6,26,-99.99,,,0.00,0,rob ver 1B,2013-03-16 05:44:00,
2013-03-15 22:45:00,74.2,37.2,29.26,South,170,6.4,7.6,26,-99.99,,,0.00,0,rob ver 1B,2013-03-16 05:45:00,
2013-03-15 22:46:00,74.2,37.1,29.26,SSE,167,5.4,7.5,25,-99.99,,,0.00,0,rob ver 1B,2013-03-16 05:46:00,
2013-03-15 22:47:00,74.0,37.0,29.26,SSE,163,5.2,6.9,25,-99.99,,,0.00,0,rob ver 1B,2013-03-16 05:47:00,
2013-03-15 22:48:00,75.5,34.4,29.32,SSW,200,4.9,6.3,22,-99.99,,,0.00,0,rob ver 1A,2013-03-16 05:48:00,
2013-03-15 22:49:00,73.9,37.0,29.26,SSE,167,5.6,7.2,26,-99.99,,,0.00,0,rob ver 1B,2013-03-16 05:49:00,
2013-03-15 22:50:00,73.9,36.9,29.26,South,170,5.4,6.9,26,-99.99,,,0.00,0,rob ver 1B,2013-03-16 05:50:00,
2013-03-15 22:51:00,73.8,36.9,29.26,SSE,162,5.3,6.5,26,-99.99,,,0.00,0,rob ver 1B,2013-03-16 05:51:00,
2013-03-15 22:52:00,73.7,36.9,29.26,SSE,156,4.5,5.5,26,-99.99,,,0.00,0,rob ver 1B,2013-03-16 05:52:00,
2013-03-15 22:53:00,75.2,33.8,29.32,SSW,203,4.4,5.7,21,-99.99,,,0.00,0,rob ver 1A,2013-03-16 05:53:00,
2013-03-15 22:54:00,73.5,37.0,29.26,SSE,154,6.2,7.4,26,-99.99,,,0.00,0,rob ver 1B,2013-03-16 05:54:00,
2013-03-15 22:55:00,73.4,37.1,29.26,SSE,155,6.4,7.9,26,-99.99,,,0.00,0,rob ver 1B,2013-03-16 05:55:00,
2013-03-15 22:56:00,73.3,37.4,29.26,SSE,157,7.7,10.6,27,-99.99,,,0.00,0,rob ver 1B,2013-03-16 05:56:00,
2013-03-15 22:57:00,73.3,37.6,29.26,SSE,153,7.5,8.9,27,-99.99,,,0.00,0,rob ver 1B,2013-03-16 05:57:00,
2013-03-15 22:58:00,75.4,33.3,29.32,SW,215,5.2,6.0,21,-99.99,,,0.00,0,rob ver 1A,2013-03-16 05:58:00,
2013-03-15 22:59:00,73.3,37.8,29.26,SE,145,8.4,11.0,27,-99.99,,,0.00,0,rob ver 1B,2013-03-16 05:59:00,
2013-03-15 23:00:00,73.2,37.7,29.26,SSE,147,6.9,8.2,27,-99.99,,,0.00,0,rob ver 1B,2013-03-16 06:00:00,
2013-03-15 23:01:00,73.1,37.7,29.26,SSE,147,7.5,10.0,27,-99.99,,,0.00,0,rob ver 1B,2013-03-16 06:01:00,
2013-03-15 23:02:00,73.1,37.8,29.26,SE,144,6.9,8.8,27,-99.99,,,0.00,0,rob ver 1B,2013-03-16 06:02:00,
2013-03-15 23:03:00,75.5,32.7,29.32,SW,233,4.6,5.5,20,-99.99,,,0.00,0,rob ver 1A,2013-03-16 06:03:00,
2013-03-15 23:04:00,72.9,37.7,29.26,SSE,155,7.5,10.5,27,-99.99,,,0.00,0,rob ver 1B,2013-03-16 06:04:00,
2013-03-15 23:05:00,72.9,37.7,29.26,SSE,154,6.7,8.4,27,-99.99,,,0.00,0,rob ver 1B,2013-03-16 06:05:00,
2013-03-15 23:06:00,72.9,37.6,29.26,SSE,149,6.5,8.4,27,-99.99,,,0.00,0,rob ver 1B,2013-03-16 06:06:00,
2013-03-15 23:07:00,72.8,37.6,29.26,SE,145,6.1,7.2,27,-99.99,,,0.00,0,rob ver 1B,2013-03-16 06:07:00,
2013-03-15 23:08:00,74.6,33.4,29.32,WNW,290,3.8,4.3,22,-99.99,,,0.00,0,rob ver 1A,2013-03-16 06:08:00,
2013-03-15 23:09:00,72.8,37.4,29.26,SE,133,5.4,6.5,27,-99.99,,,0.00,0,rob ver 1B,2013-03-16 06:09:00,
2013-03-15 23:10:00,72.6,37.4,29.26,ESE,122,5.5,7.7,27,-99.99,,,0.00,0,rob ver 1B,2013-03-16 06:10:00,
2013-03-15 23:11:00,72.5,37.3,29.26,SE,127,5.7,6.8,27,-99.99,,,0.00,0,rob ver 1B,2013-03-16 06:11:00,
2013-03-15 23:12:00,72.5,37.2,29.26,ESE,119,5.4,7.2,27,-99.99,,,0.00,0,rob ver 1B,2013-03-16 06:12:00,
2013-03-15 23:13:00,72.6,37.1,29.26,ESE,108,5.5,6.5,27,-99.99,,,0.00,0,rob ver 1B,2013-03-16 06:13:00,
2013-03-15 23:14:00,74.0,34.4,29.32,West,273,4.7,5.6,23,-99.99,,,0.00,0,rob ver 1A,2013-03-16 06:14:00,
2013-03-15 23:15:00,72.5,36.8,29.26,ESE,105,4.0,5.7,27,-99.99,,,0.00,0,rob ver 1B,2013-03-16 06:15:00,
2013-03-15 23:16:00,72.3,36.8,29.26,East,86,4.0,4.9,27,-99.99,,,0.00,0,rob ver 1B,2013-03-16 06:16:00,
2013-03-15 23:17:00,72.2,36.8,29.26,East,89,4.0,4.8,27,-99.99,,,0.00,0,rob ver 1B,2013-03-16 06:17:00,
2013-03-15 23:18:00,72.2,36.8,29.26,ENE,78,4.3,5.6,27,-99.99,,,0.00,0,rob ver 1B,2013-03-16 06:18:00,
2013-03-15 23:19:00,73.0,34.9,29.35,WNW,284,7.6,8.8,24,-99.99,,,0.00,0,rob ver 1A,2013-03-16 06:19:00,
2013-03-15 23:20:00,72.2,36.6,29.26,East,93,3.8,5.7,27,-99.99,,,0.00,0,rob ver 1B,2013-03-16 06:20:00,
2013-03-15 23:21:00,72.1,36.4,29.26,East,90,4.8,6.4,27,-99.99,,,0.00,0,rob ver 1B,2013-03-16 06:21:00,
2013-03-15 23:22:00,72.3,36.3,29.26,East,92,4.1,5.4,26,-99.99,,,0.00,0,rob ver 1B,2013-03-16 06:22:00,
2013-03-15 23:23:00,72.3,36.1,29.26,East,96,3.7,4.3,26,-99.99,,,0.00,0,rob ver 1B,2013-03-16 06:23:00,
2013-03-15 23:24:00,73.2,34.3,29.35,West,261,8.8,12.0,23,-99.99,,,0.00,0,rob ver 1A,2013-03-16 06:24:00,
2013-03-15 23:25:00,72.3,35.8,29.26,East,97,4.5,6.1,26,-99.99,,,0.00,0,rob ver 1B,2013-03-16 06:25:00,
2013-03-15 23:26:00,72.4,35.7,29.26,ESE,105,4.0,5.3,26,-99.99,,,0.00,0,rob ver 1B,2013-03-16 06:26:00,
2013-03-15 23:27:00,72.4,35.6,29.26,ESE,110,4.4,5.7,25,-99.99,,,0.00,0,rob ver 1B,2013-03-16 06:27:00,
2013-03-15 23:28:00,72.4,35.5,29.26,ESE,114,4.0,4.9,25,-99.99,,,0.00,0,rob ver 1B,2013-03-16 06:28:00,
2013-03-15 23:29:00,73.1,34.9,29.35,West,275,7.9,9.7,24,-99.99,,,0.00,0,rob ver 1A,2013-03-16 06:29:00,
2013-03-15 23:30:00,71.9,35.3,29.26,SE,128,3.8,4.9,26,-99.99,,,0.00,0,rob ver 1B,2013-03-16 06:30:00,
2013-03-15 23:31:00,72.0,35.3,29.26,ESE,118,4.3,5.3,25,-99.99,,,0.00,0,rob ver 1B,2013-03-16 06:31:00,
2013-03-15 23:32:00,72.1,35.2,29.26,ESE,118,4.8,5.8,25,-99.99,,,0.00,0,rob ver 1B,2013-03-16 06:32:00,
2013-03-15 23:33:00,72.1,35.2,29.26,SE,126,4.5,5.5,25,-99.99,,,0.00,0,rob ver 1B,2013-03-16 06:33:00,
2013-03-15 23:34:00,71.9,34.6,29.35,WNW,287,5.9,7.1,25,-99.99,,,0.00,0,rob ver 1A,2013-03-16 06:34:00,
2013-03-15 23:35:00,72.1,35.0,29.26,SE,129,3.9,4.7,25,-99.99,,,0.00,0,rob ver 1B,2013-03-16 06:35:00,
2013-03-15 23:36:00,72.2,34.9,29.26,SE,130,4.9,6.3,25,-99.99,,,0.00,0,rob ver 1B,2013-03-16 06:36:00,
2013-03-15 23:37:00,72.5,34.9,29.26,SE,128,5.1,6.1,25,-99.99,,,0.00,0,rob ver 1B,2013-03-16 06:37:00,
2013-03-15 23:38:00,72.6,34.8,29.26,SE,130,4.9,6.0,25,-99.99,,,0.00,0,rob ver 1B,2013-03-16 06:38:00,
2013-03-15 23:39:00,73.3,34.7,29.32,West,264,4.9,6.4,24,-99.99,,,0.00,0,rob ver 1A,2013-03-16 06:39:00,
2013-03-15 23:40:00,72.5,34.6,29.26,SE,128,4.4,5.1,24,-99.99,,,0.00,0,rob ver 1B,2013-03-16 06:40:00,
2013-03-15 23:41:00,72.4,34.5,29.26,SE,126,4.4,6.0,24,-99.99,,,0.00,0,rob ver 1B,2013-03-16 06:41:00,
2013-03-15 23:42:00,72.4,34.5,29.26,SE,125,4.8,5.5,24,-99.99,,,0.00,0,rob ver 1B,2013-03-16 06:42:00,
2013-03-15 23:43:00,72.3,34.4,29.26,SE,125,4.8,5.4,24,-99.99,,,0.00,0,rob ver 1B,2013-03-16 06:43:00,
2013-03-15 23:44:00,74.6,33.3,29.32,SW,228,8.2,10.9,22,-99.99,,,0.00,0,rob ver 1A,2013-03-16 06:44:00,
2013-03-15 23:45:00,72.1,34.3,29.26,SE,128,4.3,5.6,24,-99.99,,,0.00,0,rob ver 1B,2013-03-16 06:45:00,
2013-03-15 23:46:00,71.8,34.2,29.26,SE,126,4.8,5.6,24,-99.99,,,0.00,0,rob ver 1B,2013-03-16 06:46:00,
2013-03-15 23:47:00,71.8,34.1,29.26,SE,130,4.8,5.9,25,-99.99,,,0.00,0,rob ver 1B,2013-03-16 06:47:00,
2013-03-15 23:48:00,71.7,34.1,29.26,SE,130,5.0,6.1,25,-99.99,,,0.00,0,rob ver 1B,2013-03-16 06:48:00,
2013-03-15 23:49:00,75.5,33.0,29.32,SW,220,11.0,14.7,20,-99.99,,,0.00,0,rob ver 1A,2013-03-16 06:49:00,
2013-03-15 23:50:00,71.7,34.0,29.26,SE,135,4.7,5.4,24,-99.99,,,0.00,0,rob ver 1B,2013-03-16 06:50:00,
2013-03-15 23:51:00,71.6,33.8,29.26,SE,129,4.5,5.1,24,-99.99,,,0.00,0,rob ver 1B,2013-03-16 06:51:00,
2013-03-15 23:52:00,71.5,33.7,29.26,SE,129,5.5,6.4,24,-99.99,,,0.00,0,rob ver 1B,2013-03-16 06:52:00,
2013-03-15 23:53:00,71.5,33.6,29.26,SE,133,5.5,7.0,24,-99.99,,,0.00,0,rob ver 1B,2013-03-16 06:53:00,
2013-03-15 23:54:00,76.7,31.6,29.32,SSW,203,13.4,15.6,19,-99.99,,,0.00,0,rob ver 1A,2013-03-16 06:54:00,
2013-03-15 23:55:00,71.5,33.4,29.26,SE,140,4.9,5.8,24,-99.99,,,0.00,0,rob ver 1B,2013-03-16 06:55:00,
2013-03-15 23:56:00,71.4,33.4,29.26,SE,136,4.5,5.6,24,-99.99,,,0.00,0,rob ver 1B,2013-03-16 06:56:00,
2013-03-15 23:57:00,71.2,33.2,29.26,SE,137,4.4,5.1,24,-99.99,,,0.00,0,rob ver 1B,2013-03-16 06:57:00,
2013-03-15 23:58:00,71.1,33.2,29.26,SE,138,4.4,5.3,24,-99.99,,,0.00,0,rob ver 1B,2013-03-16 06:58:00,
2013-03-15 23:59:00,76.6,31.3,29.32,SSW,210,12.3,15.5,19,-99.99,,,0.00,0,rob ver 1A,2013-03-16 06:59:00,